PWSweather.com
Personal Weather Stations
Station Observations
BOOMEPH
Weather On The Hill Or Not, Ephrata, PA 17522

Weather On The Hill Or NotEphrata, PA 17522

Lat: 40.17243, Lon: -76.180815

Elevation: 597

Station Type: Ambient WS 1080

High Low Average
Temperature 76.5°F24.7°F 72.3°F22.4°F 73.7°F23.2°F
Dew Point 76.5°F24.7°F 72.4°F22.4°F 73.7°F23.2°F
Winds 3.1 mph SW5.0 mph SW Calm Calm 0.4 mph 0.6 mph
Wind Gusts 5.4 mph8.7 mph -- 2.2 mph3.5 mph
Humidity 100% 100% 100%
Pressure 30.40 in1029.50 in 30.38 in1028.80 in -
Precipitation 4.71 in119.60 in - -
Hour Temp Dew Point Humidity Winds Wind Gusts Pressure Precip Precip Rate Daily Precip Total
12:00 AM 71.8°F22.1°C 71.8°F22.1°C 100% 2.2 mph S3.5 kmh S 6.9 mph11.1 kmh 30.50 in1032.8 mb 0.00 in0.0 mm 0.00 in/hr0.0 mm/hr 0.00 in0.0 mm
12:01 AM 71.8°F22.1°C 71.8°F22.1°C 100% 2.2 mph SSW3.5 kmh SSW 6.9 mph11.1 kmh 30.50 in1032.8 mb 0.00 in0.0 mm 0.00 in/hr0.0 mm/hr 0.00 in0.0 mm
12:02 AM 71.8°F22.1°C 71.8°F22.1°C 100% 2.2 mph SW3.5 kmh SW 5.4 mph8.7 kmh 30.50 in1032.8 mb 0.00 in0.0 mm 0.00 in/hr0.0 mm/hr 0.00 in0.0 mm
12:03 AM 71.8°F22.1°C 71.8°F22.1°C 100% 2.2 mph SSW3.5 kmh SSW 5.4 mph8.7 kmh 30.50 in1032.8 mb 0.00 in0.0 mm 0.00 in/hr0.0 mm/hr 0.00 in0.0 mm
12:04 AM 71.8°F22.1°C 71.8°F22.1°C 100% 2.2 mph SSW3.5 kmh SSW 5.4 mph8.7 kmh 30.50 in1032.8 mb 0.00 in0.0 mm 0.00 in/hr0.0 mm/hr 0.00 in0.0 mm
12:05 AM 71.8°F22.1°C 71.8°F22.1°C 100% 2.2 mph SSW3.5 kmh SSW 5.4 mph8.7 kmh 30.50 in1032.8 mb 0.00 in0.0 mm 0.00 in/hr0.0 mm/hr 0.00 in0.0 mm
12:06 AM 71.8°F22.1°C 71.8°F22.1°C 100% 2.2 mph SSW3.5 kmh SSW 5.4 mph8.7 kmh 30.50 in1032.8 mb 0.00 in0.0 mm 0.00 in/hr0.0 mm/hr 0.00 in0.0 mm
12:07 AM 71.8°F22.1°C 71.8°F22.1°C 100% 0.7 mph SSW1.1 kmh SSW 4.5 mph7.2 kmh 30.50 in1032.8 mb 0.00 in0.0 mm 0.00 in/hr0.0 mm/hr 0.00 in0.0 mm
12:08 AM 71.8°F22.1°C 71.8°F22.1°C 100% Calm Calm 4.5 mph7.2 kmh 30.50 in1032.8 mb 0.00 in0.0 mm 0.00 in/hr0.0 mm/hr 0.00 in0.0 mm
12:09 AM 71.8°F22.1°C 71.8°F22.1°C 100% Calm Calm 4.5 mph7.2 kmh 30.50 in1032.8 mb 0.00 in0.0 mm 0.00 in/hr0.0 mm/hr 0.00 in0.0 mm
12:10 AM 71.8°F22.1°C 71.8°F22.1°C 100% Calm Calm 4.5 mph7.2 kmh 30.50 in1032.8 mb 0.00 in0.0 mm 0.00 in/hr0.0 mm/hr 0.00 in0.0 mm
12:11 AM 71.8°F22.1°C 71.8°F22.1°C 100% Calm Calm 4.5 mph7.2 kmh 30.50 in1032.8 mb 0.00 in0.0 mm 0.00 in/hr0.0 mm/hr 0.00 in0.0 mm
12:12 AM 71.6°F22.0°C 71.6°F22.0°C 100% Calm Calm 4.5 mph7.2 kmh 30.50 in1032.8 mb 0.00 in0.0 mm 0.00 in/hr0.0 mm/hr 0.00 in0.0 mm
12:13 AM 71.6°F22.0°C 71.6°F22.0°C 100% Calm Calm 4.5 mph7.2 kmh 30.50 in1032.8 mb 0.00 in0.0 mm 0.00 in/hr0.0 mm/hr 0.00 in0.0 mm
12:14 AM 71.6°F22.0°C 71.6°F22.0°C 100% 1.6 mph SW2.6 kmh SW 4.5 mph7.2 kmh 30.50 in1032.8 mb 0.00 in0.0 mm 0.00 in/hr0.0 mm/hr 0.00 in0.0 mm
12:15 AM 71.6°F22.0°C 71.6°F22.0°C 100% 0.7 mph SW1.1 kmh SW 4.5 mph7.2 kmh 30.50 in1032.8 mb 0.00 in0.0 mm 0.00 in/hr0.0 mm/hr 0.00 in0.0 mm
12:16 AM 71.6°F22.0°C 71.6°F22.0°C 100% 0.7 mph SSW1.1 kmh SSW 4.5 mph7.2 kmh 30.50 in1032.8 mb 0.00 in0.0 mm 0.00 in/hr0.0 mm/hr 0.00 in0.0 mm
12:17 AM 71.6°F22.0°C 71.6°F22.0°C 100% Calm Calm 3.8 mph6.1 kmh 30.50 in1032.8 mb 0.00 in0.0 mm 0.00 in/hr0.0 mm/hr 0.00 in0.0 mm
12:18 AM 71.6°F22.0°C 71.6°F22.0°C 100% 1.6 mph S2.6 kmh S 3.8 mph6.1 kmh 30.50 in1032.8 mb 0.00 in0.0 mm 0.00 in/hr0.0 mm/hr 0.00 in0.0 mm
12:19 AM 71.6°F22.0°C 71.6°F22.0°C 100% 1.6 mph S2.6 kmh S 3.8 mph6.1 kmh 30.50 in1032.8 mb 0.00 in0.0 mm 0.00 in/hr0.0 mm/hr 0.00 in0.0 mm
12:20 AM 71.6°F22.0°C 71.6°F22.0°C 100% 0.7 mph S1.1 kmh S 3.8 mph6.1 kmh 30.50 in1032.8 mb 0.00 in0.0 mm 0.00 in/hr0.0 mm/hr 0.00 in0.0 mm
12:21 AM 71.6°F22.0°C 71.6°F22.0°C 100% Calm Calm 3.8 mph6.1 kmh 30.50 in1032.8 mb 0.00 in0.0 mm 0.00 in/hr0.0 mm/hr 0.00 in0.0 mm
12:22 AM 71.6°F22.0°C 71.6°F22.0°C 100% 2.2 mph S3.5 kmh S 5.4 mph8.7 kmh 30.50 in1032.8 mb 0.00 in0.0 mm 0.00 in/hr0.0 mm/hr 0.00 in0.0 mm
12:23 AM 71.6°F22.0°C 71.6°F22.0°C 100% 5.4 mph SSW8.7 kmh SSW 9.8 mph15.8 kmh 30.50 in1032.8 mb 0.00 in0.0 mm 0.00 in/hr0.0 mm/hr 0.00 in0.0 mm
12:24 AM 71.8°F22.1°C 71.8°F22.1°C 100% 3.1 mph SW5.0 kmh SW 9.8 mph15.8 kmh 30.50 in1032.8 mb 0.00 in0.0 mm 0.00 in/hr0.0 mm/hr 0.00 in0.0 mm
12:25 AM 71.8°F22.1°C 71.8°F22.1°C 100% Calm Calm 9.8 mph15.8 kmh 30.50 in1032.8 mb 0.00 in0.0 mm 0.00 in/hr0.0 mm/hr 0.00 in0.0 mm
12:26 AM 71.8°F22.1°C 71.8°F22.1°C 100% Calm Calm 9.8 mph15.8 kmh 30.50 in1032.8 mb 0.00 in0.0 mm 0.00 in/hr0.0 mm/hr 0.00 in0.0 mm
12:27 AM 71.8°F22.1°C 71.8°F22.1°C 100% Calm Calm 9.8 mph15.8 kmh 30.50 in1032.8 mb 0.00 in0.0 mm 0.00 in/hr0.0 mm/hr 0.00 in0.0 mm
12:28 AM 71.8°F22.1°C 71.8°F22.1°C 100% Calm Calm 9.8 mph15.8 kmh 30.50 in1032.8 mb 0.00 in0.0 mm 0.00 in/hr0.0 mm/hr 0.00 in0.0 mm
12:29 AM 71.8°F22.1°C 71.8°F22.1°C 100% 4.5 mph SW7.2 kmh SW 9.8 mph15.8 kmh 30.50 in1032.8 mb 0.00 in0.0 mm 0.00 in/hr0.0 mm/hr 0.00 in0.0 mm
12:30 AM 71.6°F22.0°C 71.6°F22.0°C 100% 0.7 mph SW1.1 kmh SW 9.8 mph15.8 kmh 30.50 in1032.8 mb 0.00 in0.0 mm 0.00 in/hr0.0 mm/hr 0.00 in0.0 mm
12:31 AM 71.6°F22.0°C 71.6°F22.0°C 100% Calm Calm 9.8 mph15.8 kmh 30.50 in1032.8 mb 0.00 in0.0 mm 0.00 in/hr0.0 mm/hr 0.00 in0.0 mm
12:32 AM 71.6°F22.0°C 71.6°F22.0°C 100% 0.7 mph SW1.1 kmh SW 9.8 mph15.8 kmh 30.50 in1032.8 mb 0.00 in0.0 mm 0.00 in/hr0.0 mm/hr 0.00 in0.0 mm
12:33 AM 71.6°F22.0°C 71.6°F22.0°C 100% 0.7 mph SW1.1 kmh SW 9.8 mph15.8 kmh 30.50 in1032.8 mb 0.00 in0.0 mm 0.00 in/hr0.0 mm/hr 0.00 in0.0 mm
12:34 AM 71.6°F22.0°C 71.6°F22.0°C 100% Calm Calm 5.4 mph8.7 kmh 30.50 in1032.8 mb 0.00 in0.0 mm 0.00 in/hr0.0 mm/hr 0.00 in0.0 mm
12:35 AM 71.6°F22.0°C 71.6°F22.0°C 100% Calm Calm 5.4 mph8.7 kmh 30.50 in1032.8 mb 0.00 in0.0 mm 0.00 in/hr0.0 mm/hr 0.00 in0.0 mm
12:36 AM 71.6°F22.0°C 71.6°F22.0°C 100% 2.2 mph W3.5 kmh W 5.4 mph8.7 kmh 30.50 in1032.8 mb 0.00 in0.0 mm 0.00 in/hr0.0 mm/hr 0.00 in0.0 mm
12:37 AM 71.6°F22.0°C 71.6°F22.0°C 100% 0.7 mph W1.1 kmh W 5.4 mph8.7 kmh 30.50 in1032.8 mb 0.00 in0.0 mm 0.00 in/hr0.0 mm/hr 0.00 in0.0 mm
12:38 AM 71.6°F22.0°C 71.6°F22.0°C 100% 2.2 mph NW3.5 kmh NW 5.4 mph8.7 kmh 30.50 in1032.8 mb 0.00 in0.0 mm 0.00 in/hr0.0 mm/hr 0.00 in0.0 mm
12:39 AM 71.6°F22.0°C 71.6°F22.0°C 100% 1.6 mph NW2.6 kmh NW 5.4 mph8.7 kmh 30.50 in1032.8 mb 0.00 in0.0 mm 0.00 in/hr0.0 mm/hr 0.00 in0.0 mm
12:40 AM 71.6°F22.0°C 71.6°F22.0°C 100% 0.7 mph NW1.1 kmh NW 4.5 mph7.2 kmh 30.50 in1032.8 mb 0.00 in0.0 mm 0.00 in/hr0.0 mm/hr 0.00 in0.0 mm
12:41 AM 71.6°F22.0°C 71.6°F22.0°C 100% Calm Calm 4.5 mph7.2 kmh 30.50 in1032.8 mb 0.00 in0.0 mm 0.00 in/hr0.0 mm/hr 0.00 in0.0 mm
12:42 AM 71.6°F22.0°C 71.6°F22.0°C 100% Calm Calm 4.5 mph7.2 kmh 30.50 in1032.8 mb 0.00 in0.0 mm 0.00 in/hr0.0 mm/hr 0.00 in0.0 mm
12:43 AM 71.6°F22.0°C 71.6°F22.0°C 100% Calm Calm 4.5 mph7.2 kmh 30.50 in1032.8 mb 0.00 in0.0 mm 0.00 in/hr0.0 mm/hr 0.00 in0.0 mm
12:44 AM 71.6°F22.0°C 71.6°F22.0°C 100% Calm Calm 4.5 mph7.2 kmh 30.50 in1032.8 mb 0.00 in0.0 mm 0.00 in/hr0.0 mm/hr 0.00 in0.0 mm
12:45 AM 71.6°F22.0°C 71.6°F22.0°C 100% 0.7 mph NW1.1 kmh NW 4.5 mph7.2 kmh 30.50 in1032.8 mb 0.00 in0.0 mm 0.00 in/hr0.0 mm/hr 0.00 in0.0 mm
12:46 AM 71.6°F22.0°C 71.6°F22.0°C 100% Calm Calm 4.5 mph7.2 kmh 30.50 in1032.8 mb 0.00 in0.0 mm 0.00 in/hr0.0 mm/hr 0.00 in0.0 mm
12:47 AM 71.6°F22.0°C 71.6°F22.0°C 100% Calm Calm 4.5 mph7.2 kmh 30.50 in1032.8 mb 0.00 in0.0 mm 0.00 in/hr0.0 mm/hr 0.00 in0.0 mm
12:48 AM 71.6°F22.0°C 71.6°F22.0°C 100% Calm Calm 4.5 mph7.2 kmh 30.50 in1032.8 mb 0.00 in0.0 mm 0.00 in/hr0.0 mm/hr 0.00 in0.0 mm
12:49 AM 71.6°F22.0°C 71.6°F22.0°C 100% 0.7 mph WNW1.1 kmh WNW 4.5 mph7.2 kmh 30.50 in1032.8 mb 0.00 in0.0 mm 0.00 in/hr0.0 mm/hr 0.00 in0.0 mm
12:50 AM 71.6°F22.0°C 71.6°F22.0°C 100% Calm Calm 3.8 mph6.1 kmh 30.50 in1032.8 mb 0.00 in0.0 mm 0.00 in/hr0.0 mm/hr 0.00 in0.0 mm
12:51 AM 71.6°F22.0°C 71.6°F22.0°C 100% 2.2 mph NE3.5 kmh NE 4.5 mph7.2 kmh 30.50 in1032.8 mb 0.00 in0.0 mm 0.00 in/hr0.0 mm/hr 0.00 in0.0 mm
12:52 AM 71.6°F22.0°C 71.6°F22.0°C 100% 0.7 mph NE1.1 kmh NE 4.5 mph7.2 kmh 30.50 in1032.8 mb 0.00 in0.0 mm 0.00 in/hr0.0 mm/hr 0.00 in0.0 mm
12:53 AM 71.6°F22.0°C 71.6°F22.0°C 100% 2.2 mph N3.5 kmh N 5.4 mph8.7 kmh 30.50 in1032.8 mb 0.00 in0.0 mm 0.00 in/hr0.0 mm/hr 0.00 in0.0 mm
12:54 AM 71.4°F21.9°C 71.5°F21.9°C 100% 1.6 mph N2.6 kmh N 5.4 mph8.7 kmh 30.50 in1032.8 mb 0.00 in0.0 mm 0.00 in/hr0.0 mm/hr 0.00 in0.0 mm
12:55 AM 71.6°F22.0°C 71.6°F22.0°C 100% Calm Calm 5.4 mph8.7 kmh 30.50 in1032.8 mb 0.00 in0.0 mm 0.00 in/hr0.0 mm/hr 0.00 in0.0 mm
12:56 AM 71.6°F22.0°C 71.6°F22.0°C 100% Calm Calm 5.4 mph8.7 kmh 30.50 in1032.8 mb 0.00 in0.0 mm 0.00 in/hr0.0 mm/hr 0.00 in0.0 mm
12:57 AM 71.6°F22.0°C 71.6°F22.0°C 100% 0.7 mph N1.1 kmh N 5.4 mph8.7 kmh 30.50 in1032.8 mb 0.00 in0.0 mm 0.00 in/hr0.0 mm/hr 0.00 in0.0 mm
12:58 AM 71.6°F22.0°C 71.6°F22.0°C 100% Calm Calm 5.4 mph8.7 kmh 30.50 in1032.8 mb 0.00 in0.0 mm 0.00 in/hr0.0 mm/hr 0.00 in0.0 mm
12:59 AM 71.6°F22.0°C 71.6°F22.0°C 100% 0.7 mph N1.1 kmh N 5.4 mph8.7 kmh 30.50 in1032.8 mb 0.00 in0.0 mm 0.00 in/hr0.0 mm/hr 0.00 in0.0 mm
01:00 AM 71.6°F22.0°C 71.6°F22.0°C 100% 0.7 mph NNE1.1 kmh NNE 5.4 mph8.7 kmh 30.50 in1032.8 mb 0.00 in0.0 mm 0.00 in/hr0.0 mm/hr 0.00 in0.0 mm
01:01 AM 71.6°F22.0°C 71.6°F22.0°C 100% 0.7 mph N1.1 kmh N 5.4 mph8.7 kmh 30.50 in1032.8 mb 0.00 in0.0 mm 0.00 in/hr0.0 mm/hr 0.00 in0.0 mm
01:02 AM 71.6°F22.0°C 71.6°F22.0°C 100% 0.7 mph NNE1.1 kmh NNE 5.4 mph8.7 kmh 30.49 in1032.5 mb 0.00 in0.0 mm 0.00 in/hr0.0 mm/hr 0.00 in0.0 mm
01:03 AM 71.6°F22.0°C 71.6°F22.0°C 100% Calm Calm 5.4 mph8.7 kmh 30.50 in1032.8 mb 0.00 in0.0 mm 0.00 in/hr0.0 mm/hr 0.00 in0.0 mm
01:04 AM 71.6°F22.0°C 71.6°F22.0°C 100% Calm Calm 5.4 mph8.7 kmh 30.50 in1032.8 mb 0.00 in0.0 mm 0.00 in/hr0.0 mm/hr 0.00 in0.0 mm
01:05 AM 71.6°F22.0°C 71.6°F22.0°C 100% Calm Calm 5.4 mph8.7 kmh 30.49 in1032.5 mb 0.00 in0.0 mm 0.00 in/hr0.0 mm/hr 0.00 in0.0 mm
01:06 AM 71.6°F22.0°C 71.6°F22.0°C 100% Calm Calm 5.4 mph8.7 kmh 30.50 in1032.8 mb 0.00 in0.0 mm 0.00 in/hr0.0 mm/hr 0.00 in0.0 mm
01:07 AM 71.6°F22.0°C 71.6°F22.0°C 100% Calm Calm 5.4 mph8.7 kmh 30.49 in1032.5 mb 0.00 in0.0 mm 0.00 in/hr0.0 mm/hr 0.00 in0.0 mm
01:08 AM 71.6°F22.0°C 71.6°F22.0°C 100% Calm Calm 5.4 mph8.7 kmh 30.49 in1032.5 mb 0.00 in0.0 mm 0.00 in/hr0.0 mm/hr 0.00 in0.0 mm
01:09 AM 71.6°F22.0°C 71.6°F22.0°C 100% 0.7 mph SE1.1 kmh SE 5.4 mph8.7 kmh 30.49 in1032.5 mb 0.00 in0.0 mm 0.00 in/hr0.0 mm/hr 0.00 in0.0 mm
01:10 AM 71.6°F22.0°C 71.6°F22.0°C 100% Calm Calm 3.1 mph5.0 kmh 30.49 in1032.5 mb 0.00 in0.0 mm 0.00 in/hr0.0 mm/hr 0.00 in0.0 mm
01:11 AM 71.6°F22.0°C 71.6°F22.0°C 100% 0.7 mph SSW1.1 kmh SSW 3.1 mph5.0 kmh 30.49 in1032.5 mb 0.00 in0.0 mm 0.00 in/hr0.0 mm/hr 0.00 in0.0 mm
01:12 AM 71.6°F22.0°C 71.6°F22.0°C 100% Calm Calm 3.1 mph5.0 kmh 30.49 in1032.5 mb 0.00 in0.0 mm 0.00 in/hr0.0 mm/hr 0.00 in0.0 mm
01:13 AM 71.6°F22.0°C 71.6°F22.0°C 100% Calm Calm 3.1 mph5.0 kmh 30.49 in1032.5 mb 0.00 in0.0 mm 0.00 in/hr0.0 mm/hr 0.00 in0.0 mm
01:14 AM 71.6°F22.0°C 71.6°F22.0°C 100% 2.2 mph S3.5 kmh S 3.8 mph6.1 kmh 30.49 in1032.5 mb 0.00 in0.0 mm 0.00 in/hr0.0 mm/hr 0.00 in0.0 mm
01:15 AM 71.6°F22.0°C 71.6°F22.0°C 100% 0.7 mph SSE1.1 kmh SSE 3.8 mph6.1 kmh 30.49 in1032.5 mb 0.00 in0.0 mm 0.00 in/hr0.0 mm/hr 0.00 in0.0 mm
01:16 AM 71.6°F22.0°C 71.6°F22.0°C 100% Calm Calm 6.9 mph11.1 kmh 30.49 in1032.5 mb 0.00 in0.0 mm 0.00 in/hr0.0 mm/hr 0.00 in0.0 mm
01:17 AM 71.6°F22.0°C 71.6°F22.0°C 100% 0.7 mph SE1.1 kmh SE 6.9 mph11.1 kmh 30.49 in1032.5 mb 0.00 in0.0 mm 0.00 in/hr0.0 mm/hr 0.00 in0.0 mm
01:18 AM 71.6°F22.0°C 71.6°F22.0°C 100% 0.7 mph ESE1.1 kmh ESE 6.9 mph11.1 kmh 30.49 in1032.5 mb 0.00 in0.0 mm 0.00 in/hr0.0 mm/hr 0.00 in0.0 mm
01:19 AM 71.6°F22.0°C 71.6°F22.0°C 100% 0.7 mph E1.1 kmh E 6.9 mph11.1 kmh 30.49 in1032.5 mb 0.00 in0.0 mm 0.00 in/hr0.0 mm/hr 0.00 in0.0 mm
01:20 AM 71.6°F22.0°C 71.6°F22.0°C 100% 2.2 mph E3.5 kmh E 6.9 mph11.1 kmh 30.49 in1032.5 mb 0.00 in0.0 mm 0.00 in/hr0.0 mm/hr 0.00 in0.0 mm
01:21 AM 71.8°F22.1°C 71.8°F22.1°C 100% 0.7 mph E1.1 kmh E 6.9 mph11.1 kmh 30.49 in1032.5 mb 0.00 in0.0 mm 0.00 in/hr0.0 mm/hr 0.00 in0.0 mm
01:22 AM 71.8°F22.1°C 71.8°F22.1°C 100% 0.7 mph E1.1 kmh E 6.9 mph11.1 kmh 30.49 in1032.5 mb 0.00 in0.0 mm 0.00 in/hr0.0 mm/hr 0.00 in0.0 mm
01:23 AM 71.8°F22.1°C 71.8°F22.1°C 100% 1.6 mph ESE2.6 kmh ESE 6.9 mph11.1 kmh 30.49 in1032.5 mb 0.00 in0.0 mm 0.00 in/hr0.0 mm/hr 0.00 in0.0 mm
01:24 AM 71.8°F22.1°C 71.8°F22.1°C 100% Calm Calm 6.9 mph11.1 kmh 30.49 in1032.5 mb 0.00 in0.0 mm 0.00 in/hr0.0 mm/hr 0.00 in0.0 mm
01:25 AM 71.8°F22.1°C 71.8°F22.1°C 100% 1.6 mph SSW2.6 kmh SSW 6.9 mph11.1 kmh 30.49 in1032.5 mb 0.00 in0.0 mm 0.00 in/hr0.0 mm/hr 0.00 in0.0 mm
01:26 AM 71.8°F22.1°C 71.8°F22.1°C 100% Calm Calm 6.0 mph9.7 kmh 30.49 in1032.5 mb 0.00 in0.0 mm 0.00 in/hr0.0 mm/hr 0.00 in0.0 mm
01:27 AM 71.8°F22.1°C 71.8°F22.1°C 100% Calm Calm 6.0 mph9.7 kmh 30.49 in1032.5 mb 0.00 in0.0 mm 0.00 in/hr0.0 mm/hr 0.00 in0.0 mm
01:28 AM 71.8°F22.1°C 71.8°F22.1°C 100% 2.2 mph SW3.5 kmh SW 6.0 mph9.7 kmh 30.49 in1032.5 mb 0.00 in0.0 mm 0.00 in/hr0.0 mm/hr 0.00 in0.0 mm
01:29 AM 71.8°F22.1°C 71.8°F22.1°C 100% 1.6 mph SW2.6 kmh SW 6.0 mph9.7 kmh 30.49 in1032.5 mb 0.00 in0.0 mm 0.00 in/hr0.0 mm/hr 0.00 in0.0 mm
01:30 AM 71.8°F22.1°C 71.8°F22.1°C 100% 5.4 mph SW8.7 kmh SW 8.3 mph13.4 kmh 30.49 in1032.5 mb 0.00 in0.0 mm 0.00 in/hr0.0 mm/hr 0.00 in0.0 mm
01:31 AM 71.8°F22.1°C 71.8°F22.1°C 100% 2.2 mph SSW3.5 kmh SSW 8.3 mph13.4 kmh 30.49 in1032.5 mb 0.00 in0.0 mm 0.00 in/hr0.0 mm/hr 0.00 in0.0 mm
01:32 AM 72.0°F22.2°C 72.0°F22.2°C 100% 0.7 mph SSW1.1 kmh SSW 8.3 mph13.4 kmh 30.49 in1032.5 mb 0.00 in0.0 mm 0.00 in/hr0.0 mm/hr 0.00 in0.0 mm
01:33 AM 71.8°F22.1°C 71.8°F22.1°C 100% Calm Calm 8.3 mph13.4 kmh 30.48 in1032.2 mb 0.00 in0.0 mm 0.00 in/hr0.0 mm/hr 0.00 in0.0 mm
01:34 AM 71.8°F22.1°C 71.8°F22.1°C 100% Calm Calm 8.3 mph13.4 kmh 30.48 in1032.2 mb 0.00 in0.0 mm 0.00 in/hr0.0 mm/hr 0.00 in0.0 mm
01:35 AM 71.8°F22.1°C 71.8°F22.1°C 100% Calm Calm 8.3 mph13.4 kmh 30.48 in1032.2 mb 0.00 in0.0 mm 0.00 in/hr0.0 mm/hr 0.00 in0.0 mm
01:36 AM 71.8°F22.1°C 71.8°F22.1°C 100% 1.6 mph SSE2.6 kmh SSE 8.3 mph13.4 kmh 30.49 in1032.5 mb 0.00 in0.0 mm 0.00 in/hr0.0 mm/hr 0.00 in0.0 mm
01:37 AM 71.8°F22.1°C 71.8°F22.1°C 100% 2.2 mph S3.5 kmh S 8.3 mph13.4 kmh 30.48 in1032.2 mb 0.00 in0.0 mm 0.00 in/hr0.0 mm/hr 0.00 in0.0 mm
01:38 AM 71.8°F22.1°C 71.8°F22.1°C 100% 0.7 mph S1.1 kmh S 8.3 mph13.4 kmh 30.48 in1032.2 mb 0.00 in0.0 mm 0.00 in/hr0.0 mm/hr 0.00 in0.0 mm
01:39 AM 71.8°F22.1°C 71.8°F22.1°C 100% 3.1 mph S5.0 kmh S 8.3 mph13.4 kmh 30.48 in1032.2 mb 0.00 in0.0 mm 0.00 in/hr0.0 mm/hr 0.00 in0.0 mm
01:40 AM 71.8°F22.1°C 71.8°F22.1°C 100% 1.6 mph S2.6 kmh S 8.3 mph13.4 kmh 30.48 in1032.2 mb 0.00 in0.0 mm 0.00 in/hr0.0 mm/hr 0.00 in0.0 mm
01:41 AM 72.0°F22.2°C 72.0°F22.2°C 100% Calm Calm 7.6 mph12.2 kmh 30.48 in1032.2 mb 0.00 in0.0 mm 0.00 in/hr0.0 mm/hr 0.00 in0.0 mm
01:42 AM 72.0°F22.2°C 72.0°F22.2°C 100% 3.8 mph SW6.1 kmh SW 7.6 mph12.2 kmh 30.48 in1032.2 mb 0.00 in0.0 mm 0.00 in/hr0.0 mm/hr 0.00 in0.0 mm
01:43 AM 72.0°F22.2°C 72.0°F22.2°C 100% Calm Calm 7.6 mph12.2 kmh 30.48 in1032.2 mb 0.00 in0.0 mm 0.00 in/hr0.0 mm/hr 0.00 in0.0 mm
01:44 AM 72.0°F22.2°C 72.0°F22.2°C 100% 0.7 mph SW1.1 kmh SW 7.6 mph12.2 kmh 30.48 in1032.2 mb 0.00 in0.0 mm 0.00 in/hr0.0 mm/hr 0.00 in0.0 mm
01:45 AM 72.0°F22.2°C 72.0°F22.2°C 100% 3.1 mph SW5.0 kmh SW 7.6 mph12.2 kmh 30.48 in1032.2 mb 0.00 in0.0 mm 0.00 in/hr0.0 mm/hr 0.00 in0.0 mm
01:46 AM 72.0°F22.2°C 72.0°F22.2°C 100% 1.6 mph SW2.6 kmh SW 7.6 mph12.2 kmh 30.48 in1032.2 mb 0.00 in0.0 mm 0.00 in/hr0.0 mm/hr 0.00 in0.0 mm
01:47 AM 72.0°F22.2°C 72.0°F22.2°C 100% Calm Calm 7.6 mph12.2 kmh 30.48 in1032.2 mb 0.00 in0.0 mm 0.00 in/hr0.0 mm/hr 0.00 in0.0 mm
01:48 AM 72.0°F22.2°C 72.0°F22.2°C 100% 0.7 mph SW1.1 kmh SW 7.6 mph12.2 kmh 30.48 in1032.2 mb 0.00 in0.0 mm 0.00 in/hr0.0 mm/hr 0.00 in0.0 mm
01:49 AM 72.0°F22.2°C 72.0°F22.2°C 100% 2.2 mph SW3.5 kmh SW 7.6 mph12.2 kmh 30.48 in1032.2 mb 0.00 in0.0 mm 0.00 in/hr0.0 mm/hr 0.00 in0.0 mm
01:50 AM 72.0°F22.2°C 72.0°F22.2°C 100% 0.7 mph S1.1 kmh S 7.6 mph12.2 kmh 30.48 in1032.2 mb 0.00 in0.0 mm 0.00 in/hr0.0 mm/hr 0.00 in0.0 mm
01:51 AM 72.0°F22.2°C 72.0°F22.2°C 100% 0.7 mph SSW1.1 kmh SSW 7.6 mph12.2 kmh 30.48 in1032.2 mb 0.00 in0.0 mm 0.00 in/hr0.0 mm/hr 0.00 in0.0 mm
01:52 AM 72.0°F22.2°C 72.0°F22.2°C 100% 1.6 mph SE2.6 kmh SE 7.6 mph12.2 kmh 30.48 in1032.2 mb 0.00 in0.0 mm 0.00 in/hr0.0 mm/hr 0.00 in0.0 mm
01:53 AM 72.0°F22.2°C 72.0°F22.2°C 100% 2.2 mph ESE3.5 kmh ESE 5.4 mph8.7 kmh 30.48 in1032.2 mb 0.00 in0.0 mm 0.00 in/hr0.0 mm/hr 0.00 in0.0 mm
01:54 AM 72.0°F22.2°C 72.0°F22.2°C 100% 2.2 mph SE3.5 kmh SE 5.4 mph8.7 kmh 30.48 in1032.2 mb 0.00 in0.0 mm 0.00 in/hr0.0 mm/hr 0.00 in0.0 mm
01:55 AM 72.0°F22.2°C 72.0°F22.2°C 100% 0.7 mph SE1.1 kmh SE 5.4 mph8.7 kmh 30.48 in1032.2 mb 0.00 in0.0 mm 0.00 in/hr0.0 mm/hr 0.00 in0.0 mm
01:56 AM 72.0°F22.2°C 72.0°F22.2°C 100% 0.7 mph SSE1.1 kmh SSE 4.5 mph7.2 kmh 30.48 in1032.2 mb 0.00 in0.0 mm 0.00 in/hr0.0 mm/hr 0.00 in0.0 mm
01:57 AM 72.1°F22.3°C 72.2°F22.3°C 100% Calm Calm 4.5 mph7.2 kmh 30.48 in1032.2 mb 0.00 in0.0 mm 0.00 in/hr0.0 mm/hr 0.00 in0.0 mm
01:58 AM 72.1°F22.3°C 72.2°F22.3°C 100% Calm Calm 4.5 mph7.2 kmh 30.48 in1032.2 mb 0.00 in0.0 mm 0.00 in/hr0.0 mm/hr 0.00 in0.0 mm
01:59 AM 72.1°F22.3°C 72.2°F22.3°C 100% 0.7 mph SSE1.1 kmh SSE 4.5 mph7.2 kmh 30.48 in1032.2 mb 0.00 in0.0 mm 0.00 in/hr0.0 mm/hr 0.00 in0.0 mm
02:00 AM 72.1°F22.3°C 72.2°F22.3°C 100% 0.7 mph S1.1 kmh S 4.5 mph7.2 kmh 30.48 in1032.2 mb 0.00 in0.0 mm 0.00 in/hr0.0 mm/hr 0.00 in0.0 mm
02:01 AM 72.1°F22.3°C 72.2°F22.3°C 100% 0.7 mph S1.1 kmh S 4.5 mph7.2 kmh 30.48 in1032.2 mb 0.00 in0.0 mm 0.00 in/hr0.0 mm/hr 0.00 in0.0 mm
02:02 AM 72.1°F22.3°C 72.2°F22.3°C 100% 0.7 mph SSW1.1 kmh SSW 4.5 mph7.2 kmh 30.48 in1032.2 mb 0.00 in0.0 mm 0.00 in/hr0.0 mm/hr 0.00 in0.0 mm
02:03 AM 72.1°F22.3°C 72.2°F22.3°C 100% 0.7 mph W1.1 kmh W 4.5 mph7.2 kmh 30.48 in1032.2 mb 0.00 in0.0 mm 0.00 in/hr0.0 mm/hr 0.00 in0.0 mm
02:04 AM 72.1°F22.3°C 72.2°F22.3°C 100% 0.7 mph NW1.1 kmh NW 3.8 mph6.1 kmh 30.48 in1032.2 mb 0.00 in0.0 mm 0.00 in/hr0.0 mm/hr 0.00 in0.0 mm
02:05 AM 72.1°F22.3°C 72.2°F22.3°C 100% 1.6 mph NNW2.6 kmh NNW 3.8 mph6.1 kmh 30.48 in1032.2 mb 0.00 in0.0 mm 0.00 in/hr0.0 mm/hr 0.00 in0.0 mm
02:06 AM 72.1°F22.3°C 72.2°F22.3°C 100% 0.7 mph NW1.1 kmh NW 3.8 mph6.1 kmh 30.48 in1032.2 mb 0.00 in0.0 mm 0.00 in/hr0.0 mm/hr 0.00 in0.0 mm
02:07 AM 72.1°F22.3°C 72.2°F22.3°C 100% Calm Calm 3.8 mph6.1 kmh 30.48 in1032.2 mb 0.00 in0.0 mm 0.00 in/hr0.0 mm/hr 0.00 in0.0 mm
02:08 AM 72.1°F22.3°C 72.2°F22.3°C 100% Calm Calm 3.8 mph6.1 kmh 30.48 in1032.2 mb 0.00 in0.0 mm 0.00 in/hr0.0 mm/hr 0.00 in0.0 mm
02:09 AM 72.1°F22.3°C 72.2°F22.3°C 100% 0.7 mph NW1.1 kmh NW 3.8 mph6.1 kmh 30.48 in1032.2 mb 0.00 in0.0 mm 0.00 in/hr0.0 mm/hr 0.00 in0.0 mm
02:10 AM 72.1°F22.3°C 72.2°F22.3°C 100% 3.1 mph NW5.0 kmh NW 4.5 mph7.2 kmh 30.48 in1032.2 mb 0.00 in0.0 mm 0.00 in/hr0.0 mm/hr 0.00 in0.0 mm
02:11 AM 72.1°F22.3°C 72.2°F22.3°C 100% 0.7 mph WNW1.1 kmh WNW 4.5 mph7.2 kmh 30.48 in1032.2 mb 0.00 in0.0 mm 0.00 in/hr0.0 mm/hr 0.00 in0.0 mm
02:12 AM 72.3°F22.4°C 72.4°F22.4°C 100% 0.7 mph W1.1 kmh W 4.5 mph7.2 kmh 30.48 in1032.2 mb 0.00 in0.0 mm 0.00 in/hr0.0 mm/hr 0.00 in0.0 mm
02:13 AM 72.3°F22.4°C 72.4°F22.4°C 100% Calm Calm 4.5 mph7.2 kmh 30.48 in1032.2 mb 0.00 in0.0 mm 0.00 in/hr0.0 mm/hr 0.00 in0.0 mm
02:14 AM 72.1°F22.3°C 72.2°F22.3°C 100% Calm Calm 4.5 mph7.2 kmh 30.48 in1032.2 mb 0.00 in0.0 mm 0.00 in/hr0.0 mm/hr 0.00 in0.0 mm
02:15 AM 72.1°F22.3°C 72.2°F22.3°C 100% Calm Calm 4.5 mph7.2 kmh 30.48 in1032.2 mb 0.00 in0.0 mm 0.00 in/hr0.0 mm/hr 0.00 in0.0 mm
02:16 AM 72.1°F22.3°C 72.2°F22.3°C 100% 0.7 mph W1.1 kmh W 4.5 mph7.2 kmh 30.48 in1032.2 mb 0.00 in0.0 mm 0.00 in/hr0.0 mm/hr 0.00 in0.0 mm
02:17 AM 72.3°F22.4°C 72.4°F22.4°C 100% Calm Calm 4.5 mph7.2 kmh 30.48 in1032.2 mb 0.00 in0.0 mm 0.00 in/hr0.0 mm/hr 0.00 in0.0 mm
02:18 AM 72.3°F22.4°C 72.4°F22.4°C 100% Calm Calm 4.5 mph7.2 kmh 30.49 in1032.5 mb 0.00 in0.0 mm 0.00 in/hr0.0 mm/hr 0.00 in0.0 mm
02:19 AM 72.3°F22.4°C 72.4°F22.4°C 100% Calm Calm 4.5 mph7.2 kmh 30.48 in1032.2 mb 0.00 in0.0 mm 0.00 in/hr0.0 mm/hr 0.00 in0.0 mm
02:20 AM 72.3°F22.4°C 72.4°F22.4°C 100% Calm Calm 4.5 mph7.2 kmh 30.48 in1032.2 mb 0.00 in0.0 mm 0.00 in/hr0.0 mm/hr 0.00 in0.0 mm
02:21 AM 72.3°F22.4°C 72.4°F22.4°C 100% 1.6 mph SE2.6 kmh SE 6.9 mph11.1 kmh 30.48 in1032.2 mb 0.00 in0.0 mm 0.00 in/hr0.0 mm/hr 0.00 in0.0 mm
02:22 AM 72.3°F22.4°C 72.4°F22.4°C 100% 0.7 mph SSE1.1 kmh SSE 6.9 mph11.1 kmh 30.48 in1032.2 mb 0.00 in0.0 mm 0.00 in/hr0.0 mm/hr 0.00 in0.0 mm
02:23 AM 72.3°F22.4°C 72.4°F22.4°C 100% Calm Calm 6.9 mph11.1 kmh 30.48 in1032.2 mb 0.00 in0.0 mm 0.00 in/hr0.0 mm/hr 0.00 in0.0 mm
02:24 AM 72.3°F22.4°C 72.4°F22.4°C 100% Calm Calm 6.9 mph11.1 kmh 30.48 in1032.2 mb 0.00 in0.0 mm 0.00 in/hr0.0 mm/hr 0.00 in0.0 mm
02:25 AM 72.3°F22.4°C 72.4°F22.4°C 100% Calm Calm 6.9 mph11.1 kmh 30.48 in1032.2 mb 0.00 in0.0 mm 0.00 in/hr0.0 mm/hr 0.00 in0.0 mm
02:26 AM 72.3°F22.4°C 72.4°F22.4°C 100% Calm Calm 6.9 mph11.1 kmh 30.48 in1032.2 mb 0.00 in0.0 mm 0.00 in/hr0.0 mm/hr 0.00 in0.0 mm
02:27 AM 72.3°F22.4°C 72.4°F22.4°C 100% 1.6 mph SSW2.6 kmh SSW 6.9 mph11.1 kmh 30.49 in1032.5 mb 0.00 in0.0 mm 0.00 in/hr0.0 mm/hr 0.00 in0.0 mm
02:28 AM 72.3°F22.4°C 72.4°F22.4°C 100% Calm Calm 6.9 mph11.1 kmh 30.48 in1032.2 mb 0.00 in0.0 mm 0.00 in/hr0.0 mm/hr 0.00 in0.0 mm
02:29 AM 72.3°F22.4°C 72.4°F22.4°C 100% 0.7 mph SSW1.1 kmh SSW 6.9 mph11.1 kmh 30.48 in1032.2 mb 0.00 in0.0 mm 0.00 in/hr0.0 mm/hr 0.00 in0.0 mm
02:30 AM 72.3°F22.4°C 72.4°F22.4°C 100% Calm Calm 6.9 mph11.1 kmh 30.48 in1032.2 mb 0.00 in0.0 mm 0.00 in/hr0.0 mm/hr 0.00 in0.0 mm
02:31 AM 72.3°F22.4°C 72.4°F22.4°C 100% Calm Calm 5.4 mph8.7 kmh 30.48 in1032.2 mb 0.00 in0.0 mm 0.00 in/hr0.0 mm/hr 0.00 in0.0 mm
02:32 AM 72.3°F22.4°C 72.4°F22.4°C 100% 0.7 mph SW1.1 kmh SW 3.8 mph6.1 kmh 30.48 in1032.2 mb 0.00 in0.0 mm 0.00 in/hr0.0 mm/hr 0.00 in0.0 mm
02:33 AM 72.3°F22.4°C 72.4°F22.4°C 100% 2.2 mph SSW3.5 kmh SSW 5.4 mph8.7 kmh 30.48 in1032.2 mb 0.00 in0.0 mm 0.00 in/hr0.0 mm/hr 0.00 in0.0 mm
02:34 AM 72.3°F22.4°C 72.4°F22.4°C 100% 1.6 mph SSW2.6 kmh SSW 5.4 mph8.7 kmh 30.48 in1032.2 mb 0.00 in0.0 mm 0.00 in/hr0.0 mm/hr 0.00 in0.0 mm
02:35 AM 72.3°F22.4°C 72.4°F22.4°C 100% Calm Calm 5.4 mph8.7 kmh 30.48 in1032.2 mb 0.00 in0.0 mm 0.00 in/hr0.0 mm/hr 0.00 in0.0 mm
02:36 AM 72.3°F22.4°C 72.4°F22.4°C 100% 0.7 mph S1.1 kmh S 5.4 mph8.7 kmh 30.48 in1032.2 mb 0.00 in0.0 mm 0.00 in/hr0.0 mm/hr 0.00 in0.0 mm
02:37 AM 72.3°F22.4°C 72.4°F22.4°C 100% 0.7 mph S1.1 kmh S 5.4 mph8.7 kmh 30.48 in1032.2 mb 0.00 in0.0 mm 0.00 in/hr0.0 mm/hr 0.00 in0.0 mm
02:38 AM 72.3°F22.4°C 72.4°F22.4°C 100% 2.2 mph SSW3.5 kmh SSW 5.4 mph8.7 kmh 30.48 in1032.2 mb 0.00 in0.0 mm 0.00 in/hr0.0 mm/hr 0.00 in0.0 mm
02:39 AM 72.3°F22.4°C 72.4°F22.4°C 100% Calm Calm 5.4 mph8.7 kmh 30.48 in1032.2 mb 0.00 in0.0 mm 0.00 in/hr0.0 mm/hr 0.00 in0.0 mm
02:40 AM 72.3°F22.4°C 72.4°F22.4°C 100% 2.2 mph S3.5 kmh S 5.4 mph8.7 kmh 30.48 in1032.2 mb 0.00 in0.0 mm 0.00 in/hr0.0 mm/hr 0.00 in0.0 mm
02:41 AM 72.3°F22.4°C 72.4°F22.4°C 100% Calm Calm 5.4 mph8.7 kmh 30.48 in1032.2 mb 0.00 in0.0 mm 0.00 in/hr0.0 mm/hr 0.00 in0.0 mm
02:42 AM 72.3°F22.4°C 72.4°F22.4°C 100% Calm Calm 5.4 mph8.7 kmh 30.48 in1032.2 mb 0.00 in0.0 mm 0.00 in/hr0.0 mm/hr 0.00 in0.0 mm
02:43 AM 72.3°F22.4°C 72.4°F22.4°C 100% 3.1 mph SSE5.0 kmh SSE 5.4 mph8.7 kmh 30.48 in1032.2 mb 0.00 in0.0 mm 0.00 in/hr0.0 mm/hr 0.00 in0.0 mm
02:44 AM 72.3°F22.4°C 72.4°F22.4°C 100% 0.7 mph SE1.1 kmh SE 5.4 mph8.7 kmh 30.48 in1032.2 mb 0.00 in0.0 mm 0.00 in/hr0.0 mm/hr 0.00 in0.0 mm
02:45 AM 72.3°F22.4°C 72.4°F22.4°C 100% Calm Calm 5.4 mph8.7 kmh 30.48 in1032.2 mb 0.00 in0.0 mm 0.00 in/hr0.0 mm/hr 0.00 in0.0 mm
02:46 AM 72.3°F22.4°C 72.4°F22.4°C 100% Calm Calm 5.4 mph8.7 kmh 30.48 in1032.2 mb 0.00 in0.0 mm 0.00 in/hr0.0 mm/hr 0.00 in0.0 mm
02:47 AM 72.3°F22.4°C 72.4°F22.4°C 100% Calm Calm 5.4 mph8.7 kmh 30.48 in1032.2 mb 0.00 in0.0 mm 0.00 in/hr0.0 mm/hr 0.00 in0.0 mm
02:48 AM 72.3°F22.4°C 72.4°F22.4°C 100% Calm Calm 5.4 mph8.7 kmh 30.48 in1032.2 mb 0.00 in0.0 mm 0.00 in/hr0.0 mm/hr 0.00 in0.0 mm
02:49 AM 72.3°F22.4°C 72.4°F22.4°C 100% 1.6 mph SE2.6 kmh SE 5.4 mph8.7 kmh 30.48 in1032.2 mb 0.00 in0.0 mm 0.00 in/hr0.0 mm/hr 0.00 in0.0 mm
02:50 AM 72.3°F22.4°C 72.4°F22.4°C 100% Calm Calm 3.8 mph6.1 kmh 30.48 in1032.2 mb 0.00 in0.0 mm 0.00 in/hr0.0 mm/hr 0.00 in0.0 mm
02:51 AM 72.3°F22.4°C 72.4°F22.4°C 100% 2.2 mph NE3.5 kmh NE 8.3 mph13.4 kmh 30.48 in1032.2 mb 0.00 in0.0 mm 0.00 in/hr0.0 mm/hr 0.00 in0.0 mm
02:52 AM 72.3°F22.4°C 72.4°F22.4°C 100% 0.7 mph N1.1 kmh N 8.3 mph13.4 kmh 30.48 in1032.2 mb 0.00 in0.0 mm 0.00 in/hr0.0 mm/hr 0.00 in0.0 mm
02:53 AM 72.3°F22.4°C 72.4°F22.4°C 100% Calm Calm 8.3 mph13.4 kmh 30.48 in1032.2 mb 0.00 in0.0 mm 0.00 in/hr0.0 mm/hr 0.00 in0.0 mm
02:54 AM 72.3°F22.4°C 72.4°F22.4°C 100% 0.7 mph NNW1.1 kmh NNW 8.3 mph13.4 kmh 30.48 in1032.2 mb 0.00 in0.0 mm 0.00 in/hr0.0 mm/hr 0.00 in0.0 mm
02:55 AM 72.3°F22.4°C 72.4°F22.4°C 100% Calm Calm 8.3 mph13.4 kmh 30.48 in1032.2 mb 0.00 in0.0 mm 0.00 in/hr0.0 mm/hr 0.00 in0.0 mm
02:56 AM 72.3°F22.4°C 72.4°F22.4°C 100% Calm Calm 8.3 mph13.4 kmh 30.48 in1032.2 mb 0.00 in0.0 mm 0.00 in/hr0.0 mm/hr 0.00 in0.0 mm
02:57 AM 72.3°F22.4°C 72.4°F22.4°C 100% Calm Calm 8.3 mph13.4 kmh 30.48 in1032.2 mb 0.00 in0.0 mm 0.00 in/hr0.0 mm/hr 0.00 in0.0 mm
02:58 AM 72.3°F22.4°C 72.4°F22.4°C 100% 0.7 mph NW1.1 kmh NW 8.3 mph13.4 kmh 30.48 in1032.2 mb 0.00 in0.0 mm 0.00 in/hr0.0 mm/hr 0.00 in0.0 mm
02:59 AM 72.3°F22.4°C 72.4°F22.4°C 100% Calm Calm 8.3 mph13.4 kmh 30.48 in1032.2 mb 0.00 in0.0 mm 0.00 in/hr0.0 mm/hr 0.00 in0.0 mm
03:00 AM 72.3°F22.4°C 72.4°F22.4°C 100% Calm Calm 8.3 mph13.4 kmh 30.48 in1032.2 mb 0.00 in0.0 mm 0.00 in/hr0.0 mm/hr 0.00 in0.0 mm
03:01 AM 72.3°F22.4°C 72.4°F22.4°C 100% Calm Calm 8.3 mph13.4 kmh 30.48 in1032.2 mb 0.00 in0.0 mm 0.00 in/hr0.0 mm/hr 0.00 in0.0 mm
03:02 AM 72.3°F22.4°C 72.4°F22.4°C 100% Calm Calm 3.8 mph6.1 kmh 30.48 in1032.2 mb 0.00 in0.0 mm 0.00 in/hr0.0 mm/hr 0.00 in0.0 mm
03:03 AM 72.3°F22.4°C 72.4°F22.4°C 100% Calm Calm 3.8 mph6.1 kmh 30.48 in1032.2 mb 0.00 in0.0 mm 0.00 in/hr0.0 mm/hr 0.00 in0.0 mm
03:04 AM 72.3°F22.4°C 72.4°F22.4°C 100% Calm Calm 3.8 mph6.1 kmh 30.48 in1032.2 mb 0.00 in0.0 mm 0.00 in/hr0.0 mm/hr 0.00 in0.0 mm
03:05 AM 72.3°F22.4°C 72.4°F22.4°C 100% Calm Calm 3.8 mph6.1 kmh 30.48 in1032.2 mb 0.00 in0.0 mm 0.00 in/hr0.0 mm/hr 0.00 in0.0 mm
03:06 AM 72.3°F22.4°C 72.4°F22.4°C 100% Calm Calm 3.8 mph6.1 kmh 30.48 in1032.2 mb 0.00 in0.0 mm 0.00 in/hr0.0 mm/hr 0.00 in0.0 mm
03:07 AM 72.3°F22.4°C 72.4°F22.4°C 100% Calm Calm 1.6 mph2.6 kmh 30.48 in1032.2 mb 0.00 in0.0 mm 0.00 in/hr0.0 mm/hr 0.00 in0.0 mm
03:08 AM 72.3°F22.4°C 72.4°F22.4°C 100% 0.7 mph WSW1.1 kmh WSW 2.2 mph3.5 kmh 30.48 in1032.2 mb 0.00 in0.0 mm 0.00 in/hr0.0 mm/hr 0.00 in0.0 mm
03:09 AM 72.3°F22.4°C 72.4°F22.4°C 100% Calm Calm 2.2 mph3.5 kmh 30.48 in1032.2 mb 0.00 in0.0 mm 0.00 in/hr0.0 mm/hr 0.00 in0.0 mm
03:10 AM 72.3°F22.4°C 72.4°F22.4°C 100% Calm Calm 2.2 mph3.5 kmh 30.48 in1032.2 mb 0.00 in0.0 mm 0.00 in/hr0.0 mm/hr 0.00 in0.0 mm
03:11 AM 72.3°F22.4°C 72.4°F22.4°C 100% Calm Calm 2.2 mph3.5 kmh 30.48 in1032.2 mb 0.00 in0.0 mm 0.00 in/hr0.0 mm/hr 0.00 in0.0 mm
03:12 AM 72.3°F22.4°C 72.4°F22.4°C 100% Calm Calm 2.2 mph3.5 kmh 30.48 in1032.2 mb 0.00 in0.0 mm 0.00 in/hr0.0 mm/hr 0.00 in0.0 mm
03:13 AM 72.3°F22.4°C 72.4°F22.4°C 100% 0.7 mph WSW1.1 kmh WSW 3.1 mph5.0 kmh 30.48 in1032.2 mb 0.00 in0.0 mm 0.00 in/hr0.0 mm/hr 0.00 in0.0 mm
03:14 AM 72.3°F22.4°C 72.4°F22.4°C 100% Calm Calm 3.1 mph5.0 kmh 30.48 in1032.2 mb 0.00 in0.0 mm 0.00 in/hr0.0 mm/hr 0.00 in0.0 mm
03:15 AM 72.3°F22.4°C 72.4°F22.4°C 100% Calm Calm 3.1 mph5.0 kmh 30.48 in1032.2 mb 0.00 in0.0 mm 0.00 in/hr0.0 mm/hr 0.00 in0.0 mm
03:16 AM 72.3°F22.4°C 72.4°F22.4°C 100% Calm Calm 3.1 mph5.0 kmh 30.48 in1032.2 mb 0.00 in0.0 mm 0.00 in/hr0.0 mm/hr 0.00 in0.0 mm
03:17 AM 72.3°F22.4°C 72.4°F22.4°C 100% Calm Calm 3.1 mph5.0 kmh 30.47 in1031.8 mb 0.00 in0.0 mm 0.00 in/hr0.0 mm/hr 0.00 in0.0 mm
03:18 AM 72.3°F22.4°C 72.4°F22.4°C 100% Calm Calm 3.1 mph5.0 kmh 30.48 in1032.2 mb 0.00 in0.0 mm 0.00 in/hr0.0 mm/hr 0.00 in0.0 mm
03:19 AM 72.3°F22.4°C 72.4°F22.4°C 100% Calm Calm 3.1 mph5.0 kmh 30.47 in1031.8 mb 0.00 in0.0 mm 0.00 in/hr0.0 mm/hr 0.00 in0.0 mm
03:20 AM 72.3°F22.4°C 72.4°F22.4°C 100% Calm Calm 3.1 mph5.0 kmh 30.47 in1031.8 mb 0.00 in0.0 mm 0.00 in/hr0.0 mm/hr 0.00 in0.0 mm
03:21 AM 72.3°F22.4°C 72.4°F22.4°C 100% Calm Calm 3.1 mph5.0 kmh 30.48 in1032.2 mb 0.00 in0.0 mm 0.00 in/hr0.0 mm/hr 0.00 in0.0 mm
03:22 AM 72.3°F22.4°C 72.4°F22.4°C 100% Calm Calm 3.1 mph5.0 kmh 30.48 in1032.2 mb 0.00 in0.0 mm 0.00 in/hr0.0 mm/hr 0.00 in0.0 mm
03:23 AM 72.3°F22.4°C 72.4°F22.4°C 100% Calm Calm 3.1 mph5.0 kmh 30.48 in1032.2 mb 0.00 in0.0 mm 0.00 in/hr0.0 mm/hr 0.00 in0.0 mm
03:24 AM 72.3°F22.4°C 72.4°F22.4°C 100% Calm Calm 1.6 mph2.6 kmh 30.47 in1031.8 mb 0.00 in0.0 mm 0.00 in/hr0.0 mm/hr 0.00 in0.0 mm
03:25 AM 72.3°F22.4°C 72.4°F22.4°C 100% Calm Calm -- 30.48 in1032.2 mb 0.00 in0.0 mm 0.00 in/hr0.0 mm/hr 0.00 in0.0 mm
03:26 AM 72.3°F22.4°C 72.4°F22.4°C 100% Calm Calm -- 30.47 in1031.8 mb 0.00 in0.0 mm 0.00 in/hr0.0 mm/hr 0.00 in0.0 mm
03:27 AM 72.3°F22.4°C 72.4°F22.4°C 100% Calm Calm -- 30.47 in1031.8 mb 0.00 in0.0 mm 0.00 in/hr0.0 mm/hr 0.00 in0.0 mm
03:28 AM 72.3°F22.4°C 72.4°F22.4°C 100% Calm Calm -- 30.47 in1031.8 mb 0.00 in0.0 mm 0.00 in/hr0.0 mm/hr 0.00 in0.0 mm
03:29 AM 72.3°F22.4°C 72.4°F22.4°C 100% Calm Calm -- 30.47 in1031.8 mb 0.00 in0.0 mm 0.00 in/hr0.0 mm/hr 0.00 in0.0 mm
03:30 AM 72.3°F22.4°C 72.4°F22.4°C 100% Calm Calm -- 30.48 in1032.2 mb 0.00 in0.0 mm 0.00 in/hr0.0 mm/hr 0.00 in0.0 mm
03:31 AM 72.3°F22.4°C 72.4°F22.4°C 100% Calm Calm -- 30.48 in1032.2 mb 0.00 in0.0 mm 0.00 in/hr0.0 mm/hr 0.00 in0.0 mm
03:32 AM 72.3°F22.4°C 72.4°F22.4°C 100% Calm Calm -- 30.47 in1031.8 mb 0.00 in0.0 mm 0.00 in/hr0.0 mm/hr 0.00 in0.0 mm
03:33 AM 72.3°F22.4°C 72.4°F22.4°C 100% Calm Calm -- 30.48 in1032.2 mb 0.00 in0.0 mm 0.00 in/hr0.0 mm/hr 0.00 in0.0 mm
03:34 AM 72.3°F22.4°C 72.4°F22.4°C 100% Calm Calm -- 30.47 in1031.8 mb 0.00 in0.0 mm 0.00 in/hr0.0 mm/hr 0.00 in0.0 mm
03:35 AM 72.3°F22.4°C 72.4°F22.4°C 100% Calm Calm -- 30.48 in1032.2 mb 0.00 in0.0 mm 0.00 in/hr0.0 mm/hr 0.00 in0.0 mm
03:36 AM 72.3°F22.4°C 72.4°F22.4°C 100% Calm Calm -- 30.48 in1032.2 mb 0.00 in0.0 mm 0.00 in/hr0.0 mm/hr 0.00 in0.0 mm
03:37 AM 72.3°F22.4°C 72.4°F22.4°C 100% Calm Calm 3.8 mph6.1 kmh 30.47 in1031.8 mb 0.00 in0.0 mm 0.00 in/hr0.0 mm/hr 0.00 in0.0 mm
03:38 AM 72.3°F22.4°C 72.4°F22.4°C 100% Calm Calm 3.8 mph6.1 kmh 30.47 in1031.8 mb 0.00 in0.0 mm 0.00 in/hr0.0 mm/hr 0.00 in0.0 mm
03:39 AM 72.3°F22.4°C 72.4°F22.4°C 100% Calm Calm 6.0 mph9.7 kmh 30.47 in1031.8 mb 0.00 in0.0 mm 0.00 in/hr0.0 mm/hr 0.00 in0.0 mm
03:40 AM 72.3°F22.4°C 72.4°F22.4°C 100% 2.2 mph SW3.5 kmh SW 6.0 mph9.7 kmh 30.48 in1032.2 mb 0.00 in0.0 mm 0.00 in/hr0.0 mm/hr 0.00 in0.0 mm
03:41 AM 72.3°F22.4°C 72.4°F22.4°C 100% Calm Calm 6.0 mph9.7 kmh 30.48 in1032.2 mb 0.00 in0.0 mm 0.00 in/hr0.0 mm/hr 0.00 in0.0 mm
03:42 AM 72.3°F22.4°C 72.4°F22.4°C 100% Calm Calm 6.0 mph9.7 kmh 30.47 in1031.8 mb 0.00 in0.0 mm 0.00 in/hr0.0 mm/hr 0.00 in0.0 mm
03:43 AM 72.3°F22.4°C 72.4°F22.4°C 100% Calm Calm 6.0 mph9.7 kmh 30.48 in1032.2 mb 0.00 in0.0 mm 0.00 in/hr0.0 mm/hr 0.00 in0.0 mm
03:44 AM 72.3°F22.4°C 72.4°F22.4°C 100% Calm Calm 6.0 mph9.7 kmh 30.48 in1032.2 mb 0.00 in0.0 mm 0.00 in/hr0.0 mm/hr 0.00 in0.0 mm
03:45 AM 72.3°F22.4°C 72.4°F22.4°C 100% Calm Calm 6.0 mph9.7 kmh 30.48 in1032.2 mb 0.00 in0.0 mm 0.00 in/hr0.0 mm/hr 0.00 in0.0 mm
03:46 AM 72.3°F22.4°C 72.4°F22.4°C 100% Calm Calm 6.0 mph9.7 kmh 30.47 in1031.8 mb 0.00 in0.0 mm 0.00 in/hr0.0 mm/hr 0.00 in0.0 mm
03:47 AM 72.3°F22.4°C 72.4°F22.4°C 100% Calm Calm 6.0 mph9.7 kmh 30.47 in1031.8 mb 0.00 in0.0 mm 0.00 in/hr0.0 mm/hr 0.00 in0.0 mm
03:48 AM 72.3°F22.4°C 72.4°F22.4°C 100% Calm Calm 6.0 mph9.7 kmh 30.48 in1032.2 mb 0.00 in0.0 mm 0.00 in/hr0.0 mm/hr 0.00 in0.0 mm
03:49 AM 72.3°F22.4°C 72.4°F22.4°C 100% 0.7 mph WNW1.1 kmh WNW 6.0 mph9.7 kmh 30.47 in1031.8 mb 0.00 in0.0 mm 0.00 in/hr0.0 mm/hr 0.00 in0.0 mm
03:50 AM 72.3°F22.4°C 72.4°F22.4°C 100% Calm Calm 3.1 mph5.0 kmh 30.47 in1031.8 mb 0.00 in0.0 mm 0.00 in/hr0.0 mm/hr 0.00 in0.0 mm
03:51 AM 72.3°F22.4°C 72.4°F22.4°C 100% Calm Calm 3.1 mph5.0 kmh 30.47 in1031.8 mb 0.00 in0.0 mm 0.00 in/hr0.0 mm/hr 0.00 in0.0 mm
03:52 AM 72.3°F22.4°C 72.4°F22.4°C 100% 0.7 mph WSW1.1 kmh WSW 5.4 mph8.7 kmh 30.47 in1031.8 mb 0.00 in0.0 mm 0.00 in/hr0.0 mm/hr 0.00 in0.0 mm
03:53 AM 72.3°F22.4°C 72.4°F22.4°C 100% Calm Calm 5.4 mph8.7 kmh 30.47 in1031.8 mb 0.00 in0.0 mm 0.00 in/hr0.0 mm/hr 0.00 in0.0 mm
03:54 AM 72.3°F22.4°C 72.4°F22.4°C 100% Calm Calm 5.4 mph8.7 kmh 30.47 in1031.8 mb 0.00 in0.0 mm 0.00 in/hr0.0 mm/hr 0.00 in0.0 mm
03:55 AM 72.3°F22.4°C 72.4°F22.4°C 100% Calm Calm 5.4 mph8.7 kmh 30.47 in1031.8 mb 0.00 in0.0 mm 0.00 in/hr0.0 mm/hr 0.00 in0.0 mm
03:56 AM 72.3°F22.4°C 72.4°F22.4°C 100% 2.2 mph WSW3.5 kmh WSW 5.4 mph8.7 kmh 30.47 in1031.8 mb 0.00 in0.0 mm 0.00 in/hr0.0 mm/hr 0.00 in0.0 mm
03:57 AM 72.3°F22.4°C 72.4°F22.4°C 100% Calm Calm 5.4 mph8.7 kmh 30.47 in1031.8 mb 0.00 in0.0 mm 0.00 in/hr0.0 mm/hr 0.00 in0.0 mm
03:58 AM 72.3°F22.4°C 72.4°F22.4°C 100% Calm Calm 5.4 mph8.7 kmh 30.47 in1031.8 mb 0.00 in0.0 mm 0.00 in/hr0.0 mm/hr 0.00 in0.0 mm
03:59 AM 72.3°F22.4°C 72.4°F22.4°C 100% Calm Calm 5.4 mph8.7 kmh 30.47 in1031.8 mb 0.00 in0.0 mm 0.00 in/hr0.0 mm/hr 0.00 in0.0 mm
04:00 AM 72.3°F22.4°C 72.4°F22.4°C 100% Calm Calm 5.4 mph8.7 kmh 30.47 in1031.8 mb 0.00 in0.0 mm 0.00 in/hr0.0 mm/hr 0.00 in0.0 mm
04:01 AM 72.3°F22.4°C 72.4°F22.4°C 100% Calm Calm 5.4 mph8.7 kmh 30.47 in1031.8 mb 0.00 in0.0 mm 0.00 in/hr0.0 mm/hr 0.00 in0.0 mm
04:02 AM 72.3°F22.4°C 72.4°F22.4°C 100% Calm Calm 4.5 mph7.2 kmh 30.47 in1031.8 mb 0.00 in0.0 mm 0.00 in/hr0.0 mm/hr 0.00 in0.0 mm
04:03 AM 72.3°F22.4°C 72.4°F22.4°C 100% Calm Calm 4.5 mph7.2 kmh 30.47 in1031.8 mb 0.00 in0.0 mm 0.00 in/hr0.0 mm/hr 0.00 in0.0 mm
04:04 AM 72.3°F22.4°C 72.4°F22.4°C 100% Calm Calm 4.5 mph7.2 kmh 30.47 in1031.8 mb 0.00 in0.0 mm 0.00 in/hr0.0 mm/hr 0.00 in0.0 mm
04:05 AM 72.3°F22.4°C 72.4°F22.4°C 100% Calm Calm 4.5 mph7.2 kmh 30.46 in1031.5 mb 0.00 in0.0 mm 0.00 in/hr0.0 mm/hr 0.00 in0.0 mm
04:06 AM 72.3°F22.4°C 72.4°F22.4°C 100% Calm Calm 0.7 mph1.1 kmh 30.47 in1031.8 mb 0.00 in0.0 mm 0.00 in/hr0.0 mm/hr 0.00 in0.0 mm
04:07 AM 72.3°F22.4°C 72.4°F22.4°C 100% Calm Calm 1.6 mph2.6 kmh 30.46 in1031.5 mb 0.00 in0.0 mm 0.00 in/hr0.0 mm/hr 0.00 in0.0 mm
04:08 AM 72.3°F22.4°C 72.4°F22.4°C 100% Calm Calm 1.6 mph2.6 kmh 30.46 in1031.5 mb 0.00 in0.0 mm 0.00 in/hr0.0 mm/hr 0.00 in0.0 mm
04:09 AM 72.3°F22.4°C 72.4°F22.4°C 100% Calm Calm 1.6 mph2.6 kmh 30.46 in1031.5 mb 0.00 in0.0 mm 0.00 in/hr0.0 mm/hr 0.00 in0.0 mm
04:10 AM 72.3°F22.4°C 72.4°F22.4°C 100% Calm Calm 1.6 mph2.6 kmh 30.46 in1031.5 mb 0.00 in0.0 mm 0.00 in/hr0.0 mm/hr 0.00 in0.0 mm
04:11 AM 72.3°F22.4°C 72.4°F22.4°C 100% 1.6 mph N2.6 kmh N 3.1 mph5.0 kmh 30.46 in1031.5 mb 0.00 in0.0 mm 0.00 in/hr0.0 mm/hr 0.00 in0.0 mm
04:12 AM 72.3°F22.4°C 72.4°F22.4°C 100% Calm Calm 3.1 mph5.0 kmh 30.47 in1031.8 mb 0.00 in0.0 mm 0.00 in/hr0.0 mm/hr 0.00 in0.0 mm
04:13 AM 72.3°F22.4°C 72.4°F22.4°C 100% Calm Calm 3.1 mph5.0 kmh 30.47 in1031.8 mb 0.00 in0.0 mm 0.00 in/hr0.0 mm/hr 0.00 in0.0 mm
04:14 AM 72.3°F22.4°C 72.4°F22.4°C 100% Calm Calm 3.1 mph5.0 kmh 30.47 in1031.8 mb 0.00 in0.0 mm 0.00 in/hr0.0 mm/hr 0.00 in0.0 mm
04:15 AM 72.3°F22.4°C 72.4°F22.4°C 100% Calm Calm 3.1 mph5.0 kmh 30.46 in1031.5 mb 0.00 in0.0 mm 0.00 in/hr0.0 mm/hr 0.00 in0.0 mm
04:16 AM 72.3°F22.4°C 72.4°F22.4°C 100% Calm Calm 3.1 mph5.0 kmh 30.46 in1031.5 mb 0.00 in0.0 mm 0.00 in/hr0.0 mm/hr 0.00 in0.0 mm
04:17 AM 72.3°F22.4°C 72.4°F22.4°C 100% Calm Calm 3.1 mph5.0 kmh 30.47 in1031.8 mb 0.00 in0.0 mm 0.00 in/hr0.0 mm/hr 0.00 in0.0 mm
04:18 AM 72.3°F22.4°C 72.4°F22.4°C 100% Calm Calm 3.1 mph5.0 kmh 30.47 in1031.8 mb 0.00 in0.0 mm 0.00 in/hr0.0 mm/hr 0.00 in0.0 mm
04:19 AM 72.3°F22.4°C 72.4°F22.4°C 100% Calm Calm 3.1 mph5.0 kmh 30.46 in1031.5 mb 0.00 in0.0 mm 0.00 in/hr0.0 mm/hr 0.00 in0.0 mm
04:20 AM 72.3°F22.4°C 72.4°F22.4°C 100% Calm Calm 3.1 mph5.0 kmh 30.46 in1031.5 mb 0.00 in0.0 mm 0.00 in/hr0.0 mm/hr 0.00 in0.0 mm
04:21 AM 72.3°F22.4°C 72.4°F22.4°C 100% 1.6 mph SW2.6 kmh SW 4.5 mph7.2 kmh 30.46 in1031.5 mb 0.00 in0.0 mm 0.00 in/hr0.0 mm/hr 0.00 in0.0 mm
04:22 AM 72.3°F22.4°C 72.4°F22.4°C 100% Calm Calm 4.5 mph7.2 kmh 30.46 in1031.5 mb 0.00 in0.0 mm 0.00 in/hr0.0 mm/hr 0.00 in0.0 mm
04:23 AM 72.3°F22.4°C 72.4°F22.4°C 100% Calm Calm 4.5 mph7.2 kmh 30.46 in1031.5 mb 0.00 in0.0 mm 0.00 in/hr0.0 mm/hr 0.00 in0.0 mm
04:24 AM 72.3°F22.4°C 72.4°F22.4°C 100% 0.7 mph SW1.1 kmh SW 4.5 mph7.2 kmh 30.46 in1031.5 mb 0.00 in0.0 mm 0.00 in/hr0.0 mm/hr 0.00 in0.0 mm
04:25 AM 72.3°F22.4°C 72.4°F22.4°C 100% Calm Calm 4.5 mph7.2 kmh 30.46 in1031.5 mb 0.00 in0.0 mm 0.00 in/hr0.0 mm/hr 0.00 in0.0 mm
04:26 AM 72.3°F22.4°C 72.4°F22.4°C 100% Calm Calm 4.5 mph7.2 kmh 30.46 in1031.5 mb 0.00 in0.0 mm 0.00 in/hr0.0 mm/hr 0.00 in0.0 mm
04:27 AM 72.3°F22.4°C 72.4°F22.4°C 100% Calm Calm 4.5 mph7.2 kmh 30.46 in1031.5 mb 0.00 in0.0 mm 0.00 in/hr0.0 mm/hr 0.00 in0.0 mm
04:28 AM 72.3°F22.4°C 72.4°F22.4°C 100% Calm Calm 4.5 mph7.2 kmh 30.46 in1031.5 mb 0.00 in0.0 mm 0.00 in/hr0.0 mm/hr 0.00 in0.0 mm
04:29 AM 72.3°F22.4°C 72.4°F22.4°C 100% Calm Calm 4.5 mph7.2 kmh 30.46 in1031.5 mb 0.00 in0.0 mm 0.00 in/hr0.0 mm/hr 0.00 in0.0 mm
04:30 AM 72.3°F22.4°C 72.4°F22.4°C 100% 0.7 mph SW1.1 kmh SW 4.5 mph7.2 kmh 30.46 in1031.5 mb 0.00 in0.0 mm 0.00 in/hr0.0 mm/hr 0.00 in0.0 mm
04:31 AM 72.3°F22.4°C 72.4°F22.4°C 100% 0.7 mph SW1.1 kmh SW 4.5 mph7.2 kmh 30.46 in1031.5 mb 0.00 in0.0 mm 0.00 in/hr0.0 mm/hr 0.00 in0.0 mm
04:32 AM 72.3°F22.4°C 72.4°F22.4°C 100% Calm Calm 3.8 mph6.1 kmh 30.46 in1031.5 mb 0.00 in0.0 mm 0.00 in/hr0.0 mm/hr 0.00 in0.0 mm
04:33 AM 72.3°F22.4°C 72.4°F22.4°C 100% Calm Calm 3.8 mph6.1 kmh 30.46 in1031.5 mb 0.00 in0.0 mm 0.00 in/hr0.0 mm/hr 0.00 in0.0 mm
04:34 AM 72.3°F22.4°C 72.4°F22.4°C 100% Calm Calm 3.8 mph6.1 kmh 30.46 in1031.5 mb 0.00 in0.0 mm 0.00 in/hr0.0 mm/hr 0.00 in0.0 mm
04:35 AM 72.3°F22.4°C 72.4°F22.4°C 100% Calm Calm 3.8 mph6.1 kmh 30.46 in1031.5 mb 0.00 in0.0 mm 0.00 in/hr0.0 mm/hr 0.00 in0.0 mm
04:36 AM 72.3°F22.4°C 72.4°F22.4°C 100% 1.6 mph WSW2.6 kmh WSW 4.5 mph7.2 kmh 30.46 in1031.5 mb 0.00 in0.0 mm 0.00 in/hr0.0 mm/hr 0.00 in0.0 mm
04:37 AM 72.3°F22.4°C 72.4°F22.4°C 100% Calm Calm 4.5 mph7.2 kmh 30.46 in1031.5 mb 0.00 in0.0 mm 0.00 in/hr0.0 mm/hr 0.00 in0.0 mm
04:38 AM 72.3°F22.4°C 72.4°F22.4°C 100% Calm Calm 4.5 mph7.2 kmh 30.46 in1031.5 mb 0.00 in0.0 mm 0.00 in/hr0.0 mm/hr 0.00 in0.0 mm
04:39 AM 72.3°F22.4°C 72.4°F22.4°C 100% Calm Calm 4.5 mph7.2 kmh 30.46 in1031.5 mb 0.00 in0.0 mm 0.00 in/hr0.0 mm/hr 0.00 in0.0 mm
04:40 AM 72.3°F22.4°C 72.4°F22.4°C 100% Calm Calm 4.5 mph7.2 kmh 30.46 in1031.5 mb 0.00 in0.0 mm 0.00 in/hr0.0 mm/hr 0.00 in0.0 mm
04:41 AM 72.3°F22.4°C 72.4°F22.4°C 100% Calm Calm 4.5 mph7.2 kmh 30.46 in1031.5 mb 0.00 in0.0 mm 0.00 in/hr0.0 mm/hr 0.00 in0.0 mm
04:42 AM 72.3°F22.4°C 72.4°F22.4°C 100% Calm Calm 4.5 mph7.2 kmh 30.46 in1031.5 mb 0.00 in0.0 mm 0.00 in/hr0.0 mm/hr 0.00 in0.0 mm
04:43 AM 72.3°F22.4°C 72.4°F22.4°C 100% 1.6 mph SW2.6 kmh SW 4.5 mph7.2 kmh 30.46 in1031.5 mb 0.00 in0.0 mm 0.00 in/hr0.0 mm/hr 0.00 in0.0 mm
04:44 AM 72.3°F22.4°C 72.4°F22.4°C 100% Calm Calm 4.5 mph7.2 kmh 30.46 in1031.5 mb 0.00 in0.0 mm 0.00 in/hr0.0 mm/hr 0.00 in0.0 mm
04:45 AM 72.3°F22.4°C 72.4°F22.4°C 100% Calm Calm 4.5 mph7.2 kmh 30.46 in1031.5 mb 0.00 in0.0 mm 0.00 in/hr0.0 mm/hr 0.00 in0.0 mm
04:46 AM 72.3°F22.4°C 72.4°F22.4°C 100% 3.1 mph SW5.0 kmh SW 6.9 mph11.1 kmh 30.46 in1031.5 mb 0.00 in0.0 mm 0.00 in/hr0.0 mm/hr 0.00 in0.0 mm
04:47 AM 72.3°F22.4°C 72.4°F22.4°C 100% 0.7 mph SW1.1 kmh SW 6.9 mph11.1 kmh 30.46 in1031.5 mb 0.00 in0.0 mm 0.00 in/hr0.0 mm/hr 0.00 in0.0 mm
04:48 AM 72.3°F22.4°C 72.4°F22.4°C 100% 1.6 mph SW2.6 kmh SW 6.9 mph11.1 kmh 30.46 in1031.5 mb 0.00 in0.0 mm 0.00 in/hr0.0 mm/hr 0.00 in0.0 mm
04:49 AM 72.3°F22.4°C 72.4°F22.4°C 100% 0.7 mph SSW1.1 kmh SSW 6.9 mph11.1 kmh 30.46 in1031.5 mb 0.00 in0.0 mm 0.00 in/hr0.0 mm/hr 0.00 in0.0 mm
04:50 AM 72.3°F22.4°C 72.4°F22.4°C 100% Calm Calm 6.9 mph11.1 kmh 30.46 in1031.5 mb 0.00 in0.0 mm 0.00 in/hr0.0 mm/hr 0.00 in0.0 mm
04:51 AM 72.3°F22.4°C 72.4°F22.4°C 100% Calm Calm 6.9 mph11.1 kmh 30.46 in1031.5 mb 0.00 in0.0 mm 0.00 in/hr0.0 mm/hr 0.00 in0.0 mm
04:52 AM 72.3°F22.4°C 72.4°F22.4°C 100% Calm Calm 6.9 mph11.1 kmh 30.46 in1031.5 mb 0.00 in0.0 mm 0.00 in/hr0.0 mm/hr 0.00 in0.0 mm
04:53 AM 72.3°F22.4°C 72.4°F22.4°C 100% 2.2 mph SSW3.5 kmh SSW 6.9 mph11.1 kmh 30.46 in1031.5 mb 0.00 in0.0 mm 0.00 in/hr0.0 mm/hr 0.00 in0.0 mm
04:54 AM 72.3°F22.4°C 72.4°F22.4°C 100% 1.6 mph SSW2.6 kmh SSW 6.9 mph11.1 kmh 30.46 in1031.5 mb 0.00 in0.0 mm 0.00 in/hr0.0 mm/hr 0.00 in0.0 mm
04:55 AM 72.3°F22.4°C 72.4°F22.4°C 100% 0.7 mph SSW1.1 kmh SSW 6.9 mph11.1 kmh 30.46 in1031.5 mb 0.00 in0.0 mm 0.00 in/hr0.0 mm/hr 0.00 in0.0 mm
04:56 AM 72.3°F22.4°C 72.4°F22.4°C 100% Calm Calm 6.9 mph11.1 kmh 30.46 in1031.5 mb 0.00 in0.0 mm 0.00 in/hr0.0 mm/hr 0.00 in0.0 mm
04:57 AM 72.3°F22.4°C 72.4°F22.4°C 100% 1.6 mph S2.6 kmh S 5.4 mph8.7 kmh 30.46 in1031.5 mb 0.00 in0.0 mm 0.00 in/hr0.0 mm/hr 0.00 in0.0 mm
04:58 AM 72.3°F22.4°C 72.4°F22.4°C 100% 0.7 mph SSW1.1 kmh SSW 5.4 mph8.7 kmh 30.46 in1031.5 mb 0.00 in0.0 mm 0.00 in/hr0.0 mm/hr 0.00 in0.0 mm
04:59 AM 72.3°F22.4°C 72.4°F22.4°C 100% Calm Calm 5.4 mph8.7 kmh 30.46 in1031.5 mb 0.00 in0.0 mm 0.00 in/hr0.0 mm/hr 0.00 in0.0 mm
05:00 AM 72.3°F22.4°C 72.4°F22.4°C 100% 0.7 mph SW1.1 kmh SW 5.4 mph8.7 kmh 30.46 in1031.5 mb 0.00 in0.0 mm 0.00 in/hr0.0 mm/hr 0.00 in0.0 mm
05:01 AM 72.3°F22.4°C 72.4°F22.4°C 100% Calm Calm 5.4 mph8.7 kmh 30.45 in1031.2 mb 0.00 in0.0 mm 0.00 in/hr0.0 mm/hr 0.00 in0.0 mm
05:02 AM 72.7°F22.6°C 72.7°F22.6°C 100% Calm Calm 5.4 mph8.7 kmh 30.45 in1031.2 mb 0.00 in0.0 mm 0.00 in/hr0.0 mm/hr 0.00 in0.0 mm
05:03 AM 72.3°F22.4°C 72.4°F22.4°C 100% Calm Calm 5.4 mph8.7 kmh 30.45 in1031.2 mb 0.00 in0.0 mm 0.00 in/hr0.0 mm/hr 0.00 in0.0 mm
05:04 AM 72.3°F22.4°C 72.4°F22.4°C 100% Calm Calm 4.5 mph7.2 kmh 30.45 in1031.2 mb 0.00 in0.0 mm 0.00 in/hr0.0 mm/hr 0.00 in0.0 mm
05:05 AM 72.3°F22.4°C 72.4°F22.4°C 100% 4.5 mph W7.2 kmh W 6.0 mph9.7 kmh 30.45 in1031.2 mb 0.00 in0.0 mm 0.00 in/hr0.0 mm/hr 0.00 in0.0 mm
05:06 AM 72.3°F22.4°C 72.4°F22.4°C 100% 2.2 mph NW3.5 kmh NW 6.0 mph9.7 kmh 30.45 in1031.2 mb 0.00 in0.0 mm 0.00 in/hr0.0 mm/hr 0.00 in0.0 mm
05:07 AM 72.3°F22.4°C 72.4°F22.4°C 100% 1.6 mph N2.6 kmh N 6.0 mph9.7 kmh 30.45 in1031.2 mb 0.00 in0.0 mm 0.00 in/hr0.0 mm/hr 0.00 in0.0 mm
05:08 AM 72.3°F22.4°C 72.4°F22.4°C 100% Calm Calm 6.0 mph9.7 kmh 30.45 in1031.2 mb 0.00 in0.0 mm 0.00 in/hr0.0 mm/hr 0.00 in0.0 mm
05:09 AM 72.3°F22.4°C 72.4°F22.4°C 100% Calm Calm 6.0 mph9.7 kmh 30.45 in1031.2 mb 0.00 in0.0 mm 0.00 in/hr0.0 mm/hr 0.00 in0.0 mm
05:10 AM 72.3°F22.4°C 72.4°F22.4°C 100% Calm Calm 6.0 mph9.7 kmh 30.45 in1031.2 mb 0.00 in0.0 mm 0.00 in/hr0.0 mm/hr 0.00 in0.0 mm
05:11 AM 72.3°F22.4°C 72.4°F22.4°C 100% Calm Calm 6.0 mph9.7 kmh 30.45 in1031.2 mb 0.00 in0.0 mm 0.00 in/hr0.0 mm/hr 0.00 in0.0 mm
05:12 AM 72.3°F22.4°C 72.4°F22.4°C 100% Calm Calm 6.0 mph9.7 kmh 30.45 in1031.2 mb 0.00 in0.0 mm 0.00 in/hr0.0 mm/hr 0.00 in0.0 mm
05:13 AM 72.3°F22.4°C 72.4°F22.4°C 100% Calm Calm 6.0 mph9.7 kmh 30.45 in1031.2 mb 0.00 in0.0 mm 0.00 in/hr0.0 mm/hr 0.00 in0.0 mm
05:14 AM 72.3°F22.4°C 72.4°F22.4°C 100% Calm Calm 6.0 mph9.7 kmh 30.45 in1031.2 mb 0.00 in0.0 mm 0.00 in/hr0.0 mm/hr 0.00 in0.0 mm
05:15 AM 72.3°F22.4°C 72.4°F22.4°C 100% Calm Calm 6.0 mph9.7 kmh 30.45 in1031.2 mb 0.00 in0.0 mm 0.00 in/hr0.0 mm/hr 0.00 in0.0 mm
05:16 AM 72.3°F22.4°C 72.4°F22.4°C 100% 0.7 mph W1.1 kmh W 3.8 mph6.1 kmh 30.45 in1031.2 mb 0.00 in0.0 mm 0.00 in/hr0.0 mm/hr 0.00 in0.0 mm
05:17 AM 72.3°F22.4°C 72.4°F22.4°C 100% 3.1 mph W5.0 kmh W 4.5 mph7.2 kmh 30.45 in1031.2 mb 0.00 in0.0 mm 0.00 in/hr0.0 mm/hr 0.00 in0.0 mm
05:18 AM 72.3°F22.4°C 72.4°F22.4°C 100% 0.7 mph WSW1.1 kmh WSW 5.4 mph8.7 kmh 30.45 in1031.2 mb 0.00 in0.0 mm 0.00 in/hr0.0 mm/hr 0.00 in0.0 mm
05:19 AM 72.3°F22.4°C 72.4°F22.4°C 100% 0.7 mph SW1.1 kmh SW 5.4 mph8.7 kmh 30.45 in1031.2 mb 0.00 in0.0 mm 0.00 in/hr0.0 mm/hr 0.00 in0.0 mm
05:20 AM 72.3°F22.4°C 72.4°F22.4°C 100% Calm Calm 5.4 mph8.7 kmh 30.45 in1031.2 mb 0.00 in0.0 mm 0.00 in/hr0.0 mm/hr 0.00 in0.0 mm
05:21 AM 72.3°F22.4°C 72.4°F22.4°C 100% Calm Calm 5.4 mph8.7 kmh 30.45 in1031.2 mb 0.00 in0.0 mm 0.00 in/hr0.0 mm/hr 0.00 in0.0 mm
05:22 AM 72.3°F22.4°C 72.4°F22.4°C 100% 0.7 mph SW1.1 kmh SW 5.4 mph8.7 kmh 30.45 in1031.2 mb 0.00 in0.0 mm 0.00 in/hr0.0 mm/hr 0.00 in0.0 mm
05:23 AM 72.3°F22.4°C 72.4°F22.4°C 100% 0.7 mph SW1.1 kmh SW 5.4 mph8.7 kmh 30.45 in1031.2 mb 0.00 in0.0 mm 0.00 in/hr0.0 mm/hr 0.00 in0.0 mm
05:24 AM 72.3°F22.4°C 72.4°F22.4°C 100% Calm Calm 5.4 mph8.7 kmh 30.45 in1031.2 mb 0.00 in0.0 mm 0.00 in/hr0.0 mm/hr 0.00 in0.0 mm
05:25 AM 72.3°F22.4°C 72.4°F22.4°C 100% 1.6 mph SW2.6 kmh SW 5.4 mph8.7 kmh 30.45 in1031.2 mb 0.00 in0.0 mm 0.00 in/hr0.0 mm/hr 0.00 in0.0 mm
05:26 AM 72.3°F22.4°C 72.4°F22.4°C 100% Calm Calm 5.4 mph8.7 kmh 30.45 in1031.2 mb 0.00 in0.0 mm 0.00 in/hr0.0 mm/hr 0.00 in0.0 mm
05:27 AM 72.3°F22.4°C 72.4°F22.4°C 100% Calm Calm 5.4 mph8.7 kmh 30.45 in1031.2 mb 0.00 in0.0 mm 0.00 in/hr0.0 mm/hr 0.00 in0.0 mm
05:28 AM 72.3°F22.4°C 72.4°F22.4°C 100% Calm Calm 5.4 mph8.7 kmh 30.45 in1031.2 mb 0.00 in0.0 mm 0.00 in/hr0.0 mm/hr 0.00 in0.0 mm
05:29 AM 72.3°F22.4°C 72.4°F22.4°C 100% Calm Calm 3.1 mph5.0 kmh 30.45 in1031.2 mb 0.00 in0.0 mm 0.00 in/hr0.0 mm/hr 0.00 in0.0 mm
05:30 AM 72.3°F22.4°C 72.4°F22.4°C 100% Calm Calm 3.1 mph5.0 kmh 30.45 in1031.2 mb 0.00 in0.0 mm 0.00 in/hr0.0 mm/hr 0.00 in0.0 mm
05:31 AM 72.3°F22.4°C 72.4°F22.4°C 100% Calm Calm 3.1 mph5.0 kmh 30.45 in1031.2 mb 0.00 in0.0 mm 0.00 in/hr0.0 mm/hr 0.00 in0.0 mm
05:32 AM 72.3°F22.4°C 72.4°F22.4°C 100% 1.6 mph SW2.6 kmh SW 3.1 mph5.0 kmh 30.45 in1031.2 mb 0.00 in0.0 mm 0.00 in/hr0.0 mm/hr 0.00 in0.0 mm
05:33 AM 72.3°F22.4°C 72.4°F22.4°C 100% Calm Calm 3.1 mph5.0 kmh 30.45 in1031.2 mb 0.00 in0.0 mm 0.00 in/hr0.0 mm/hr 0.00 in0.0 mm
05:34 AM 72.3°F22.4°C 72.4°F22.4°C 100% Calm Calm 3.1 mph5.0 kmh 30.45 in1031.2 mb 0.00 in0.0 mm 0.00 in/hr0.0 mm/hr 0.00 in0.0 mm
05:35 AM 72.3°F22.4°C 72.4°F22.4°C 100% 0.7 mph S1.1 kmh S 3.1 mph5.0 kmh 30.45 in1031.2 mb 0.00 in0.0 mm 0.00 in/hr0.0 mm/hr 0.00 in0.0 mm
05:36 AM 72.3°F22.4°C 72.4°F22.4°C 100% Calm Calm 3.1 mph5.0 kmh 30.45 in1031.2 mb 0.00 in0.0 mm 0.00 in/hr0.0 mm/hr 0.00 in0.0 mm
05:37 AM 72.3°F22.4°C 72.4°F22.4°C 100% Calm Calm 3.1 mph5.0 kmh 30.45 in1031.2 mb 0.00 in0.0 mm 0.00 in/hr0.0 mm/hr 0.00 in0.0 mm
05:38 AM 72.3°F22.4°C 72.4°F22.4°C 100% Calm Calm 3.1 mph5.0 kmh 30.45 in1031.2 mb 0.00 in0.0 mm 0.00 in/hr0.0 mm/hr 0.00 in0.0 mm
05:39 AM 72.3°F22.4°C 72.4°F22.4°C 100% Calm Calm 3.1 mph5.0 kmh 30.45 in1031.2 mb 0.00 in0.0 mm 0.00 in/hr0.0 mm/hr 0.00 in0.0 mm
05:40 AM 72.3°F22.4°C 72.4°F22.4°C 100% Calm Calm 3.1 mph5.0 kmh 30.45 in1031.2 mb 0.00 in0.0 mm 0.00 in/hr0.0 mm/hr 0.00 in0.0 mm
05:41 AM 72.3°F22.4°C 72.4°F22.4°C 100% Calm Calm 3.1 mph5.0 kmh 30.45 in1031.2 mb 0.00 in0.0 mm 0.00 in/hr0.0 mm/hr 0.00 in0.0 mm
05:42 AM 72.3°F22.4°C 72.4°F22.4°C 100% Calm Calm 3.1 mph5.0 kmh 30.45 in1031.2 mb 0.00 in0.0 mm 0.00 in/hr0.0 mm/hr 0.00 in0.0 mm
05:43 AM 72.3°F22.4°C 72.4°F22.4°C 100% Calm Calm 3.1 mph5.0 kmh 30.45 in1031.2 mb 0.00 in0.0 mm 0.00 in/hr0.0 mm/hr 0.00 in0.0 mm
05:44 AM 72.3°F22.4°C 72.4°F22.4°C 100% Calm Calm 3.1 mph5.0 kmh 30.45 in1031.2 mb 0.00 in0.0 mm 0.00 in/hr0.0 mm/hr 0.00 in0.0 mm
05:45 AM 72.3°F22.4°C 72.4°F22.4°C 100% Calm Calm 4.5 mph7.2 kmh 30.45 in1031.2 mb 0.00 in0.0 mm 0.00 in/hr0.0 mm/hr 0.00 in0.0 mm
05:46 AM 72.3°F22.4°C 72.4°F22.4°C 100% Calm Calm 4.5 mph7.2 kmh 30.45 in1031.2 mb 0.00 in0.0 mm 0.00 in/hr0.0 mm/hr 0.00 in0.0 mm
05:47 AM 72.3°F22.4°C 72.4°F22.4°C 100% 0.7 mph W1.1 kmh W 4.5 mph7.2 kmh 30.45 in1031.2 mb 0.00 in0.0 mm 0.00 in/hr0.0 mm/hr 0.00 in0.0 mm
05:48 AM 72.3°F22.4°C 72.4°F22.4°C 100% Calm Calm 4.5 mph7.2 kmh 30.45 in1031.2 mb 0.00 in0.0 mm 0.00 in/hr0.0 mm/hr 0.00 in0.0 mm
05:49 AM 72.3°F22.4°C 72.4°F22.4°C 100% Calm Calm 4.5 mph7.2 kmh 30.45 in1031.2 mb 0.00 in0.0 mm 0.00 in/hr0.0 mm/hr 0.00 in0.0 mm
05:50 AM 72.3°F22.4°C 72.4°F22.4°C 100% Calm Calm 4.5 mph7.2 kmh 30.45 in1031.2 mb 0.00 in0.0 mm 0.00 in/hr0.0 mm/hr 0.00 in0.0 mm
05:51 AM 72.3°F22.4°C 72.4°F22.4°C 100% Calm Calm 4.5 mph7.2 kmh 30.45 in1031.2 mb 0.00 in0.0 mm 0.00 in/hr0.0 mm/hr 0.00 in0.0 mm
05:52 AM 72.3°F22.4°C 72.4°F22.4°C 100% 2.2 mph WSW3.5 kmh WSW 6.0 mph9.7 kmh 30.45 in1031.2 mb 0.00 in0.0 mm 0.00 in/hr0.0 mm/hr 0.00 in0.0 mm
05:53 AM 72.3°F22.4°C 72.4°F22.4°C 100% 0.7 mph SW1.1 kmh SW 6.0 mph9.7 kmh 30.45 in1031.2 mb 0.00 in0.0 mm 0.00 in/hr0.0 mm/hr 0.00 in0.0 mm
05:54 AM 72.3°F22.4°C 72.4°F22.4°C 100% Calm Calm 6.0 mph9.7 kmh 30.45 in1031.2 mb 0.00 in0.0 mm 0.00 in/hr0.0 mm/hr 0.00 in0.0 mm
05:55 AM 72.3°F22.4°C 72.4°F22.4°C 100% 2.2 mph SW3.5 kmh SW 6.0 mph9.7 kmh 30.45 in1031.2 mb 0.00 in0.0 mm 0.00 in/hr0.0 mm/hr 0.00 in0.0 mm
05:56 AM 72.3°F22.4°C 72.4°F22.4°C 100% Calm Calm 6.0 mph9.7 kmh 30.45 in1031.2 mb 0.00 in0.0 mm 0.00 in/hr0.0 mm/hr 0.00 in0.0 mm
05:57 AM 72.3°F22.4°C 72.4°F22.4°C 100% 1.6 mph SSW2.6 kmh SSW 6.0 mph9.7 kmh 30.45 in1031.2 mb 0.00 in0.0 mm 0.00 in/hr0.0 mm/hr 0.00 in0.0 mm
05:58 AM 72.3°F22.4°C 72.4°F22.4°C 100% 0.7 mph SSW1.1 kmh SSW 6.0 mph9.7 kmh 30.45 in1031.2 mb 0.00 in0.0 mm 0.00 in/hr0.0 mm/hr 0.00 in0.0 mm
05:59 AM 72.3°F22.4°C 72.4°F22.4°C 100% Calm Calm 6.0 mph9.7 kmh 30.45 in1031.2 mb 0.00 in0.0 mm 0.00 in/hr0.0 mm/hr 0.00 in0.0 mm
06:00 AM 72.3°F22.4°C 72.4°F22.4°C 100% 0.7 mph SSW1.1 kmh SSW 6.0 mph9.7 kmh 30.45 in1031.2 mb 0.00 in0.0 mm 0.00 in/hr0.0 mm/hr 0.00 in0.0 mm
06:01 AM 72.3°F22.4°C 72.4°F22.4°C 100% 0.7 mph SW1.1 kmh SW 6.0 mph9.7 kmh 30.45 in1031.2 mb 0.00 in0.0 mm 0.00 in/hr0.0 mm/hr 0.00 in0.0 mm
06:02 AM 72.3°F22.4°C 72.4°F22.4°C 100% 0.7 mph SW1.1 kmh SW 6.0 mph9.7 kmh 30.45 in1031.2 mb 0.00 in0.0 mm 0.00 in/hr0.0 mm/hr 0.00 in0.0 mm
06:03 AM 72.3°F22.4°C 72.4°F22.4°C 100% 0.7 mph SW1.1 kmh SW 3.8 mph6.1 kmh 30.45 in1031.2 mb 0.00 in0.0 mm 0.00 in/hr0.0 mm/hr 0.00 in0.0 mm
06:04 AM 72.3°F22.4°C 72.4°F22.4°C 100% 0.7 mph SW1.1 kmh SW 3.8 mph6.1 kmh 30.45 in1031.2 mb 0.00 in0.0 mm 0.00 in/hr0.0 mm/hr 0.00 in0.0 mm
06:05 AM 72.3°F22.4°C 72.4°F22.4°C 100% 0.7 mph SW1.1 kmh SW 3.8 mph6.1 kmh 30.45 in1031.2 mb 0.00 in0.0 mm 0.00 in/hr0.0 mm/hr 0.00 in0.0 mm
06:06 AM 72.3°F22.4°C 72.4°F22.4°C 100% 0.7 mph WSW1.1 kmh WSW 3.8 mph6.1 kmh 30.45 in1031.2 mb 0.00 in0.0 mm 0.00 in/hr0.0 mm/hr 0.00 in0.0 mm
06:07 AM 72.3°F22.4°C 72.4°F22.4°C 100% 1.6 mph WSW2.6 kmh WSW 3.8 mph6.1 kmh 30.45 in1031.2 mb 0.00 in0.0 mm 0.00 in/hr0.0 mm/hr 0.00 in0.0 mm
06:08 AM 72.3°F22.4°C 72.4°F22.4°C 100% Calm Calm 3.8 mph6.1 kmh 30.45 in1031.2 mb 0.00 in0.0 mm 0.00 in/hr0.0 mm/hr 0.00 in0.0 mm
06:09 AM 72.7°F22.6°C 72.7°F22.6°C 100% 1.6 mph WSW2.6 kmh WSW 3.8 mph6.1 kmh 30.45 in1031.2 mb 0.00 in0.0 mm 0.00 in/hr0.0 mm/hr 0.00 in0.0 mm
06:10 AM 72.7°F22.6°C 72.7°F22.6°C 100% 0.7 mph WSW1.1 kmh WSW 3.8 mph6.1 kmh 30.45 in1031.2 mb 0.00 in0.0 mm 0.00 in/hr0.0 mm/hr 0.00 in0.0 mm
06:11 AM 72.7°F22.6°C 72.7°F22.6°C 100% 0.7 mph WSW1.1 kmh WSW 3.8 mph6.1 kmh 30.45 in1031.2 mb 0.00 in0.0 mm 0.00 in/hr0.0 mm/hr 0.00 in0.0 mm
06:12 AM 72.3°F22.4°C 72.4°F22.4°C 100% Calm Calm 3.8 mph6.1 kmh 30.45 in1031.2 mb 0.00 in0.0 mm 0.00 in/hr0.0 mm/hr 0.00 in0.0 mm
06:13 AM 72.7°F22.6°C 72.7°F22.6°C 100% Calm Calm 3.8 mph6.1 kmh 30.45 in1031.2 mb 0.00 in0.0 mm 0.00 in/hr0.0 mm/hr 0.00 in0.0 mm
06:14 AM 72.7°F22.6°C 72.7°F22.6°C 100% Calm Calm 3.8 mph6.1 kmh 30.46 in1031.5 mb 0.00 in0.0 mm 0.00 in/hr0.0 mm/hr 0.00 in0.0 mm
06:15 AM 72.7°F22.6°C 72.7°F22.6°C 100% Calm Calm 3.8 mph6.1 kmh 30.45 in1031.2 mb 0.00 in0.0 mm 0.00 in/hr0.0 mm/hr 0.00 in0.0 mm
06:16 AM 72.7°F22.6°C 72.7°F22.6°C 100% Calm Calm 3.8 mph6.1 kmh 30.46 in1031.5 mb 0.00 in0.0 mm 0.00 in/hr0.0 mm/hr 0.00 in0.0 mm
06:17 AM 72.7°F22.6°C 72.7°F22.6°C 100% Calm Calm 3.8 mph6.1 kmh 30.46 in1031.5 mb 0.00 in0.0 mm 0.00 in/hr0.0 mm/hr 0.00 in0.0 mm
06:18 AM 72.7°F22.6°C 72.7°F22.6°C 100% Calm Calm 3.8 mph6.1 kmh 30.46 in1031.5 mb 0.00 in0.0 mm 0.00 in/hr0.0 mm/hr 0.00 in0.0 mm
06:19 AM 72.7°F22.6°C 72.7°F22.6°C 100% Calm Calm 3.1 mph5.0 kmh 30.46 in1031.5 mb 0.00 in0.0 mm 0.00 in/hr0.0 mm/hr 0.00 in0.0 mm
06:20 AM 72.7°F22.6°C 72.7°F22.6°C 100% Calm Calm 2.2 mph3.5 kmh 30.46 in1031.5 mb 0.00 in0.0 mm 0.00 in/hr0.0 mm/hr 0.00 in0.0 mm
06:21 AM 72.7°F22.6°C 72.7°F22.6°C 100% Calm Calm 2.2 mph3.5 kmh 30.46 in1031.5 mb 0.00 in0.0 mm 0.00 in/hr0.0 mm/hr 0.00 in0.0 mm
06:22 AM 72.7°F22.6°C 72.7°F22.6°C 100% Calm Calm 1.6 mph2.6 kmh 30.46 in1031.5 mb 0.00 in0.0 mm 0.00 in/hr0.0 mm/hr 0.00 in0.0 mm
06:23 AM 72.7°F22.6°C 72.7°F22.6°C 100% Calm Calm 1.6 mph2.6 kmh 30.46 in1031.5 mb 0.00 in0.0 mm 0.00 in/hr0.0 mm/hr 0.00 in0.0 mm
06:24 AM 72.7°F22.6°C 72.7°F22.6°C 100% Calm Calm 1.6 mph2.6 kmh 30.46 in1031.5 mb 0.00 in0.0 mm 0.00 in/hr0.0 mm/hr 0.00 in0.0 mm
06:25 AM 72.7°F22.6°C 72.7°F22.6°C 100% Calm Calm 1.6 mph2.6 kmh 30.46 in1031.5 mb 0.00 in0.0 mm 0.00 in/hr0.0 mm/hr 0.00 in0.0 mm
06:26 AM 72.7°F22.6°C 72.7°F22.6°C 100% Calm Calm 1.6 mph2.6 kmh 30.46 in1031.5 mb 0.00 in0.0 mm 0.00 in/hr0.0 mm/hr 0.00 in0.0 mm
06:27 AM 72.7°F22.6°C 72.7°F22.6°C 100% Calm Calm 1.6 mph2.6 kmh 30.46 in1031.5 mb 0.00 in0.0 mm 0.00 in/hr0.0 mm/hr 0.00 in0.0 mm
06:28 AM 72.7°F22.6°C 72.7°F22.6°C 100% 0.7 mph SSE1.1 kmh SSE 1.6 mph2.6 kmh 30.46 in1031.5 mb 0.00 in0.0 mm 0.00 in/hr0.0 mm/hr 0.00 in0.0 mm
06:29 AM 72.7°F22.6°C 72.7°F22.6°C 100% Calm Calm 1.6 mph2.6 kmh 30.46 in1031.5 mb 0.00 in0.0 mm 0.00 in/hr0.0 mm/hr 0.00 in0.0 mm
06:30 AM 72.7°F22.6°C 72.7°F22.6°C 100% Calm Calm 1.6 mph2.6 kmh 30.46 in1031.5 mb 0.00 in0.0 mm 0.00 in/hr0.0 mm/hr 0.00 in0.0 mm
06:31 AM 72.7°F22.6°C 72.7°F22.6°C 100% Calm Calm 1.6 mph2.6 kmh 30.46 in1031.5 mb 0.00 in0.0 mm 0.00 in/hr0.0 mm/hr 0.00 in0.0 mm
06:32 AM 72.7°F22.6°C 72.7°F22.6°C 100% Calm Calm 1.6 mph2.6 kmh 30.46 in1031.5 mb 0.00 in0.0 mm 0.00 in/hr0.0 mm/hr 0.00 in0.0 mm
06:33 AM 72.7°F22.6°C 72.7°F22.6°C 100% Calm Calm 1.6 mph2.6 kmh 30.46 in1031.5 mb 0.00 in0.0 mm 0.00 in/hr0.0 mm/hr 0.00 in0.0 mm
06:34 AM 72.7°F22.6°C 72.7°F22.6°C 100% Calm Calm 1.6 mph2.6 kmh 30.46 in1031.5 mb 0.00 in0.0 mm 0.00 in/hr0.0 mm/hr 0.00 in0.0 mm
06:35 AM 72.7°F22.6°C 72.7°F22.6°C 100% Calm Calm 1.6 mph2.6 kmh 30.46 in1031.5 mb 0.00 in0.0 mm 0.00 in/hr0.0 mm/hr 0.00 in0.0 mm
06:36 AM 72.7°F22.6°C 72.7°F22.6°C 100% Calm Calm 1.6 mph2.6 kmh 30.46 in1031.5 mb 0.00 in0.0 mm 0.00 in/hr0.0 mm/hr 0.00 in0.0 mm
06:37 AM 72.7°F22.6°C 72.7°F22.6°C 100% Calm Calm 1.6 mph2.6 kmh 30.46 in1031.5 mb 0.00 in0.0 mm 0.00 in/hr0.0 mm/hr 0.00 in0.0 mm
06:38 AM 72.7°F22.6°C 72.7°F22.6°C 100% 0.7 mph SW1.1 kmh SW 2.2 mph3.5 kmh 30.46 in1031.5 mb 0.00 in0.0 mm 0.00 in/hr0.0 mm/hr 0.00 in0.0 mm
06:39 AM 72.7°F22.6°C 72.7°F22.6°C 100% Calm Calm 2.2 mph3.5 kmh 30.46 in1031.5 mb 0.00 in0.0 mm 0.00 in/hr0.0 mm/hr 0.00 in0.0 mm
06:40 AM 72.7°F22.6°C 72.7°F22.6°C 100% Calm Calm 2.2 mph3.5 kmh 30.46 in1031.5 mb 0.00 in0.0 mm 0.00 in/hr0.0 mm/hr 0.00 in0.0 mm
06:41 AM 72.7°F22.6°C 72.7°F22.6°C 100% Calm Calm 2.2 mph3.5 kmh 30.46 in1031.5 mb 0.00 in0.0 mm 0.00 in/hr0.0 mm/hr 0.00 in0.0 mm
06:42 AM 72.7°F22.6°C 72.7°F22.6°C 100% Calm Calm 2.2 mph3.5 kmh 30.46 in1031.5 mb 0.00 in0.0 mm 0.00 in/hr0.0 mm/hr 0.00 in0.0 mm
06:43 AM 72.7°F22.6°C 72.7°F22.6°C 100% 1.6 mph WSW2.6 kmh WSW 2.2 mph3.5 kmh 30.46 in1031.5 mb 0.00 in0.0 mm 0.00 in/hr0.0 mm/hr 0.00 in0.0 mm
06:44 AM 72.7°F22.6°C 72.7°F22.6°C 100% 0.7 mph WSW1.1 kmh WSW 2.2 mph3.5 kmh 30.46 in1031.5 mb 0.00 in0.0 mm 0.00 in/hr0.0 mm/hr 0.00 in0.0 mm
06:45 AM 72.9°F22.7°C 72.9°F22.7°C 100% Calm Calm 3.1 mph5.0 kmh 30.46 in1031.5 mb 0.00 in0.0 mm 0.00 in/hr0.0 mm/hr 0.00 in0.0 mm
06:46 AM 72.9°F22.7°C 72.9°F22.7°C 100% Calm Calm 3.1 mph5.0 kmh 30.46 in1031.5 mb 0.00 in0.0 mm 0.00 in/hr0.0 mm/hr 0.00 in0.0 mm
06:47 AM 72.9°F22.7°C 72.9°F22.7°C 100% Calm Calm 3.1 mph5.0 kmh 30.46 in1031.5 mb 0.00 in0.0 mm 0.00 in/hr0.0 mm/hr 0.00 in0.0 mm
06:48 AM 72.9°F22.7°C 72.9°F22.7°C 100% 0.7 mph SW1.1 kmh SW 3.1 mph5.0 kmh 30.46 in1031.5 mb 0.00 in0.0 mm 0.00 in/hr0.0 mm/hr 0.00 in0.0 mm
06:49 AM 72.9°F22.7°C 72.9°F22.7°C 100% Calm Calm 3.1 mph5.0 kmh 30.46 in1031.5 mb 0.00 in0.0 mm 0.00 in/hr0.0 mm/hr 0.00 in0.0 mm
06:50 AM 72.9°F22.7°C 72.9°F22.7°C 100% Calm Calm 3.1 mph5.0 kmh 30.46 in1031.5 mb 0.00 in0.0 mm 0.00 in/hr0.0 mm/hr 0.00 in0.0 mm
06:51 AM 72.9°F22.7°C 72.9°F22.7°C 100% Calm Calm 3.1 mph5.0 kmh 30.46 in1031.5 mb 0.00 in0.0 mm 0.00 in/hr0.0 mm/hr 0.00 in0.0 mm
06:52 AM 72.9°F22.7°C 72.9°F22.7°C 100% Calm Calm 3.1 mph5.0 kmh 30.46 in1031.5 mb 0.00 in0.0 mm 0.00 in/hr0.0 mm/hr 0.00 in0.0 mm
06:53 AM 72.9°F22.7°C 72.9°F22.7°C 100% Calm Calm 3.1 mph5.0 kmh 30.46 in1031.5 mb 0.00 in0.0 mm 0.00 in/hr0.0 mm/hr 0.00 in0.0 mm
06:54 AM 73.0°F22.8°C 73.1°F22.8°C 100% Calm Calm 3.1 mph5.0 kmh 30.46 in1031.5 mb 0.00 in0.0 mm 0.00 in/hr0.0 mm/hr 0.00 in0.0 mm
06:55 AM 73.0°F22.8°C 73.1°F22.8°C 100% Calm Calm 3.1 mph5.0 kmh 30.46 in1031.5 mb 0.00 in0.0 mm 0.00 in/hr0.0 mm/hr 0.00 in0.0 mm
06:56 AM 73.0°F22.8°C 73.1°F22.8°C 100% Calm Calm 3.1 mph5.0 kmh 30.46 in1031.5 mb 0.00 in0.0 mm 0.00 in/hr0.0 mm/hr 0.00 in0.0 mm
06:57 AM 73.0°F22.8°C 73.1°F22.8°C 100% 0.7 mph SW1.1 kmh SW 3.8 mph6.1 kmh 30.46 in1031.5 mb 0.00 in0.0 mm 0.00 in/hr0.0 mm/hr 0.00 in0.0 mm
06:58 AM 73.0°F22.8°C 73.1°F22.8°C 100% Calm Calm 3.8 mph6.1 kmh 30.46 in1031.5 mb 0.00 in0.0 mm 0.00 in/hr0.0 mm/hr 0.00 in0.0 mm
06:59 AM 73.0°F22.8°C 73.1°F22.8°C 100% Calm Calm 3.8 mph6.1 kmh 30.46 in1031.5 mb 0.00 in0.0 mm 0.00 in/hr0.0 mm/hr 0.00 in0.0 mm
07:00 AM 73.0°F22.8°C 73.1°F22.8°C 100% Calm Calm 3.8 mph6.1 kmh 30.46 in1031.5 mb 0.00 in0.0 mm 0.00 in/hr0.0 mm/hr 0.00 in0.0 mm
07:01 AM 73.0°F22.8°C 73.1°F22.8°C 100% Calm Calm 3.8 mph6.1 kmh 30.46 in1031.5 mb 0.00 in0.0 mm 0.00 in/hr0.0 mm/hr 0.00 in0.0 mm
07:02 AM 73.0°F22.8°C 73.1°F22.8°C 100% Calm Calm 3.8 mph6.1 kmh 30.46 in1031.5 mb 0.00 in0.0 mm 0.00 in/hr0.0 mm/hr 0.00 in0.0 mm
07:03 AM 73.2°F22.9°C 73.3°F22.9°C 100% Calm Calm 3.8 mph6.1 kmh 30.46 in1031.5 mb 0.00 in0.0 mm 0.00 in/hr0.0 mm/hr 0.00 in0.0 mm
07:04 AM 73.2°F22.9°C 73.3°F22.9°C 100% Calm Calm 3.8 mph6.1 kmh 30.46 in1031.5 mb 0.00 in0.0 mm 0.00 in/hr0.0 mm/hr 0.00 in0.0 mm
07:05 AM 73.2°F22.9°C 73.3°F22.9°C 100% Calm Calm 3.8 mph6.1 kmh 30.46 in1031.5 mb 0.00 in0.0 mm 0.00 in/hr0.0 mm/hr 0.00 in0.0 mm
07:06 AM 73.2°F22.9°C 73.3°F22.9°C 100% Calm Calm 3.8 mph6.1 kmh 30.46 in1031.5 mb 0.00 in0.0 mm 0.00 in/hr0.0 mm/hr 0.00 in0.0 mm
07:07 AM 73.2°F22.9°C 73.3°F22.9°C 100% Calm Calm 3.8 mph6.1 kmh 30.46 in1031.5 mb 0.00 in0.0 mm 0.00 in/hr0.0 mm/hr 0.00 in0.0 mm
07:08 AM 73.2°F22.9°C 73.3°F22.9°C 100% Calm Calm 2.2 mph3.5 kmh 30.46 in1031.5 mb 0.00 in0.0 mm 0.00 in/hr0.0 mm/hr 0.00 in0.0 mm
07:09 AM 73.2°F22.9°C 73.3°F22.9°C 100% Calm Calm 2.2 mph3.5 kmh 30.46 in1031.5 mb 0.00 in0.0 mm 0.00 in/hr0.0 mm/hr 0.00 in0.0 mm
07:10 AM 73.2°F22.9°C 73.3°F22.9°C 100% Calm Calm 2.2 mph3.5 kmh 30.46 in1031.5 mb 0.00 in0.0 mm 0.00 in/hr0.0 mm/hr 0.00 in0.0 mm
07:11 AM 73.2°F22.9°C 73.3°F22.9°C 100% Calm Calm 1.6 mph2.6 kmh 30.46 in1031.5 mb 0.00 in0.0 mm 0.00 in/hr0.0 mm/hr 0.00 in0.0 mm
07:12 AM 73.2°F22.9°C 73.3°F22.9°C 100% Calm Calm 1.6 mph2.6 kmh 30.46 in1031.5 mb 0.00 in0.0 mm 0.00 in/hr0.0 mm/hr 0.00 in0.0 mm
07:13 AM 73.2°F22.9°C 73.3°F22.9°C 100% Calm Calm 1.6 mph2.6 kmh 30.46 in1031.5 mb 0.00 in0.0 mm 0.00 in/hr0.0 mm/hr 0.00 in0.0 mm
07:14 AM 73.2°F22.9°C 73.3°F22.9°C 100% Calm Calm 1.6 mph2.6 kmh 30.46 in1031.5 mb 0.00 in0.0 mm 0.00 in/hr0.0 mm/hr 0.00 in0.0 mm
07:15 AM 73.4°F23.0°C 73.5°F23.1°C 100% Calm Calm 1.6 mph2.6 kmh 30.46 in1031.5 mb 0.00 in0.0 mm 0.00 in/hr0.0 mm/hr 0.00 in0.0 mm
07:16 AM 73.4°F23.0°C 73.5°F23.1°C 100% Calm Calm 1.6 mph2.6 kmh 30.46 in1031.5 mb 0.00 in0.0 mm 0.00 in/hr0.0 mm/hr 0.00 in0.0 mm
07:17 AM 73.4°F23.0°C 73.5°F23.1°C 100% 1.6 mph SW2.6 kmh SW 4.5 mph7.2 kmh 30.46 in1031.5 mb 0.00 in0.0 mm 0.00 in/hr0.0 mm/hr 0.00 in0.0 mm
07:18 AM 73.4°F23.0°C 73.5°F23.1°C 100% 2.2 mph SSW3.5 kmh SSW 4.5 mph7.2 kmh 30.46 in1031.5 mb 0.00 in0.0 mm 0.00 in/hr0.0 mm/hr 0.00 in0.0 mm
07:19 AM 73.4°F23.0°C 73.5°F23.1°C 100% Calm Calm 4.5 mph7.2 kmh 30.46 in1031.5 mb 0.00 in0.0 mm 0.00 in/hr0.0 mm/hr 0.00 in0.0 mm
07:20 AM 73.4°F23.0°C 73.5°F23.1°C 100% Calm Calm 4.5 mph7.2 kmh 30.46 in1031.5 mb 0.00 in0.0 mm 0.00 in/hr0.0 mm/hr 0.00 in0.0 mm
07:21 AM 73.4°F23.0°C 73.5°F23.1°C 100% Calm Calm 4.5 mph7.2 kmh 30.46 in1031.5 mb 0.00 in0.0 mm 0.00 in/hr0.0 mm/hr 0.00 in0.0 mm
07:22 AM 73.4°F23.0°C 73.5°F23.1°C 100% 2.2 mph S3.5 kmh S 4.5 mph7.2 kmh 30.46 in1031.5 mb 0.00 in0.0 mm 0.00 in/hr0.0 mm/hr 0.00 in0.0 mm
07:23 AM 73.4°F23.0°C 73.5°F23.1°C 100% 0.7 mph S1.1 kmh S 4.5 mph7.2 kmh 30.46 in1031.5 mb 0.00 in0.0 mm 0.00 in/hr0.0 mm/hr 0.00 in0.0 mm
07:24 AM 73.4°F23.0°C 73.5°F23.1°C 100% 2.2 mph S3.5 kmh S 4.5 mph7.2 kmh 30.46 in1031.5 mb 0.00 in0.0 mm 0.00 in/hr0.0 mm/hr 0.00 in0.0 mm
07:25 AM 73.6°F23.1°C 73.6°F23.1°C 100% Calm Calm 4.5 mph7.2 kmh 30.46 in1031.5 mb 0.00 in0.0 mm 0.00 in/hr0.0 mm/hr 0.00 in0.0 mm
07:26 AM 73.6°F23.1°C 73.6°F23.1°C 100% Calm Calm 4.5 mph7.2 kmh 30.46 in1031.5 mb 0.00 in0.0 mm 0.00 in/hr0.0 mm/hr 0.00 in0.0 mm
07:27 AM 73.6°F23.1°C 73.6°F23.1°C 100% Calm Calm 4.5 mph7.2 kmh 30.46 in1031.5 mb 0.00 in0.0 mm 0.00 in/hr0.0 mm/hr 0.00 in0.0 mm
07:28 AM 73.6°F23.1°C 73.6°F23.1°C 100% 3.8 mph S6.1 kmh S 5.4 mph8.7 kmh 30.46 in1031.5 mb 0.00 in0.0 mm 0.00 in/hr0.0 mm/hr 0.00 in0.0 mm
07:29 AM 73.6°F23.1°C 73.6°F23.1°C 100% Calm Calm 5.4 mph8.7 kmh 30.46 in1031.5 mb 0.00 in0.0 mm 0.00 in/hr0.0 mm/hr 0.00 in0.0 mm
07:30 AM 73.8°F23.2°C 73.8°F23.2°C 100% 2.2 mph S3.5 kmh S 6.0 mph9.7 kmh 30.46 in1031.5 mb 0.00 in0.0 mm 0.00 in/hr0.0 mm/hr 0.00 in0.0 mm
07:31 AM 73.8°F23.2°C 73.8°F23.2°C 100% 1.6 mph SSE2.6 kmh SSE 6.0 mph9.7 kmh 30.46 in1031.5 mb 0.00 in0.0 mm 0.00 in/hr0.0 mm/hr 0.00 in0.0 mm
07:32 AM 73.8°F23.2°C 73.8°F23.2°C 100% Calm Calm 6.0 mph9.7 kmh 30.46 in1031.5 mb 0.00 in0.0 mm 0.00 in/hr0.0 mm/hr 0.00 in0.0 mm
07:33 AM 73.8°F23.2°C 73.8°F23.2°C 100% Calm Calm 6.0 mph9.7 kmh 30.46 in1031.5 mb 0.00 in0.0 mm 0.00 in/hr0.0 mm/hr 0.00 in0.0 mm
07:34 AM 73.8°F23.2°C 73.8°F23.2°C 100% Calm Calm 6.0 mph9.7 kmh 30.46 in1031.5 mb 0.00 in0.0 mm 0.00 in/hr0.0 mm/hr 0.00 in0.0 mm
07:35 AM 73.9°F23.3°C 74.0°F23.3°C 100% Calm Calm 6.0 mph9.7 kmh 30.46 in1031.5 mb 0.00 in0.0 mm 0.00 in/hr0.0 mm/hr 0.00 in0.0 mm
07:36 AM 73.9°F23.3°C 74.0°F23.3°C 100% Calm Calm 6.0 mph9.7 kmh 30.46 in1031.5 mb 0.00 in0.0 mm 0.00 in/hr0.0 mm/hr 0.00 in0.0 mm
07:37 AM 73.9°F23.3°C 74.0°F23.3°C 100% Calm Calm 6.0 mph9.7 kmh 30.46 in1031.5 mb 0.00 in0.0 mm 0.00 in/hr0.0 mm/hr 0.00 in0.0 mm
07:38 AM 73.9°F23.3°C 74.0°F23.3°C 100% 0.7 mph ESE1.1 kmh ESE 6.0 mph9.7 kmh 30.46 in1031.5 mb 0.00 in0.0 mm 0.00 in/hr0.0 mm/hr 0.00 in0.0 mm
07:39 AM 73.9°F23.3°C 74.0°F23.3°C 100% 0.7 mph ESE1.1 kmh ESE 6.0 mph9.7 kmh 30.46 in1031.5 mb 0.00 in0.0 mm 0.00 in/hr0.0 mm/hr 0.00 in0.0 mm
07:40 AM 74.1°F23.4°C 74.2°F23.4°C 100% Calm Calm 6.0 mph9.7 kmh 30.46 in1031.5 mb 0.00 in0.0 mm 0.00 in/hr0.0 mm/hr 0.00 in0.0 mm
07:41 AM 74.1°F23.4°C 74.2°F23.4°C 100% Calm Calm 4.5 mph7.2 kmh 30.46 in1031.5 mb 0.00 in0.0 mm 0.00 in/hr0.0 mm/hr 0.00 in0.0 mm
07:42 AM 74.3°F23.5°C 74.4°F23.6°C 100% 0.7 mph NW1.1 kmh NW 3.1 mph5.0 kmh 30.46 in1031.5 mb 0.00 in0.0 mm 0.00 in/hr0.0 mm/hr 0.00 in0.0 mm
07:43 AM 74.3°F23.5°C 74.4°F23.6°C 100% 0.7 mph SSW1.1 kmh SSW 3.8 mph6.1 kmh 30.46 in1031.5 mb 0.00 in0.0 mm 0.00 in/hr0.0 mm/hr 0.00 in0.0 mm
07:44 AM 74.3°F23.5°C 74.4°F23.6°C 100% Calm Calm 3.8 mph6.1 kmh 30.46 in1031.5 mb 0.00 in0.0 mm 0.00 in/hr0.0 mm/hr 0.00 in0.0 mm
07:45 AM 74.3°F23.5°C 74.4°F23.6°C 100% Calm Calm 3.8 mph6.1 kmh 30.46 in1031.5 mb 0.00 in0.0 mm 0.00 in/hr0.0 mm/hr 0.00 in0.0 mm
07:46 AM 74.5°F23.6°C 74.5°F23.6°C 100% 1.6 mph SW2.6 kmh SW 3.8 mph6.1 kmh 30.46 in1031.5 mb 0.00 in0.0 mm 0.00 in/hr0.0 mm/hr 0.00 in0.0 mm
07:47 AM 74.5°F23.6°C 74.5°F23.6°C 100% 1.6 mph SW2.6 kmh SW 3.8 mph6.1 kmh 30.46 in1031.5 mb 0.00 in0.0 mm 0.00 in/hr0.0 mm/hr 0.00 in0.0 mm
07:48 AM 74.3°F23.5°C 74.4°F23.6°C 100% Calm Calm 6.0 mph9.7 kmh 30.46 in1031.5 mb 0.00 in0.0 mm 0.00 in/hr0.0 mm/hr 0.00 in0.0 mm
07:49 AM 74.5°F23.6°C 74.5°F23.6°C 100% Calm Calm 6.0 mph9.7 kmh 30.46 in1031.5 mb 0.00 in0.0 mm 0.00 in/hr0.0 mm/hr 0.00 in0.0 mm
07:50 AM 74.5°F23.6°C 74.5°F23.6°C 100% 0.7 mph SSW1.1 kmh SSW 6.0 mph9.7 kmh 30.46 in1031.5 mb 0.00 in0.0 mm 0.00 in/hr0.0 mm/hr 0.00 in0.0 mm
07:51 AM 74.5°F23.6°C 74.5°F23.6°C 100% 1.6 mph SSW2.6 kmh SSW 6.0 mph9.7 kmh 30.46 in1031.5 mb 0.00 in0.0 mm 0.00 in/hr0.0 mm/hr 0.00 in0.0 mm
07:52 AM 74.5°F23.6°C 74.5°F23.6°C 100% Calm Calm 6.0 mph9.7 kmh 30.46 in1031.5 mb 0.00 in0.0 mm 0.00 in/hr0.0 mm/hr 0.00 in0.0 mm
07:53 AM 74.7°F23.7°C 74.7°F23.7°C 100% Calm Calm 6.0 mph9.7 kmh 30.46 in1031.5 mb 0.00 in0.0 mm 0.00 in/hr0.0 mm/hr 0.00 in0.0 mm
07:54 AM 74.7°F23.7°C 74.7°F23.7°C 100% 0.7 mph SW1.1 kmh SW 6.0 mph9.7 kmh 30.46 in1031.5 mb 0.00 in0.0 mm 0.00 in/hr0.0 mm/hr 0.00 in0.0 mm
07:55 AM 74.7°F23.7°C 74.7°F23.7°C 100% Calm Calm 6.0 mph9.7 kmh 30.46 in1031.5 mb 0.00 in0.0 mm 0.00 in/hr0.0 mm/hr 0.00 in0.0 mm
07:56 AM 74.7°F23.7°C 74.7°F23.7°C 100% 0.7 mph SSW1.1 kmh SSW 6.0 mph9.7 kmh 30.46 in1031.5 mb 0.00 in0.0 mm 0.00 in/hr0.0 mm/hr 0.00 in0.0 mm
07:57 AM 74.7°F23.7°C 74.7°F23.7°C 100% Calm Calm 6.0 mph9.7 kmh 30.46 in1031.5 mb 0.00 in0.0 mm 0.00 in/hr0.0 mm/hr 0.00 in0.0 mm
07:58 AM 74.7°F23.7°C 74.7°F23.7°C 100% Calm Calm 6.0 mph9.7 kmh 30.46 in1031.5 mb 0.00 in0.0 mm 0.00 in/hr0.0 mm/hr 0.00 in0.0 mm
07:59 AM 74.8°F23.8°C 74.9°F23.8°C 100% Calm Calm 6.0 mph9.7 kmh 30.46 in1031.5 mb 0.00 in0.0 mm 0.00 in/hr0.0 mm/hr 0.00 in0.0 mm
08:00 AM 74.8°F23.8°C 74.9°F23.8°C 100% 4.5 mph SW7.2 kmh SW 7.6 mph12.2 kmh 30.46 in1031.5 mb 0.00 in0.0 mm 0.00 in/hr0.0 mm/hr 0.00 in0.0 mm
08:01 AM 74.8°F23.8°C 74.9°F23.8°C 100% 4.5 mph SW7.2 kmh SW 7.6 mph12.2 kmh 30.46 in1031.5 mb 0.00 in0.0 mm 0.00 in/hr0.0 mm/hr 0.00 in0.0 mm
08:02 AM 74.8°F23.8°C 74.9°F23.8°C 100% 4.5 mph SW7.2 kmh SW 7.6 mph12.2 kmh 30.46 in1031.5 mb 0.00 in0.0 mm 0.00 in/hr0.0 mm/hr 0.00 in0.0 mm
08:03 AM 74.8°F23.8°C 74.9°F23.8°C 100% 4.5 mph SW7.2 kmh SW 7.6 mph12.2 kmh 30.46 in1031.5 mb 0.00 in0.0 mm 0.00 in/hr0.0 mm/hr 0.00 in0.0 mm
08:04 AM 74.8°F23.8°C 74.9°F23.8°C 100% 4.5 mph WSW7.2 kmh WSW 7.6 mph12.2 kmh 30.46 in1031.5 mb 0.00 in0.0 mm 0.00 in/hr0.0 mm/hr 0.00 in0.0 mm
08:05 AM 74.8°F23.8°C 74.9°F23.8°C 100% 4.5 mph WSW7.2 kmh WSW 7.6 mph12.2 kmh 30.46 in1031.5 mb 0.00 in0.0 mm 0.00 in/hr0.0 mm/hr 0.00 in0.0 mm
08:06 AM 74.8°F23.8°C 74.9°F23.8°C 100% 4.5 mph WSW7.2 kmh WSW 7.6 mph12.2 kmh 30.46 in1031.5 mb 0.00 in0.0 mm 0.00 in/hr0.0 mm/hr 0.00 in0.0 mm
08:07 AM 75.0°F23.9°C 75.1°F23.9°C 100% Calm Calm 7.6 mph12.2 kmh 30.46 in1031.5 mb 0.00 in0.0 mm 0.00 in/hr0.0 mm/hr 0.00 in0.0 mm
08:08 AM 75.2°F24.0°C 75.3°F24.1°C 100% Calm Calm 7.6 mph12.2 kmh 30.46 in1031.5 mb 0.00 in0.0 mm 0.00 in/hr0.0 mm/hr 0.00 in0.0 mm
08:09 AM 75.4°F24.1°C 75.4°F24.1°C 100% Calm Calm 7.6 mph12.2 kmh 30.46 in1031.5 mb 0.00 in0.0 mm 0.00 in/hr0.0 mm/hr 0.00 in0.0 mm
08:10 AM 75.6°F24.2°C 75.6°F24.2°C 100% Calm Calm 7.6 mph12.2 kmh 30.46 in1031.5 mb 0.00 in0.0 mm 0.00 in/hr0.0 mm/hr 0.00 in0.0 mm
08:11 AM 75.6°F24.2°C 75.6°F24.2°C 100% Calm Calm 7.6 mph12.2 kmh 30.46 in1031.5 mb 0.00 in0.0 mm 0.00 in/hr0.0 mm/hr 0.00 in0.0 mm
08:12 AM 75.6°F24.2°C 75.6°F24.2°C 100% Calm Calm 7.6 mph12.2 kmh 30.46 in1031.5 mb 0.00 in0.0 mm 0.00 in/hr0.0 mm/hr 0.00 in0.0 mm
08:13 AM 75.7°F24.3°C 75.8°F24.3°C 100% Calm Calm 7.6 mph12.2 kmh 30.46 in1031.5 mb 0.00 in0.0 mm 0.00 in/hr0.0 mm/hr 0.00 in0.0 mm
08:14 AM 75.9°F24.4°C 76.0°F24.4°C 100% Calm Calm 7.6 mph12.2 kmh 30.46 in1031.5 mb 0.00 in0.0 mm 0.00 in/hr0.0 mm/hr 0.00 in0.0 mm
08:15 AM 75.9°F24.4°C 76.0°F24.4°C 100% Calm Calm 7.6 mph12.2 kmh 30.46 in1031.5 mb 0.00 in0.0 mm 0.00 in/hr0.0 mm/hr 0.00 in0.0 mm
08:16 AM 75.9°F24.4°C 76.0°F24.4°C 100% Calm Calm 7.6 mph12.2 kmh 30.46 in1031.5 mb 0.00 in0.0 mm 0.00 in/hr0.0 mm/hr 0.00 in0.0 mm
08:17 AM 76.1°F24.5°C 76.2°F24.6°C 100% Calm Calm 1.6 mph2.6 kmh 30.46 in1031.5 mb 0.00 in0.0 mm 0.00 in/hr0.0 mm/hr 0.00 in0.0 mm
08:18 AM 76.1°F24.5°C 76.2°F24.6°C 100% Calm Calm 1.6 mph2.6 kmh 30.46 in1031.5 mb 0.00 in0.0 mm 0.00 in/hr0.0 mm/hr 0.00 in0.0 mm
08:19 AM 76.1°F24.5°C 76.2°F24.6°C 100% Calm Calm 1.6 mph2.6 kmh 30.46 in1031.5 mb 0.00 in0.0 mm 0.00 in/hr0.0 mm/hr 0.00 in0.0 mm
08:20 AM 76.1°F24.5°C 76.2°F24.6°C 100% Calm Calm 1.6 mph2.6 kmh 30.46 in1031.5 mb 0.00 in0.0 mm 0.00 in/hr0.0 mm/hr 0.00 in0.0 mm
08:21 AM 76.1°F24.5°C 76.2°F24.6°C 100% 0.7 mph WSW1.1 kmh WSW 3.1 mph5.0 kmh 30.46 in1031.5 mb 0.00 in0.0 mm 0.00 in/hr0.0 mm/hr 0.00 in0.0 mm
08:22 AM 76.1°F24.5°C 76.2°F24.6°C 100% 0.7 mph SSW1.1 kmh SSW 3.1 mph5.0 kmh 30.46 in1031.5 mb 0.00 in0.0 mm 0.00 in/hr0.0 mm/hr 0.00 in0.0 mm
08:23 AM 76.1°F24.5°C 76.2°F24.6°C 100% Calm Calm 3.1 mph5.0 kmh 30.46 in1031.5 mb 0.00 in0.0 mm 0.00 in/hr0.0 mm/hr 0.00 in0.0 mm
08:24 AM 76.1°F24.5°C 76.2°F24.6°C 100% 0.7 mph SSW1.1 kmh SSW 3.1 mph5.0 kmh 30.46 in1031.5 mb 0.00 in0.0 mm 0.00 in/hr0.0 mm/hr 0.00 in0.0 mm
08:25 AM 76.3°F24.6°C 76.3°F24.6°C 100% 0.7 mph SW1.1 kmh SW 3.1 mph5.0 kmh 30.46 in1031.5 mb 0.00 in0.0 mm 0.00 in/hr0.0 mm/hr 0.00 in0.0 mm
08:26 AM 76.5°F24.7°C 76.5°F24.7°C 100% 0.7 mph SSW1.1 kmh SSW 3.1 mph5.0 kmh 30.46 in1031.5 mb 0.00 in0.0 mm 0.00 in/hr0.0 mm/hr 0.00 in0.0 mm
08:27 AM 76.5°F24.7°C 76.5°F24.7°C 100% Calm Calm 3.1 mph5.0 kmh 30.46 in1031.5 mb 0.00 in0.0 mm 0.00 in/hr0.0 mm/hr 0.00 in0.0 mm
08:28 AM 76.5°F24.7°C 76.5°F24.7°C 100% Calm Calm 3.1 mph5.0 kmh 30.46 in1031.5 mb 0.00 in0.0 mm 0.00 in/hr0.0 mm/hr 0.00 in0.0 mm
08:29 AM 76.6°F24.8°C 76.7°F24.8°C 100% Calm Calm 3.1 mph5.0 kmh 30.46 in1031.5 mb 0.00 in0.0 mm 0.00 in/hr0.0 mm/hr 0.00 in0.0 mm
08:30 AM 76.6°F24.8°C 76.7°F24.8°C 100% Calm Calm 3.1 mph5.0 kmh 30.46 in1031.5 mb 0.00 in0.0 mm 0.00 in/hr0.0 mm/hr 0.00 in0.0 mm
08:31 AM 76.8°F24.9°C 76.9°F24.9°C 100% Calm Calm 3.1 mph5.0 kmh 30.46 in1031.5 mb 0.00 in0.0 mm 0.00 in/hr0.0 mm/hr 0.00 in0.0 mm
08:32 AM 76.8°F24.9°C 76.9°F24.9°C 100% Calm Calm 2.2 mph3.5 kmh 30.46 in1031.5 mb 0.00 in0.0 mm 0.00 in/hr0.0 mm/hr 0.00 in0.0 mm
08:33 AM 76.8°F24.9°C 76.9°F24.9°C 100% 0.7 mph SW1.1 kmh SW 2.2 mph3.5 kmh 30.46 in1031.5 mb 0.00 in0.0 mm 0.00 in/hr0.0 mm/hr 0.00 in0.0 mm
08:34 AM 76.8°F24.9°C 76.9°F24.9°C 100% Calm Calm 2.2 mph3.5 kmh 30.46 in1031.5 mb 0.00 in0.0 mm 0.00 in/hr0.0 mm/hr 0.00 in0.0 mm
08:35 AM 76.8°F24.9°C 76.9°F24.9°C 100% Calm Calm 2.2 mph3.5 kmh 30.46 in1031.5 mb 0.00 in0.0 mm 0.00 in/hr0.0 mm/hr 0.00 in0.0 mm
08:36 AM 76.8°F24.9°C 76.9°F24.9°C 100% 0.7 mph WNW1.1 kmh WNW 2.2 mph3.5 kmh 30.46 in1031.5 mb 0.00 in0.0 mm 0.00 in/hr0.0 mm/hr 0.00 in0.0 mm
08:37 AM 76.8°F24.9°C 76.9°F24.9°C 100% Calm Calm 2.2 mph3.5 kmh 30.46 in1031.5 mb 0.00 in0.0 mm 0.00 in/hr0.0 mm/hr 0.00 in0.0 mm
08:38 AM 77.2°F25.1°C 77.2°F25.1°C 100% Calm Calm 2.2 mph3.5 kmh 30.46 in1031.5 mb 0.00 in0.0 mm 0.00 in/hr0.0 mm/hr 0.00 in0.0 mm
08:39 AM 77.2°F25.1°C 77.2°F25.1°C 100% Calm Calm 2.2 mph3.5 kmh 30.46 in1031.5 mb 0.00 in0.0 mm 0.00 in/hr0.0 mm/hr 0.00 in0.0 mm
08:40 AM 77.2°F25.1°C 77.2°F25.1°C 100% Calm Calm 2.2 mph3.5 kmh 30.46 in1031.5 mb 0.00 in0.0 mm 0.00 in/hr0.0 mm/hr 0.00 in0.0 mm
08:41 AM 77.2°F25.1°C 77.2°F25.1°C 100% Calm Calm 2.2 mph3.5 kmh 30.46 in1031.5 mb 0.00 in0.0 mm 0.00 in/hr0.0 mm/hr 0.00 in0.0 mm
08:42 AM 77.5°F25.3°C 77.6°F25.3°C 100% Calm Calm 2.2 mph3.5 kmh 30.46 in1031.5 mb 0.00 in0.0 mm 0.00 in/hr0.0 mm/hr 0.00 in0.0 mm
08:43 AM 77.5°F25.3°C 77.6°F25.3°C 100% 0.7 mph NW1.1 kmh NW 2.2 mph3.5 kmh 30.46 in1031.5 mb 0.00 in0.0 mm 0.00 in/hr0.0 mm/hr 0.00 in0.0 mm
08:44 AM 77.5°F25.3°C 77.6°F25.3°C 100% Calm Calm 2.2 mph3.5 kmh 30.46 in1031.5 mb 0.00 in0.0 mm 0.00 in/hr0.0 mm/hr 0.00 in0.0 mm
08:45 AM 77.7°F25.4°C 77.8°F25.4°C 100% Calm Calm 2.2 mph3.5 kmh 30.46 in1031.5 mb 0.00 in0.0 mm 0.00 in/hr0.0 mm/hr 0.00 in0.0 mm
08:46 AM 77.7°F25.4°C 77.8°F25.4°C 100% Calm Calm 2.2 mph3.5 kmh 30.46 in1031.5 mb 0.00 in0.0 mm 0.00 in/hr0.0 mm/hr 0.00 in0.0 mm
08:47 AM 77.9°F25.5°C 78.0°F25.6°C 100% Calm Calm 2.2 mph3.5 kmh 30.46 in1031.5 mb 0.00 in0.0 mm 0.00 in/hr0.0 mm/hr 0.00 in0.0 mm
08:48 AM 77.9°F25.5°C 78.0°F25.6°C 100% 1.6 mph N2.6 kmh N 2.2 mph3.5 kmh 30.46 in1031.5 mb 0.00 in0.0 mm 0.00 in/hr0.0 mm/hr 0.00 in0.0 mm
08:49 AM 77.7°F25.4°C 77.8°F25.4°C 100% Calm Calm 2.2 mph3.5 kmh 30.46 in1031.5 mb 0.00 in0.0 mm 0.00 in/hr0.0 mm/hr 0.00 in0.0 mm
08:50 AM 77.9°F25.5°C 78.0°F25.6°C 100% Calm Calm 2.2 mph3.5 kmh 30.46 in1031.5 mb 0.00 in0.0 mm 0.00 in/hr0.0 mm/hr 0.00 in0.0 mm
08:51 AM 77.9°F25.5°C 78.0°F25.6°C 100% Calm Calm 2.2 mph3.5 kmh 30.46 in1031.5 mb 0.00 in0.0 mm 0.00 in/hr0.0 mm/hr 0.00 in0.0 mm
08:52 AM 78.1°F25.6°C 78.1°F25.6°C 100% Calm Calm 2.2 mph3.5 kmh 30.46 in1031.5 mb 0.00 in0.0 mm 0.00 in/hr0.0 mm/hr 0.00 in0.0 mm
08:53 AM 77.9°F25.5°C 78.0°F25.6°C 100% 0.7 mph W1.1 kmh W 2.2 mph3.5 kmh 30.46 in1031.5 mb 0.00 in0.0 mm 0.00 in/hr0.0 mm/hr 0.00 in0.0 mm
08:54 AM 78.1°F25.6°C 78.1°F25.6°C 100% Calm Calm 2.2 mph3.5 kmh 30.46 in1031.5 mb 0.00 in0.0 mm 0.00 in/hr0.0 mm/hr 0.00 in0.0 mm
08:55 AM 78.1°F25.6°C 78.1°F25.6°C 100% Calm Calm 2.2 mph3.5 kmh 30.46 in1031.5 mb 0.00 in0.0 mm 0.00 in/hr0.0 mm/hr 0.00 in0.0 mm
08:56 AM 78.1°F25.6°C 78.1°F25.6°C 100% Calm Calm 2.2 mph3.5 kmh 30.46 in1031.5 mb 0.00 in0.0 mm 0.00 in/hr0.0 mm/hr 0.00 in0.0 mm
08:57 AM 78.1°F25.6°C 78.1°F25.6°C 100% Calm Calm 3.8 mph6.1 kmh 30.46 in1031.5 mb 0.00 in0.0 mm 0.00 in/hr0.0 mm/hr 0.00 in0.0 mm
08:58 AM 78.3°F25.7°C 78.3°F25.7°C 100% Calm Calm 3.8 mph6.1 kmh 30.46 in1031.5 mb 0.00 in0.0 mm 0.00 in/hr0.0 mm/hr 0.00 in0.0 mm
08:59 AM 78.3°F25.7°C 78.3°F25.7°C 100% Calm Calm 3.8 mph6.1 kmh 30.46 in1031.5 mb 0.00 in0.0 mm 0.00 in/hr0.0 mm/hr 0.00 in0.0 mm
09:00 AM 78.3°F25.7°C 78.3°F25.7°C 100% 0.7 mph WSW1.1 kmh WSW 3.8 mph6.1 kmh 30.46 in1031.5 mb 0.00 in0.0 mm 0.00 in/hr0.0 mm/hr 0.00 in0.0 mm
09:01 AM 78.4°F25.8°C 78.5°F25.8°C 100% 1.6 mph WSW2.6 kmh WSW 3.8 mph6.1 kmh 30.46 in1031.5 mb 0.00 in0.0 mm 0.00 in/hr0.0 mm/hr 0.00 in0.0 mm
09:02 AM 78.4°F25.8°C 78.5°F25.8°C 100% 0.7 mph WSW1.1 kmh WSW 3.8 mph6.1 kmh 30.46 in1031.5 mb 0.00 in0.0 mm 0.00 in/hr0.0 mm/hr 0.00 in0.0 mm
09:03 AM 78.4°F25.8°C 78.5°F25.8°C 100% 0.7 mph N1.1 kmh N 3.8 mph6.1 kmh 30.46 in1031.5 mb 0.00 in0.0 mm 0.00 in/hr0.0 mm/hr 0.00 in0.0 mm
09:04 AM 78.6°F25.9°C 78.7°F25.9°C 100% Calm Calm 3.8 mph6.1 kmh 30.46 in1031.5 mb 0.00 in0.0 mm 0.00 in/hr0.0 mm/hr 0.00 in0.0 mm
09:05 AM 78.3°F25.7°C 78.3°F25.7°C 100% Calm Calm 5.4 mph8.7 kmh 30.46 in1031.5 mb 0.00 in0.0 mm 0.00 in/hr0.0 mm/hr 0.00 in0.0 mm
09:06 AM 78.4°F25.8°C 78.5°F25.8°C 100% 2.2 mph NW3.5 kmh NW 5.4 mph8.7 kmh 30.46 in1031.5 mb 0.00 in0.0 mm 0.00 in/hr0.0 mm/hr 0.00 in0.0 mm
09:07 AM 78.3°F25.7°C 78.3°F25.7°C 100% 3.1 mph NW5.0 kmh NW 8.3 mph13.4 kmh 30.46 in1031.5 mb 0.00 in0.0 mm 0.00 in/hr0.0 mm/hr 0.00 in0.0 mm
09:08 AM 78.1°F25.6°C 78.1°F25.6°C 100% 3.1 mph N5.0 kmh N 8.3 mph13.4 kmh 30.46 in1031.5 mb 0.00 in0.0 mm 0.00 in/hr0.0 mm/hr 0.00 in0.0 mm
09:09 AM 78.3°F25.7°C 78.3°F25.7°C 100% 0.7 mph NNW1.1 kmh NNW 8.3 mph13.4 kmh 30.46 in1031.5 mb 0.00 in0.0 mm 0.00 in/hr0.0 mm/hr 0.00 in0.0 mm
09:10 AM 78.3°F25.7°C 78.3°F25.7°C 100% 1.6 mph NNW2.6 kmh NNW 8.3 mph13.4 kmh 30.46 in1031.5 mb 0.00 in0.0 mm 0.00 in/hr0.0 mm/hr 0.00 in0.0 mm
09:11 AM 78.1°F25.6°C 78.1°F25.6°C 100% Calm Calm 8.3 mph13.4 kmh 30.46 in1031.5 mb 0.00 in0.0 mm 0.00 in/hr0.0 mm/hr 0.00 in0.0 mm
09:12 AM 78.4°F25.8°C 78.5°F25.8°C 100% Calm Calm 8.3 mph13.4 kmh 30.46 in1031.5 mb 0.00 in0.0 mm 0.00 in/hr0.0 mm/hr 0.00 in0.0 mm
09:13 AM 78.4°F25.8°C 78.5°F25.8°C 100% 0.7 mph NW1.1 kmh NW 8.3 mph13.4 kmh 30.46 in1031.5 mb 0.00 in0.0 mm 0.00 in/hr0.0 mm/hr 0.00 in0.0 mm
09:14 AM 78.4°F25.8°C 78.5°F25.8°C 100% 0.7 mph NW1.1 kmh NW 8.3 mph13.4 kmh 30.46 in1031.5 mb 0.00 in0.0 mm 0.00 in/hr0.0 mm/hr 0.00 in0.0 mm
09:15 AM 78.8°F26.0°C 78.9°F26.1°C 100% Calm Calm 8.3 mph13.4 kmh 30.46 in1031.5 mb 0.00 in0.0 mm 0.00 in/hr0.0 mm/hr 0.00 in0.0 mm
09:16 AM 79.0°F26.1°C 79.0°F26.1°C 100% Calm Calm 8.3 mph13.4 kmh 30.46 in1031.5 mb 0.00 in0.0 mm 0.00 in/hr0.0 mm/hr 0.00 in0.0 mm
09:17 AM 79.0°F26.1°C 79.0°F26.1°C 100% 0.7 mph N1.1 kmh N 8.3 mph13.4 kmh 30.46 in1031.5 mb 0.00 in0.0 mm 0.00 in/hr0.0 mm/hr 0.00 in0.0 mm
09:18 AM 79.0°F26.1°C 79.0°F26.1°C 100% 0.7 mph NW1.1 kmh NW 3.8 mph6.1 kmh 30.46 in1031.5 mb 0.00 in0.0 mm 0.00 in/hr0.0 mm/hr 0.00 in0.0 mm
09:19 AM 78.8°F26.0°C 78.9°F26.1°C 100% 0.7 mph NW1.1 kmh NW 3.8 mph6.1 kmh 30.46 in1031.5 mb 0.00 in0.0 mm 0.00 in/hr0.0 mm/hr 0.00 in0.0 mm
09:20 AM 78.8°F26.0°C 78.9°F26.1°C 100% Calm Calm 2.2 mph3.5 kmh 30.46 in1031.5 mb 0.00 in0.0 mm 0.00 in/hr0.0 mm/hr 0.00 in0.0 mm
09:21 AM 78.6°F25.9°C 78.7°F25.9°C 100% Calm Calm 2.2 mph3.5 kmh 30.46 in1031.5 mb 0.00 in0.0 mm 0.00 in/hr0.0 mm/hr 0.00 in0.0 mm
09:22 AM 78.6°F25.9°C 78.7°F25.9°C 100% Calm Calm 2.2 mph3.5 kmh 30.46 in1031.5 mb 0.00 in0.0 mm 0.00 in/hr0.0 mm/hr 0.00 in0.0 mm
09:23 AM 78.8°F26.0°C 78.9°F26.1°C 100% Calm Calm 2.2 mph3.5 kmh 30.46 in1031.5 mb 0.00 in0.0 mm 0.00 in/hr0.0 mm/hr 0.00 in0.0 mm
09:24 AM 79.0°F26.1°C 79.0°F26.1°C 100% 2.2 mph NW3.5 kmh NW 8.3 mph13.4 kmh 30.45 in1031.2 mb 0.00 in0.0 mm 0.00 in/hr0.0 mm/hr 0.00 in0.0 mm
09:25 AM 79.3°F26.3°C 79.4°F26.3°C 100% 0.7 mph NW1.1 kmh NW 8.3 mph13.4 kmh 30.46 in1031.5 mb 0.00 in0.0 mm 0.00 in/hr0.0 mm/hr 0.00 in0.0 mm
09:26 AM 79.5°F26.4°C 79.6°F26.4°C 100% Calm Calm 8.3 mph13.4 kmh 30.46 in1031.5 mb 0.00 in0.0 mm 0.00 in/hr0.0 mm/hr 0.00 in0.0 mm
09:27 AM 80.1°F26.7°C 80.1°F26.7°C 100% Calm Calm 8.3 mph13.4 kmh 30.46 in1031.5 mb 0.00 in0.0 mm 0.00 in/hr0.0 mm/hr 0.00 in0.0 mm
09:28 AM 80.1°F26.7°C 80.1°F26.7°C 100% 0.7 mph NW1.1 kmh NW 8.3 mph13.4 kmh 30.46 in1031.5 mb 0.00 in0.0 mm 0.00 in/hr0.0 mm/hr 0.00 in0.0 mm
09:29 AM 80.1°F26.7°C 79.5°F26.4°C 98% Calm Calm 8.3 mph13.4 kmh 30.46 in1031.5 mb 0.00 in0.0 mm 0.00 in/hr0.0 mm/hr 0.00 in0.0 mm
09:30 AM 80.2°F26.8°C 79.7°F26.5°C 98% Calm Calm 8.3 mph13.4 kmh 30.45 in1031.2 mb 0.00 in0.0 mm 0.00 in/hr0.0 mm/hr 0.00 in0.0 mm
09:31 AM 80.4°F26.9°C 79.6°F26.4°C 97% 2.2 mph NW3.5 kmh NW 8.3 mph13.4 kmh 30.46 in1031.5 mb 0.00 in0.0 mm 0.00 in/hr0.0 mm/hr 0.00 in0.0 mm
09:32 AM 80.4°F26.9°C 79.6°F26.4°C 97% 0.7 mph WNW1.1 kmh WNW 8.3 mph13.4 kmh 30.46 in1031.5 mb 0.00 in0.0 mm 0.00 in/hr0.0 mm/hr 0.00 in0.0 mm
09:33 AM 79.9°F26.6°C 78.7°F25.9°C 96% Calm Calm 8.3 mph13.4 kmh 30.46 in1031.5 mb 0.00 in0.0 mm 0.00 in/hr0.0 mm/hr 0.00 in0.0 mm
09:34 AM 80.2°F26.8°C 79.1°F26.2°C 96% 1.6 mph WSW2.6 kmh WSW 3.8 mph6.1 kmh 30.46 in1031.5 mb 0.00 in0.0 mm 0.00 in/hr0.0 mm/hr 0.00 in0.0 mm
09:35 AM 80.2°F26.8°C 79.1°F26.2°C 96% 0.7 mph WSW1.1 kmh WSW 3.8 mph6.1 kmh 30.46 in1031.5 mb 0.00 in0.0 mm 0.00 in/hr0.0 mm/hr 0.00 in0.0 mm
09:36 AM 80.4°F26.9°C 79.2°F26.2°C 96% 0.7 mph SW1.1 kmh SW 3.8 mph6.1 kmh 30.46 in1031.5 mb 0.00 in0.0 mm 0.00 in/hr0.0 mm/hr 0.00 in0.0 mm
09:37 AM 80.8°F27.1°C 79.3°F26.3°C 95% 6.0 mph SW9.7 kmh SW 9.2 mph14.8 kmh 30.46 in1031.5 mb 0.00 in0.0 mm 0.00 in/hr0.0 mm/hr 0.00 in0.0 mm
09:38 AM 80.2°F26.8°C 78.7°F25.9°C 95% 2.2 mph SW3.5 kmh SW 9.2 mph14.8 kmh 30.46 in1031.5 mb 0.00 in0.0 mm 0.00 in/hr0.0 mm/hr 0.00 in0.0 mm
09:39 AM 80.2°F26.8°C 78.7°F25.9°C 95% Calm Calm 9.2 mph14.8 kmh 30.46 in1031.5 mb 0.00 in0.0 mm 0.00 in/hr0.0 mm/hr 0.00 in0.0 mm
09:40 AM 80.8°F27.1°C 79.3°F26.3°C 95% 1.6 mph WSW2.6 kmh WSW 9.2 mph14.8 kmh 30.46 in1031.5 mb 0.00 in0.0 mm 0.00 in/hr0.0 mm/hr 0.00 in0.0 mm
09:41 AM 81.3°F27.4°C 79.2°F26.2°C 93% Calm Calm 9.2 mph14.8 kmh 30.46 in1031.5 mb 0.00 in0.0 mm 0.00 in/hr0.0 mm/hr 0.00 in0.0 mm
09:42 AM 81.3°F27.4°C 79.2°F26.2°C 93% Calm Calm 9.2 mph14.8 kmh 30.46 in1031.5 mb 0.00 in0.0 mm 0.00 in/hr0.0 mm/hr 0.00 in0.0 mm
09:43 AM 81.3°F27.4°C 79.2°F26.2°C 93% 0.7 mph W1.1 kmh W 9.2 mph14.8 kmh 30.46 in1031.5 mb 0.00 in0.0 mm 0.00 in/hr0.0 mm/hr 0.00 in0.0 mm
09:44 AM 81.3°F27.4°C 78.8°F26.0°C 92% 0.7 mph W1.1 kmh W 9.2 mph14.8 kmh 30.46 in1031.5 mb 0.00 in0.0 mm 0.00 in/hr0.0 mm/hr 0.00 in0.0 mm
09:45 AM 81.3°F27.4°C 78.8°F26.0°C 92% 3.8 mph WNW6.1 kmh WNW 9.2 mph14.8 kmh 30.46 in1031.5 mb 0.00 in0.0 mm 0.00 in/hr0.0 mm/hr 0.00 in0.0 mm
09:46 AM 81.3°F27.4°C 78.8°F26.0°C 92% 0.7 mph NW1.1 kmh NW 9.2 mph14.8 kmh 30.46 in1031.5 mb 0.00 in0.0 mm 0.00 in/hr0.0 mm/hr 0.00 in0.0 mm
09:47 AM 81.3°F27.4°C 78.8°F26.0°C 92% 0.7 mph NW1.1 kmh NW 9.2 mph14.8 kmh 30.46 in1031.5 mb 0.00 in0.0 mm 0.00 in/hr0.0 mm/hr 0.00 in0.0 mm
09:48 AM 81.7°F27.6°C 79.2°F26.2°C 92% 0.7 mph NW1.1 kmh NW 6.9 mph11.1 kmh 30.46 in1031.5 mb 0.00 in0.0 mm 0.00 in/hr0.0 mm/hr 0.00 in0.0 mm
09:49 AM 81.3°F27.4°C 78.5°F25.8°C 91% 0.7 mph WNW1.1 kmh WNW 6.9 mph11.1 kmh 30.46 in1031.5 mb 0.00 in0.0 mm 0.00 in/hr0.0 mm/hr 0.00 in0.0 mm
09:50 AM 81.7°F27.6°C 78.9°F26.1°C 91% 0.7 mph W1.1 kmh W 6.9 mph11.1 kmh 30.46 in1031.5 mb 0.00 in0.0 mm 0.00 in/hr0.0 mm/hr 0.00 in0.0 mm
09:51 AM 82.6°F28.1°C 79.4°F26.3°C 90% 0.7 mph WNW1.1 kmh WNW 6.9 mph11.1 kmh 30.46 in1031.5 mb 0.00 in0.0 mm 0.00 in/hr0.0 mm/hr 0.00 in0.0 mm
09:52 AM 82.6°F28.1°C 79.4°F26.3°C 90% 0.7 mph WNW1.1 kmh WNW 6.9 mph11.1 kmh 30.46 in1031.5 mb 0.00 in0.0 mm 0.00 in/hr0.0 mm/hr 0.00 in0.0 mm
09:53 AM 82.4°F28.0°C 78.6°F25.9°C 88% Calm Calm 6.9 mph11.1 kmh 30.46 in1031.5 mb 0.00 in0.0 mm 0.00 in/hr0.0 mm/hr 0.00 in0.0 mm
09:54 AM 82.4°F28.0°C 78.6°F25.9°C 88% 0.7 mph WNW1.1 kmh WNW 6.9 mph11.1 kmh 30.45 in1031.2 mb 0.00 in0.0 mm 0.00 in/hr0.0 mm/hr 0.00 in0.0 mm
09:55 AM 82.9°F28.3°C 79.1°F26.2°C 88% 3.8 mph W6.1 kmh W 9.2 mph14.8 kmh 30.46 in1031.5 mb 0.00 in0.0 mm 0.00 in/hr0.0 mm/hr 0.00 in0.0 mm
09:56 AM 81.3°F27.4°C 77.5°F25.3°C 88% 0.7 mph W1.1 kmh W 9.2 mph14.8 kmh 30.45 in1031.2 mb 0.00 in0.0 mm 0.00 in/hr0.0 mm/hr 0.00 in0.0 mm
09:57 AM 81.9°F27.7°C 78.7°F25.9°C 90% Calm Calm 9.2 mph14.8 kmh 30.46 in1031.5 mb 0.00 in0.0 mm 0.00 in/hr0.0 mm/hr 0.00 in0.0 mm
09:58 AM 82.0°F27.8°C 78.9°F26.1°C 90% Calm Calm 9.2 mph14.8 kmh 30.45 in1031.2 mb 0.00 in0.0 mm 0.00 in/hr0.0 mm/hr 0.00 in0.0 mm
09:59 AM 82.0°F27.8°C 78.9°F26.1°C 90% Calm Calm 9.2 mph14.8 kmh 30.46 in1031.5 mb 0.00 in0.0 mm 0.00 in/hr0.0 mm/hr 0.00 in0.0 mm
10:00 AM 82.0°F27.8°C 78.9°F26.1°C 90% 0.7 mph WNW1.1 kmh WNW 9.2 mph14.8 kmh 30.46 in1031.5 mb 0.00 in0.0 mm 0.00 in/hr0.0 mm/hr 0.00 in0.0 mm
10:01 AM 82.0°F27.8°C 78.9°F26.1°C 90% 0.7 mph W1.1 kmh W 9.2 mph14.8 kmh 30.46 in1031.5 mb 0.00 in0.0 mm 0.00 in/hr0.0 mm/hr 0.00 in0.0 mm
10:02 AM 82.0°F27.8°C 78.9°F26.1°C 90% 0.7 mph W1.1 kmh W 9.2 mph14.8 kmh 30.45 in1031.2 mb 0.00 in0.0 mm 0.00 in/hr0.0 mm/hr 0.00 in0.0 mm
10:03 AM 82.0°F27.8°C 78.9°F26.1°C 90% 0.7 mph W1.1 kmh W 9.2 mph14.8 kmh 30.46 in1031.5 mb 0.00 in0.0 mm 0.00 in/hr0.0 mm/hr 0.00 in0.0 mm
10:04 AM 82.0°F27.8°C 78.9°F26.1°C 90% 0.7 mph W1.1 kmh W 9.2 mph14.8 kmh 30.46 in1031.5 mb 0.00 in0.0 mm 0.00 in/hr0.0 mm/hr 0.00 in0.0 mm
10:05 AM 82.2°F27.9°C 79.1°F26.2°C 90% 2.2 mph WNW3.5 kmh WNW 3.1 mph5.0 kmh 30.45 in1031.2 mb 0.00 in0.0 mm 0.00 in/hr0.0 mm/hr 0.00 in0.0 mm
10:06 AM 82.8°F28.2°C 78.6°F25.9°C 87% Calm Calm 3.1 mph5.0 kmh 30.45 in1031.2 mb 0.00 in0.0 mm 0.00 in/hr0.0 mm/hr 0.00 in0.0 mm
10:07 AM 83.3°F28.5°C 79.4°F26.3°C 88% 1.6 mph WNW2.6 kmh WNW 3.8 mph6.1 kmh 30.46 in1031.5 mb 0.00 in0.0 mm 0.00 in/hr0.0 mm/hr 0.00 in0.0 mm
10:08 AM 82.9°F28.3°C 79.1°F26.2°C 88% Calm Calm 3.8 mph6.1 kmh 30.45 in1031.2 mb 0.00 in0.0 mm 0.00 in/hr0.0 mm/hr 0.00 in0.0 mm
10:09 AM 83.3°F28.5°C 79.4°F26.3°C 88% 2.2 mph NW3.5 kmh NW 3.8 mph6.1 kmh 30.46 in1031.5 mb 0.00 in0.0 mm 0.00 in/hr0.0 mm/hr 0.00 in0.0 mm
10:10 AM 82.8°F28.2°C 78.6°F25.9°C 87% 2.2 mph NW3.5 kmh NW 4.5 mph7.2 kmh 30.45 in1031.2 mb 0.00 in0.0 mm 0.00 in/hr0.0 mm/hr 0.00 in0.0 mm
10:11 AM 81.9°F27.7°C 77.7°F25.4°C 87% 2.2 mph WNW3.5 kmh WNW 4.5 mph7.2 kmh 30.45 in1031.2 mb 0.00 in0.0 mm 0.00 in/hr0.0 mm/hr 0.00 in0.0 mm
10:12 AM 81.9°F27.7°C 78.0°F25.6°C 88% 4.5 mph NW7.2 kmh NW 6.0 mph9.7 kmh 30.45 in1031.2 mb 0.00 in0.0 mm 0.00 in/hr0.0 mm/hr 0.00 in0.0 mm
10:13 AM 81.3°F27.4°C 77.5°F25.3°C 88% 2.2 mph NW3.5 kmh NW 6.0 mph9.7 kmh 30.45 in1031.2 mb 0.00 in0.0 mm 0.00 in/hr0.0 mm/hr 0.00 in0.0 mm
10:14 AM 81.3°F27.4°C 78.2°F25.7°C 90% 0.7 mph NW1.1 kmh NW 6.0 mph9.7 kmh 30.45 in1031.2 mb 0.00 in0.0 mm 0.00 in/hr0.0 mm/hr 0.00 in0.0 mm
10:15 AM 81.9°F27.7°C 78.7°F25.9°C 90% Calm Calm 6.0 mph9.7 kmh 30.45 in1031.2 mb 0.00 in0.0 mm 0.00 in/hr0.0 mm/hr 0.00 in0.0 mm
10:16 AM 82.0°F27.8°C 78.9°F26.1°C 90% 0.7 mph NW1.1 kmh NW 6.0 mph9.7 kmh 30.46 in1031.5 mb 0.00 in0.0 mm 0.00 in/hr0.0 mm/hr 0.00 in0.0 mm
10:17 AM 82.4°F28.0°C 79.2°F26.2°C 90% Calm Calm 6.0 mph9.7 kmh 30.45 in1031.2 mb 0.00 in0.0 mm 0.00 in/hr0.0 mm/hr 0.00 in0.0 mm
10:18 AM 82.9°F28.3°C 79.1°F26.2°C 88% Calm Calm 6.0 mph9.7 kmh 30.45 in1031.2 mb 0.00 in0.0 mm 0.00 in/hr0.0 mm/hr 0.00 in0.0 mm
10:19 AM 83.1°F28.4°C 79.3°F26.3°C 88% 1.6 mph NW2.6 kmh NW 6.0 mph9.7 kmh 30.45 in1031.2 mb 0.00 in0.0 mm 0.00 in/hr0.0 mm/hr 0.00 in0.0 mm
10:20 AM 82.6°F28.1°C 78.4°F25.8°C 87% Calm Calm 6.0 mph9.7 kmh 30.45 in1031.2 mb 0.00 in0.0 mm 0.00 in/hr0.0 mm/hr 0.00 in0.0 mm
10:21 AM 83.5°F28.6°C 79.3°F26.3°C 87% Calm Calm 6.0 mph9.7 kmh 30.45 in1031.2 mb 0.00 in0.0 mm 0.00 in/hr0.0 mm/hr 0.00 in0.0 mm
10:22 AM 84.0°F28.9°C 79.8°F26.6°C 87% Calm Calm 3.8 mph6.1 kmh 30.45 in1031.2 mb 0.00 in0.0 mm 0.00 in/hr0.0 mm/hr 0.00 in0.0 mm
10:23 AM 84.4°F29.1°C 79.8°F26.6°C 86% 1.6 mph NW2.6 kmh NW 6.0 mph9.7 kmh 30.45 in1031.2 mb 0.00 in0.0 mm 0.00 in/hr0.0 mm/hr 0.00 in0.0 mm
10:24 AM 83.7°F28.7°C 79.1°F26.2°C 86% 1.6 mph NW2.6 kmh NW 6.0 mph9.7 kmh 30.45 in1031.2 mb 0.00 in0.0 mm 0.00 in/hr0.0 mm/hr 0.00 in0.0 mm
10:25 AM 83.7°F28.7°C 79.1°F26.2°C 86% 3.8 mph NW6.1 kmh NW 6.0 mph9.7 kmh 30.45 in1031.2 mb 0.00 in0.0 mm 0.00 in/hr0.0 mm/hr 0.00 in0.0 mm
10:26 AM 83.1°F28.4°C 78.6°F25.9°C 86% 0.7 mph NW1.1 kmh NW 6.0 mph9.7 kmh 30.45 in1031.2 mb 0.00 in0.0 mm 0.00 in/hr0.0 mm/hr 0.00 in0.0 mm
10:27 AM 83.1°F28.4°C 78.6°F25.9°C 86% 1.6 mph NNW2.6 kmh NNW 6.0 mph9.7 kmh 30.45 in1031.2 mb 0.00 in0.0 mm 0.00 in/hr0.0 mm/hr 0.00 in0.0 mm
10:28 AM 83.1°F28.4°C 78.6°F25.9°C 86% 2.2 mph NNW3.5 kmh NNW 6.0 mph9.7 kmh 30.45 in1031.2 mb 0.00 in0.0 mm 0.00 in/hr0.0 mm/hr 0.00 in0.0 mm
10:29 AM 82.4°F28.0°C 77.9°F25.5°C 86% Calm Calm 6.0 mph9.7 kmh 30.45 in1031.2 mb 0.00 in0.0 mm 0.00 in/hr0.0 mm/hr 0.00 in0.0 mm
10:30 AM 83.3°F28.5°C 79.1°F26.2°C 87% Calm Calm 6.0 mph9.7 kmh 30.45 in1031.2 mb 0.00 in0.0 mm 0.00 in/hr0.0 mm/hr 0.00 in0.0 mm
10:31 AM 82.9°F28.3°C 78.7°F25.9°C 87% 1.6 mph NW2.6 kmh NW 6.0 mph9.7 kmh 30.45 in1031.2 mb 0.00 in0.0 mm 0.00 in/hr0.0 mm/hr 0.00 in0.0 mm
10:32 AM 82.8°F28.2°C 78.6°F25.9°C 87% Calm Calm 6.0 mph9.7 kmh 30.45 in1031.2 mb 0.00 in0.0 mm 0.00 in/hr0.0 mm/hr 0.00 in0.0 mm
10:33 AM 82.6°F28.1°C 78.0°F25.6°C 86% Calm Calm 6.0 mph9.7 kmh 30.45 in1031.2 mb 0.00 in0.0 mm 0.00 in/hr0.0 mm/hr 0.00 in0.0 mm
10:34 AM 82.8°F28.2°C 78.6°F25.9°C 87% 1.6 mph WNW2.6 kmh WNW 4.5 mph7.2 kmh 30.45 in1031.2 mb 0.00 in0.0 mm 0.00 in/hr0.0 mm/hr 0.00 in0.0 mm
10:35 AM 82.4°F28.0°C 78.2°F25.7°C 87% 1.6 mph NW2.6 kmh NW 4.5 mph7.2 kmh 30.45 in1031.2 mb 0.00 in0.0 mm 0.00 in/hr0.0 mm/hr 0.00 in0.0 mm
10:36 AM 81.7°F27.6°C 77.8°F25.4°C 88% 0.7 mph W1.1 kmh W 4.5 mph7.2 kmh 30.45 in1031.2 mb 0.00 in0.0 mm 0.00 in/hr0.0 mm/hr 0.00 in0.0 mm
10:37 AM 82.6°F28.1°C 78.4°F25.8°C 87% 0.7 mph W1.1 kmh W 4.5 mph7.2 kmh 30.45 in1031.2 mb 0.00 in0.0 mm 0.00 in/hr0.0 mm/hr 0.00 in0.0 mm
10:38 AM 82.6°F28.1°C 78.7°F25.9°C 88% 0.7 mph WSW1.1 kmh WSW 4.5 mph7.2 kmh 30.45 in1031.2 mb 0.00 in0.0 mm 0.00 in/hr0.0 mm/hr 0.00 in0.0 mm
10:39 AM 82.6°F28.1°C 78.7°F25.9°C 88% Calm Calm 4.5 mph7.2 kmh 30.45 in1031.2 mb 0.00 in0.0 mm 0.00 in/hr0.0 mm/hr 0.00 in0.0 mm
10:40 AM 82.6°F28.1°C 78.7°F25.9°C 88% Calm Calm 4.5 mph7.2 kmh 30.45 in1031.2 mb 0.00 in0.0 mm 0.00 in/hr0.0 mm/hr 0.00 in0.0 mm
10:41 AM 82.8°F28.2°C 78.6°F25.9°C 87% Calm Calm 4.5 mph7.2 kmh 30.45 in1031.2 mb 0.00 in0.0 mm 0.00 in/hr0.0 mm/hr 0.00 in0.0 mm
10:42 AM 83.1°F28.4°C 78.9°F26.1°C 87% Calm Calm 4.5 mph7.2 kmh 30.45 in1031.2 mb 0.00 in0.0 mm 0.00 in/hr0.0 mm/hr 0.00 in0.0 mm
10:43 AM 82.9°F28.3°C 78.7°F25.9°C 87% Calm Calm 3.8 mph6.1 kmh 30.45 in1031.2 mb 0.00 in0.0 mm 0.00 in/hr0.0 mm/hr 0.00 in0.0 mm
10:44 AM 82.6°F28.1°C 78.0°F25.6°C 86% 0.7 mph NW1.1 kmh NW 3.8 mph6.1 kmh 30.45 in1031.2 mb 0.00 in0.0 mm 0.00 in/hr0.0 mm/hr 0.00 in0.0 mm
10:45 AM 82.2°F27.9°C 78.0°F25.6°C 87% Calm Calm 2.2 mph3.5 kmh 30.45 in1031.2 mb 0.00 in0.0 mm 0.00 in/hr0.0 mm/hr 0.00 in0.0 mm
10:46 AM 82.6°F28.1°C 78.0°F25.6°C 86% 0.7 mph W1.1 kmh W 2.2 mph3.5 kmh 30.45 in1031.2 mb 0.00 in0.0 mm 0.00 in/hr0.0 mm/hr 0.00 in0.0 mm
10:47 AM 82.4°F28.0°C 78.2°F25.7°C 87% Calm Calm 2.2 mph3.5 kmh 30.45 in1031.2 mb 0.00 in0.0 mm 0.00 in/hr0.0 mm/hr 0.00 in0.0 mm
10:48 AM 81.7°F27.6°C 77.8°F25.4°C 88% 1.6 mph WNW2.6 kmh WNW 3.1 mph5.0 kmh 30.45 in1031.2 mb 0.00 in0.0 mm 0.00 in/hr0.0 mm/hr 0.00 in0.0 mm
10:49 AM 81.3°F27.4°C 78.2°F25.7°C 90% 3.1 mph WNW5.0 kmh WNW 3.8 mph6.1 kmh 30.45 in1031.2 mb 0.00 in0.0 mm 0.00 in/hr0.0 mm/hr 0.00 in0.0 mm
10:50 AM 81.1°F27.3°C 78.0°F25.6°C 90% Calm Calm 3.8 mph6.1 kmh 30.45 in1031.2 mb 0.00 in0.0 mm 0.00 in/hr0.0 mm/hr 0.00 in0.0 mm
10:51 AM 81.1°F27.3°C 78.0°F25.6°C 90% Calm Calm 3.8 mph6.1 kmh 30.45 in1031.2 mb 0.00 in0.0 mm 0.00 in/hr0.0 mm/hr 0.00 in0.0 mm
10:52 AM 81.3°F27.4°C 78.5°F25.8°C 91% Calm Calm 3.8 mph6.1 kmh 30.45 in1031.2 mb 0.00 in0.0 mm 0.00 in/hr0.0 mm/hr 0.00 in0.0 mm
10:53 AM 81.3°F27.4°C 78.5°F25.8°C 91% Calm Calm 3.8 mph6.1 kmh 30.45 in1031.2 mb 0.00 in0.0 mm 0.00 in/hr0.0 mm/hr 0.00 in0.0 mm
10:54 AM 81.3°F27.4°C 78.2°F25.7°C 90% 0.7 mph W1.1 kmh W 3.8 mph6.1 kmh 30.45 in1031.2 mb 0.00 in0.0 mm 0.00 in/hr0.0 mm/hr 0.00 in0.0 mm
10:55 AM 81.3°F27.4°C 78.2°F25.7°C 90% Calm Calm 3.8 mph6.1 kmh 30.45 in1031.2 mb 0.00 in0.0 mm 0.00 in/hr0.0 mm/hr 0.00 in0.0 mm
10:56 AM 81.3°F27.4°C 78.5°F25.8°C 91% Calm Calm 3.8 mph6.1 kmh 30.45 in1031.2 mb 0.00 in0.0 mm 0.00 in/hr0.0 mm/hr 0.00 in0.0 mm
10:57 AM 81.7°F27.6°C 78.9°F26.1°C 91% Calm Calm 3.8 mph6.1 kmh 30.45 in1031.2 mb 0.00 in0.0 mm 0.00 in/hr0.0 mm/hr 0.00 in0.0 mm
10:58 AM 81.3°F27.4°C 78.5°F25.8°C 91% Calm Calm 3.8 mph6.1 kmh 30.45 in1031.2 mb 0.00 in0.0 mm 0.00 in/hr0.0 mm/hr 0.00 in0.0 mm
10:59 AM 81.3°F27.4°C 78.5°F25.8°C 91% Calm Calm 3.8 mph6.1 kmh 30.45 in1031.2 mb 0.00 in0.0 mm 0.00 in/hr0.0 mm/hr 0.00 in0.0 mm
11:00 AM 81.1°F27.3°C 78.3°F25.7°C 91% Calm Calm 2.2 mph3.5 kmh 30.45 in1031.2 mb 0.00 in0.0 mm 0.00 in/hr0.0 mm/hr 0.00 in0.0 mm
11:01 AM 81.1°F27.3°C 78.3°F25.7°C 91% Calm Calm 2.2 mph3.5 kmh 30.45 in1031.2 mb 0.00 in0.0 mm 0.00 in/hr0.0 mm/hr 0.00 in0.0 mm
11:02 AM 81.1°F27.3°C 78.3°F25.7°C 91% Calm Calm 2.2 mph3.5 kmh 30.44 in1030.8 mb 0.00 in0.0 mm 0.00 in/hr0.0 mm/hr 0.00 in0.0 mm
11:03 AM 81.3°F27.4°C 78.5°F25.8°C 91% Calm Calm 2.2 mph3.5 kmh 30.44 in1030.8 mb 0.00 in0.0 mm 0.00 in/hr0.0 mm/hr 0.00 in0.0 mm
11:04 AM 81.3°F27.4°C 78.5°F25.8°C 91% 2.2 mph WNW3.5 kmh WNW 4.5 mph7.2 kmh 30.44 in1030.8 mb 0.00 in0.0 mm 0.00 in/hr0.0 mm/hr 0.00 in0.0 mm
11:05 AM 81.3°F27.4°C 78.5°F25.8°C 91% 1.6 mph NW2.6 kmh NW 4.5 mph7.2 kmh 30.45 in1031.2 mb 0.00 in0.0 mm 0.00 in/hr0.0 mm/hr 0.00 in0.0 mm
11:06 AM 81.9°F27.7°C 79.0°F26.1°C 91% Calm Calm 4.5 mph7.2 kmh 30.44 in1030.8 mb 0.00 in0.0 mm 0.00 in/hr0.0 mm/hr 0.00 in0.0 mm
11:07 AM 82.6°F28.1°C 79.8°F26.6°C 91% Calm Calm 4.5 mph7.2 kmh 30.44 in1030.8 mb 0.00 in0.0 mm 0.00 in/hr0.0 mm/hr 0.00 in0.0 mm
11:08 AM 83.1°F28.4°C 80.0°F26.7°C 90% 1.6 mph NW2.6 kmh NW 4.5 mph7.2 kmh 30.44 in1030.8 mb 0.00 in0.0 mm 0.00 in/hr0.0 mm/hr 0.00 in0.0 mm
11:09 AM 83.1°F28.4°C 80.0°F26.7°C 90% Calm Calm 4.5 mph7.2 kmh 30.44 in1030.8 mb 0.00 in0.0 mm 0.00 in/hr0.0 mm/hr 0.00 in0.0 mm
11:10 AM 83.7°F28.7°C 79.8°F26.6°C 88% Calm Calm 4.5 mph7.2 kmh 30.44 in1030.8 mb 0.00 in0.0 mm 0.00 in/hr0.0 mm/hr 0.00 in0.0 mm
11:11 AM 83.7°F28.7°C 79.8°F26.6°C 88% 1.6 mph NW2.6 kmh NW 4.5 mph7.2 kmh 30.44 in1030.8 mb 0.00 in0.0 mm 0.00 in/hr0.0 mm/hr 0.00 in0.0 mm
11:12 AM 83.3°F28.5°C 79.1°F26.2°C 87% Calm Calm 4.5 mph7.2 kmh 30.44 in1030.8 mb 0.00 in0.0 mm 0.00 in/hr0.0 mm/hr 0.00 in0.0 mm
11:13 AM 83.3°F28.5°C 79.1°F26.2°C 87% Calm Calm 4.5 mph7.2 kmh 30.44 in1030.8 mb 0.00 in0.0 mm 0.00 in/hr0.0 mm/hr 0.00 in0.0 mm
11:14 AM 83.3°F28.5°C 78.7°F25.9°C 86% Calm Calm 4.5 mph7.2 kmh 30.44 in1030.8 mb 0.00 in0.0 mm 0.00 in/hr0.0 mm/hr 0.00 in0.0 mm
11:15 AM 83.5°F28.6°C 78.9°F26.1°C 86% 0.7 mph W1.1 kmh W 3.1 mph5.0 kmh 30.44 in1030.8 mb 0.00 in0.0 mm 0.00 in/hr0.0 mm/hr 0.00 in0.0 mm
11:16 AM 83.3°F28.5°C 78.7°F25.9°C 86% 1.6 mph W2.6 kmh W 3.1 mph5.0 kmh 30.44 in1030.8 mb 0.00 in0.0 mm 0.00 in/hr0.0 mm/hr 0.00 in0.0 mm
11:17 AM 84.4°F29.1°C 79.5°F26.4°C 85% Calm Calm 3.1 mph5.0 kmh 30.44 in1030.8 mb 0.00 in0.0 mm 0.00 in/hr0.0 mm/hr 0.00 in0.0 mm
11:18 AM 84.9°F29.4°C 80.0°F26.7°C 85% 1.6 mph W2.6 kmh W 5.4 mph8.7 kmh 30.44 in1030.8 mb 0.00 in0.0 mm 0.00 in/hr0.0 mm/hr 0.00 in0.0 mm
11:19 AM 84.7°F29.3°C 79.8°F26.6°C 85% 4.5 mph W7.2 kmh W 5.4 mph8.7 kmh 30.43 in1030.5 mb 0.00 in0.0 mm 0.00 in/hr0.0 mm/hr 0.00 in0.0 mm
11:20 AM 84.2°F29.0°C 78.5°F25.8°C 83% 2.2 mph W3.5 kmh W 5.4 mph8.7 kmh 30.44 in1030.8 mb 0.00 in0.0 mm 0.00 in/hr0.0 mm/hr 0.00 in0.0 mm
11:21 AM 84.4°F29.1°C 78.4°F25.8°C 82% Calm Calm 5.4 mph8.7 kmh 30.43 in1030.5 mb 0.00 in0.0 mm 0.00 in/hr0.0 mm/hr 0.00 in0.0 mm
11:22 AM 84.9°F29.4°C 78.9°F26.1°C 82% Calm Calm 5.4 mph8.7 kmh 30.43 in1030.5 mb 0.00 in0.0 mm 0.00 in/hr0.0 mm/hr 0.00 in0.0 mm
11:23 AM 86.0°F30.0°C 79.9°F26.6°C 82% Calm Calm 5.4 mph8.7 kmh 30.43 in1030.5 mb 0.00 in0.0 mm 0.00 in/hr0.0 mm/hr 0.00 in0.0 mm
11:24 AM 85.6°F29.8°C 79.6°F26.4°C 82% 2.2 mph WNW3.5 kmh WNW 5.4 mph8.7 kmh 30.43 in1030.5 mb 0.00 in0.0 mm 0.00 in/hr0.0 mm/hr 0.00 in0.0 mm
11:25 AM 86.4°F30.2°C 79.5°F26.4°C 80% Calm Calm 5.4 mph8.7 kmh 30.43 in1030.5 mb 0.00 in0.0 mm 0.00 in/hr0.0 mm/hr 0.00 in0.0 mm
11:26 AM 86.9°F30.5°C 79.3°F26.3°C 78% Calm Calm 5.4 mph8.7 kmh 30.43 in1030.5 mb 0.00 in0.0 mm 0.00 in/hr0.0 mm/hr 0.00 in0.0 mm
11:27 AM 87.4°F30.8°C 79.4°F26.3°C 77% 1.6 mph WNW2.6 kmh WNW 5.4 mph8.7 kmh 30.43 in1030.5 mb 0.00 in0.0 mm 0.00 in/hr0.0 mm/hr 0.00 in0.0 mm
11:28 AM 87.4°F30.8°C 79.0°F26.1°C 76% 3.1 mph NW5.0 kmh NW 5.4 mph8.7 kmh 30.43 in1030.5 mb 0.00 in0.0 mm 0.00 in/hr0.0 mm/hr 0.00 in0.0 mm
11:29 AM 85.6°F29.8°C 77.3°F25.2°C 76% 0.7 mph NW1.1 kmh NW 5.4 mph8.7 kmh 30.43 in1030.5 mb 0.00 in0.0 mm 0.00 in/hr0.0 mm/hr 0.00 in0.0 mm
11:30 AM 86.4°F30.2°C 78.0°F25.6°C 76% Calm Calm 5.4 mph8.7 kmh 30.43 in1030.5 mb 0.00 in0.0 mm 0.00 in/hr0.0 mm/hr 0.00 in0.0 mm
11:31 AM 86.9°F30.5°C 78.5°F25.8°C 76% 2.2 mph NW3.5 kmh NW 5.4 mph8.7 kmh 30.43 in1030.5 mb 0.00 in0.0 mm 0.00 in/hr0.0 mm/hr 0.00 in0.0 mm
11:32 AM 87.3°F30.7°C 78.4°F25.8°C 75% 1.6 mph WNW2.6 kmh WNW 5.4 mph8.7 kmh 30.43 in1030.5 mb 0.00 in0.0 mm 0.00 in/hr0.0 mm/hr 0.00 in0.0 mm
11:33 AM 88.0°F31.1°C 78.3°F25.7°C 73% 1.6 mph WNW2.6 kmh WNW 5.4 mph8.7 kmh 30.43 in1030.5 mb 0.00 in0.0 mm 0.00 in/hr0.0 mm/hr 0.00 in0.0 mm
11:34 AM 87.6°F30.9°C 78.0°F25.6°C 73% 0.7 mph WNW1.1 kmh WNW 5.4 mph8.7 kmh 30.43 in1030.5 mb 0.00 in0.0 mm 0.00 in/hr0.0 mm/hr 0.00 in0.0 mm
11:35 AM 86.9°F30.5°C 77.3°F25.2°C 73% 1.6 mph NW2.6 kmh NW 5.4 mph8.7 kmh 30.43 in1030.5 mb 0.00 in0.0 mm 0.00 in/hr0.0 mm/hr 0.00 in0.0 mm
11:36 AM 86.9°F30.5°C 76.9°F24.9°C 72% 2.2 mph WNW3.5 kmh WNW 5.4 mph8.7 kmh 30.43 in1030.5 mb 0.00 in0.0 mm 0.00 in/hr0.0 mm/hr 0.00 in0.0 mm
11:37 AM 87.8°F31.0°C 77.3°F25.2°C 71% 1.6 mph W2.6 kmh W 5.4 mph8.7 kmh 30.43 in1030.5 mb 0.00 in0.0 mm 0.00 in/hr0.0 mm/hr 0.00 in0.0 mm
11:38 AM 86.9°F30.5°C 76.9°F24.9°C 72% 3.1 mph W5.0 kmh W 5.4 mph8.7 kmh 30.43 in1030.5 mb 0.00 in0.0 mm 0.00 in/hr0.0 mm/hr 0.00 in0.0 mm
11:39 AM 86.9°F30.5°C 76.9°F24.9°C 72% Calm Calm 5.4 mph8.7 kmh 30.43 in1030.5 mb 0.00 in0.0 mm 0.00 in/hr0.0 mm/hr 0.00 in0.0 mm
11:40 AM 87.3°F30.7°C 77.2°F25.1°C 72% Calm Calm 5.4 mph8.7 kmh 30.43 in1030.5 mb 0.00 in0.0 mm 0.00 in/hr0.0 mm/hr 0.00 in0.0 mm
11:41 AM 88.9°F31.6°C 78.8°F26.0°C 72% 0.7 mph W1.1 kmh W 5.4 mph8.7 kmh 30.43 in1030.5 mb 0.00 in0.0 mm 0.00 in/hr0.0 mm/hr 0.00 in0.0 mm
11:42 AM 88.9°F31.6°C 78.3°F25.7°C 71% 1.6 mph W2.6 kmh W 5.4 mph8.7 kmh 30.43 in1030.5 mb 0.00 in0.0 mm 0.00 in/hr0.0 mm/hr 0.00 in0.0 mm
11:43 AM 88.3°F31.3°C 77.4°F25.2°C 70% Calm Calm 5.4 mph8.7 kmh 30.43 in1030.5 mb 0.00 in0.0 mm 0.00 in/hr0.0 mm/hr 0.00 in0.0 mm
11:44 AM 88.3°F31.3°C 77.4°F25.2°C 70% Calm Calm 5.4 mph8.7 kmh 30.43 in1030.5 mb 0.00 in0.0 mm 0.00 in/hr0.0 mm/hr 0.00 in0.0 mm
11:45 AM 86.9°F30.5°C 76.0°F24.4°C 70% 1.6 mph WSW2.6 kmh WSW 5.4 mph8.7 kmh 30.43 in1030.5 mb 0.00 in0.0 mm 0.00 in/hr0.0 mm/hr 0.00 in0.0 mm
11:46 AM 86.2°F30.1°C 75.3°F24.1°C 70% 0.7 mph W1.1 kmh W 5.4 mph8.7 kmh 30.43 in1030.5 mb 0.00 in0.0 mm 0.00 in/hr0.0 mm/hr 0.00 in0.0 mm
11:47 AM 86.7°F30.4°C 76.3°F24.6°C 71% Calm Calm 5.4 mph8.7 kmh 30.42 in1030.1 mb 0.00 in0.0 mm 0.00 in/hr0.0 mm/hr 0.00 in0.0 mm
11:48 AM 87.6°F30.9°C 77.1°F25.1°C 71% Calm Calm 5.4 mph8.7 kmh 30.42 in1030.1 mb 0.00 in0.0 mm 0.00 in/hr0.0 mm/hr 0.00 in0.0 mm
11:49 AM 89.6°F32.0°C 77.7°F25.4°C 68% Calm Calm 2.2 mph3.5 kmh 30.42 in1030.1 mb 0.00 in0.0 mm 0.00 in/hr0.0 mm/hr 0.00 in0.0 mm
11:50 AM 90.0°F32.2°C 78.1°F25.6°C 68% 3.8 mph SW6.1 kmh SW 5.4 mph8.7 kmh 30.42 in1030.1 mb 0.00 in0.0 mm 0.00 in/hr0.0 mm/hr 0.00 in0.0 mm
11:51 AM 88.5°F31.4°C 76.2°F24.6°C 67% 0.7 mph SW1.1 kmh SW 5.4 mph8.7 kmh 30.42 in1030.1 mb 0.00 in0.0 mm 0.00 in/hr0.0 mm/hr 0.00 in0.0 mm
11:52 AM 89.1°F31.7°C 76.7°F24.8°C 67% Calm Calm 5.4 mph8.7 kmh 30.42 in1030.1 mb 0.00 in0.0 mm 0.00 in/hr0.0 mm/hr 0.00 in0.0 mm
11:53 AM 89.2°F31.8°C 76.9°F24.9°C 67% 2.2 mph WNW3.5 kmh WNW 5.4 mph8.7 kmh 30.42 in1030.1 mb 0.00 in0.0 mm 0.00 in/hr0.0 mm/hr 0.00 in0.0 mm
11:54 AM 89.1°F31.7°C 76.7°F24.8°C 67% Calm Calm 5.4 mph8.7 kmh 30.42 in1030.1 mb 0.00 in0.0 mm 0.00 in/hr0.0 mm/hr 0.00 in0.0 mm
11:55 AM 89.1°F31.7°C 76.7°F24.8°C 67% 0.7 mph NW1.1 kmh NW 5.4 mph8.7 kmh 30.42 in1030.1 mb 0.00 in0.0 mm 0.00 in/hr0.0 mm/hr 0.00 in0.0 mm
11:56 AM 88.5°F31.4°C 76.7°F24.8°C 68% Calm Calm 5.4 mph8.7 kmh 30.42 in1030.1 mb 0.00 in0.0 mm 0.00 in/hr0.0 mm/hr 0.00 in0.0 mm
11:57 AM 88.0°F31.1°C 76.2°F24.6°C 68% Calm Calm 5.4 mph8.7 kmh 30.42 in1030.1 mb 0.00 in0.0 mm 0.00 in/hr0.0 mm/hr 0.00 in0.0 mm
11:58 AM 88.5°F31.4°C 76.2°F24.6°C 67% 0.7 mph NW1.1 kmh NW 5.4 mph8.7 kmh 30.42 in1030.1 mb 0.00 in0.0 mm 0.00 in/hr0.0 mm/hr 0.00 in0.0 mm
11:59 AM 88.3°F31.3°C 76.1°F24.5°C 67% 0.7 mph NW1.1 kmh NW 5.4 mph8.7 kmh 30.42 in1030.1 mb 0.00 in0.0 mm 0.00 in/hr0.0 mm/hr 0.00 in0.0 mm
12:00 PM 88.2°F31.2°C 75.4°F24.1°C 66% 0.7 mph NW1.1 kmh NW 5.4 mph8.7 kmh 30.41 in1029.8 mb 0.00 in0.0 mm 0.00 in/hr0.0 mm/hr 0.00 in0.0 mm
12:01 PM 88.2°F31.2°C 75.4°F24.1°C 66% 0.7 mph NW1.1 kmh NW 4.5 mph7.2 kmh 30.41 in1029.8 mb 0.00 in0.0 mm 0.00 in/hr0.0 mm/hr 0.00 in0.0 mm
12:02 PM 88.2°F31.2°C 75.4°F24.1°C 66% 0.7 mph NW1.1 kmh NW 4.5 mph7.2 kmh 30.41 in1029.8 mb 0.00 in0.0 mm 0.00 in/hr0.0 mm/hr 0.00 in0.0 mm
12:03 PM 88.2°F31.2°C 75.4°F24.1°C 66% 0.7 mph W1.1 kmh W 4.5 mph7.2 kmh 30.41 in1029.8 mb 0.00 in0.0 mm 0.00 in/hr0.0 mm/hr 0.00 in0.0 mm
12:04 PM 88.2°F31.2°C 75.4°F24.1°C 66% 0.7 mph WSW1.1 kmh WSW 3.8 mph6.1 kmh 30.41 in1029.8 mb 0.00 in0.0 mm 0.00 in/hr0.0 mm/hr 0.00 in0.0 mm
12:05 PM 88.0°F31.1°C 75.3°F24.1°C 66% 0.7 mph WSW1.1 kmh WSW 3.8 mph6.1 kmh 30.41 in1029.8 mb 0.00 in0.0 mm 0.00 in/hr0.0 mm/hr 0.00 in0.0 mm
12:06 PM 86.7°F30.4°C 75.8°F24.3°C 70% 0.7 mph WSW1.1 kmh WSW 3.8 mph6.1 kmh 30.41 in1029.8 mb 0.00 in0.0 mm 0.00 in/hr0.0 mm/hr 0.00 in0.0 mm
12:07 PM 87.3°F30.7°C 76.4°F24.7°C 70% Calm Calm 3.1 mph5.0 kmh 30.41 in1029.8 mb 0.00 in0.0 mm 0.00 in/hr0.0 mm/hr 0.00 in0.0 mm
12:08 PM 87.3°F30.7°C 76.4°F24.7°C 70% Calm Calm 3.1 mph5.0 kmh 30.41 in1029.8 mb 0.00 in0.0 mm 0.00 in/hr0.0 mm/hr 0.00 in0.0 mm
12:09 PM 87.3°F30.7°C 76.8°F24.9°C 71% 0.7 mph WSW1.1 kmh WSW 2.2 mph3.5 kmh 30.41 in1029.8 mb 0.00 in0.0 mm 0.00 in/hr0.0 mm/hr 0.00 in0.0 mm
12:10 PM 87.6°F30.9°C 77.1°F25.1°C 71% 0.7 mph WSW1.1 kmh WSW 2.2 mph3.5 kmh 30.41 in1029.8 mb 0.00 in0.0 mm 0.00 in/hr0.0 mm/hr 0.00 in0.0 mm
12:11 PM 88.3°F31.3°C 77.4°F25.2°C 70% 0.7 mph W1.1 kmh W 2.2 mph3.5 kmh 30.41 in1029.8 mb 0.00 in0.0 mm 0.00 in/hr0.0 mm/hr 0.00 in0.0 mm
12:12 PM 88.7°F31.5°C 77.7°F25.4°C 70% 0.7 mph WNW1.1 kmh WNW 3.1 mph5.0 kmh 30.41 in1029.8 mb 0.00 in0.0 mm 0.00 in/hr0.0 mm/hr 0.00 in0.0 mm
12:13 PM 88.9°F31.6°C 77.9°F25.5°C 70% 1.6 mph NW2.6 kmh NW 3.1 mph5.0 kmh 30.41 in1029.8 mb 0.00 in0.0 mm 0.00 in/hr0.0 mm/hr 0.00 in0.0 mm
12:14 PM 88.2°F31.2°C 75.9°F24.4°C 67% 0.7 mph NW1.1 kmh NW 3.1 mph5.0 kmh 30.41 in1029.8 mb 0.00 in0.0 mm 0.00 in/hr0.0 mm/hr 0.00 in0.0 mm
12:15 PM 88.7°F31.5°C 76.9°F24.9°C 68% Calm Calm 3.1 mph5.0 kmh 30.41 in1029.8 mb 0.00 in0.0 mm 0.00 in/hr0.0 mm/hr 0.00 in0.0 mm
12:16 PM 89.2°F31.8°C 77.4°F25.2°C 68% Calm Calm 3.1 mph5.0 kmh 30.41 in1029.8 mb 0.00 in0.0 mm 0.00 in/hr0.0 mm/hr 0.00 in0.0 mm
12:17 PM 89.2°F31.8°C 76.9°F24.9°C 67% Calm Calm 3.8 mph6.1 kmh 30.41 in1029.8 mb 0.00 in0.0 mm 0.00 in/hr0.0 mm/hr 0.00 in0.0 mm
12:18 PM 89.2°F31.8°C 76.9°F24.9°C 67% 2.2 mph NW3.5 kmh NW 3.8 mph6.1 kmh 30.41 in1029.8 mb 0.00 in0.0 mm 0.00 in/hr0.0 mm/hr 0.00 in0.0 mm
12:19 PM 89.1°F31.7°C 76.7°F24.8°C 67% Calm Calm 3.8 mph6.1 kmh 30.41 in1029.8 mb 0.00 in0.0 mm 0.00 in/hr0.0 mm/hr 0.00 in0.0 mm
12:20 PM 89.4°F31.9°C 77.1°F25.1°C 67% Calm Calm 3.8 mph6.1 kmh 30.41 in1029.8 mb 0.00 in0.0 mm 0.00 in/hr0.0 mm/hr 0.00 in0.0 mm
12:21 PM 88.3°F31.3°C 76.1°F24.5°C 67% 0.7 mph NW1.1 kmh NW 4.5 mph7.2 kmh 30.41 in1029.8 mb 0.00 in0.0 mm 0.00 in/hr0.0 mm/hr 0.00 in0.0 mm
12:22 PM 88.7°F31.5°C 76.4°F24.7°C 67% 1.6 mph NW2.6 kmh NW 4.5 mph7.2 kmh 30.41 in1029.8 mb 0.00 in0.0 mm 0.00 in/hr0.0 mm/hr 0.00 in0.0 mm
12:23 PM 88.5°F31.4°C 76.2°F24.6°C 67% Calm Calm 4.5 mph7.2 kmh 30.41 in1029.8 mb 0.00 in0.0 mm 0.00 in/hr0.0 mm/hr 0.00 in0.0 mm
12:24 PM 89.1°F31.7°C 76.7°F24.8°C 67% 0.7 mph WNW1.1 kmh WNW 4.5 mph7.2 kmh 30.41 in1029.8 mb 0.00 in0.0 mm 0.00 in/hr0.0 mm/hr 0.00 in0.0 mm
12:25 PM 90.3°F32.4°C 77.0°F25.0°C 65% 0.7 mph WNW1.1 kmh WNW 4.5 mph7.2 kmh 30.41 in1029.8 mb 0.00 in0.0 mm 0.00 in/hr0.0 mm/hr 0.00 in0.0 mm
12:26 PM 90.0°F32.2°C 76.7°F24.8°C 65% 0.7 mph WNW1.1 kmh WNW 4.5 mph7.2 kmh 30.41 in1029.8 mb 0.00 in0.0 mm 0.00 in/hr0.0 mm/hr 0.00 in0.0 mm
12:27 PM 89.8°F32.1°C 75.6°F24.2°C 63% 1.6 mph WNW2.6 kmh WNW 4.5 mph7.2 kmh 30.41 in1029.8 mb 0.00 in0.0 mm 0.00 in/hr0.0 mm/hr 0.00 in0.0 mm
12:28 PM 89.6°F32.0°C 74.9°F23.8°C 62% 3.1 mph NW5.0 kmh NW 5.4 mph8.7 kmh 30.41 in1029.8 mb 0.00 in0.0 mm 0.00 in/hr0.0 mm/hr 0.00 in0.0 mm
12:29 PM 88.7°F31.5°C 76.4°F24.7°C 67% 1.6 mph WNW2.6 kmh WNW 5.4 mph8.7 kmh 30.41 in1029.8 mb 0.00 in0.0 mm 0.00 in/hr0.0 mm/hr 0.00 in0.0 mm
12:30 PM 89.2°F31.8°C 76.9°F24.9°C 67% 1.6 mph NW2.6 kmh NW 5.4 mph8.7 kmh 30.41 in1029.8 mb 0.00 in0.0 mm 0.00 in/hr0.0 mm/hr 0.00 in0.0 mm
12:31 PM 89.1°F31.7°C 77.2°F25.1°C 68% 0.7 mph WNW1.1 kmh WNW 5.4 mph8.7 kmh 30.41 in1029.8 mb 0.00 in0.0 mm 0.00 in/hr0.0 mm/hr 0.00 in0.0 mm
12:32 PM 89.8°F32.1°C 77.0°F25.0°C 66% 1.6 mph WNW2.6 kmh WNW 5.4 mph8.7 kmh 30.41 in1029.8 mb 0.00 in0.0 mm 0.00 in/hr0.0 mm/hr 0.00 in0.0 mm
12:33 PM 90.5°F32.5°C 77.2°F25.1°C 65% 2.2 mph WNW3.5 kmh WNW 6.0 mph9.7 kmh 30.41 in1029.8 mb 0.00 in0.0 mm 0.00 in/hr0.0 mm/hr 0.00 in0.0 mm
12:34 PM 89.2°F31.8°C 75.1°F23.9°C 63% 1.6 mph NW2.6 kmh NW 6.0 mph9.7 kmh 30.41 in1029.8 mb 0.00 in0.0 mm 0.00 in/hr0.0 mm/hr 0.00 in0.0 mm
12:35 PM 89.1°F31.7°C 75.8°F24.3°C 65% 0.7 mph NW1.1 kmh NW 6.0 mph9.7 kmh 30.41 in1029.8 mb 0.00 in0.0 mm 0.00 in/hr0.0 mm/hr 0.00 in0.0 mm
12:36 PM 89.2°F31.8°C 75.1°F23.9°C 63% 1.6 mph NW2.6 kmh NW 6.0 mph9.7 kmh 30.41 in1029.8 mb 0.00 in0.0 mm 0.00 in/hr0.0 mm/hr 0.00 in0.0 mm
12:37 PM 89.2°F31.8°C 76.0°F24.4°C 65% 1.6 mph NW2.6 kmh NW 6.0 mph9.7 kmh 30.41 in1029.8 mb 0.00 in0.0 mm 0.00 in/hr0.0 mm/hr 0.00 in0.0 mm
12:38 PM 88.2°F31.2°C 75.0°F23.9°C 65% 1.6 mph NW2.6 kmh NW 6.0 mph9.7 kmh 30.41 in1029.8 mb 0.00 in0.0 mm 0.00 in/hr0.0 mm/hr 0.00 in0.0 mm
12:39 PM 87.8°F31.0°C 75.1°F23.9°C 66% 2.2 mph NW3.5 kmh NW 6.0 mph9.7 kmh 30.41 in1029.8 mb 0.00 in0.0 mm 0.00 in/hr0.0 mm/hr 0.00 in0.0 mm
12:40 PM 87.3°F30.7°C 75.0°F23.9°C 67% 3.1 mph NW5.0 kmh NW 6.0 mph9.7 kmh 30.41 in1029.8 mb 0.00 in0.0 mm 0.00 in/hr0.0 mm/hr 0.00 in0.0 mm
12:41 PM 86.2°F30.1°C 75.3°F24.1°C 70% 1.6 mph NW2.6 kmh NW 6.0 mph9.7 kmh 30.41 in1029.8 mb 0.00 in0.0 mm 0.00 in/hr0.0 mm/hr 0.00 in0.0 mm
12:42 PM 86.4°F30.2°C 75.5°F24.2°C 70% 0.7 mph NW1.1 kmh NW 6.0 mph9.7 kmh 30.41 in1029.8 mb 0.00 in0.0 mm 0.00 in/hr0.0 mm/hr 0.00 in0.0 mm
12:43 PM 86.7°F30.4°C 75.8°F24.3°C 70% Calm Calm 6.0 mph9.7 kmh 30.41 in1029.8 mb 0.00 in0.0 mm 0.00 in/hr0.0 mm/hr 0.00 in0.0 mm
12:44 PM 86.9°F30.5°C 76.4°F24.7°C 71% 3.1 mph NW5.0 kmh NW 5.4 mph8.7 kmh 30.41 in1029.8 mb 0.00 in0.0 mm 0.00 in/hr0.0 mm/hr 0.00 in0.0 mm
12:45 PM 86.5°F30.3°C 74.8°F23.8°C 68% 1.6 mph NW2.6 kmh NW 5.4 mph8.7 kmh 30.41 in1029.8 mb 0.00 in0.0 mm 0.00 in/hr0.0 mm/hr 0.00 in0.0 mm
12:46 PM 86.2°F30.1°C 74.4°F23.6°C 68% 2.2 mph NW3.5 kmh NW 5.4 mph8.7 kmh 30.41 in1029.8 mb 0.00 in0.0 mm 0.00 in/hr0.0 mm/hr 0.00 in0.0 mm
12:47 PM 86.4°F30.2°C 74.6°F23.7°C 68% 1.6 mph NW2.6 kmh NW 5.4 mph8.7 kmh 30.41 in1029.8 mb 0.00 in0.0 mm 0.00 in/hr0.0 mm/hr 0.00 in0.0 mm
12:48 PM 86.5°F30.3°C 75.7°F24.3°C 70% 2.2 mph NW3.5 kmh NW 5.4 mph8.7 kmh 30.41 in1029.8 mb 0.00 in0.0 mm 0.00 in/hr0.0 mm/hr 0.00 in0.0 mm
12:49 PM 86.9°F30.5°C 76.4°F24.7°C 71% 0.7 mph NW1.1 kmh NW 5.4 mph8.7 kmh 30.41 in1029.8 mb 0.00 in0.0 mm 0.00 in/hr0.0 mm/hr 0.00 in0.0 mm
12:50 PM 87.6°F30.9°C 77.1°F25.1°C 71% Calm Calm 4.5 mph7.2 kmh 30.41 in1029.8 mb 0.00 in0.0 mm 0.00 in/hr0.0 mm/hr 0.00 in0.0 mm
12:51 PM 88.0°F31.1°C 76.2°F24.6°C 68% 2.2 mph NW3.5 kmh NW 5.4 mph8.7 kmh 30.41 in1029.8 mb 0.00 in0.0 mm 0.00 in/hr0.0 mm/hr 0.00 in0.0 mm
12:52 PM 87.6°F30.9°C 75.8°F24.3°C 68% 2.2 mph NW3.5 kmh NW 5.4 mph8.7 kmh 30.41 in1029.8 mb 0.00 in0.0 mm 0.00 in/hr0.0 mm/hr 0.00 in0.0 mm
12:53 PM 86.5°F30.3°C 74.8°F23.8°C 68% 3.1 mph NW5.0 kmh NW 5.4 mph8.7 kmh 30.41 in1029.8 mb 0.00 in0.0 mm 0.00 in/hr0.0 mm/hr 0.00 in0.0 mm
12:54 PM 86.4°F30.2°C 75.5°F24.2°C 70% Calm Calm 5.4 mph8.7 kmh 30.41 in1029.8 mb 0.00 in0.0 mm 0.00 in/hr0.0 mm/hr 0.00 in0.0 mm
12:55 PM 86.9°F30.5°C 76.4°F24.7°C 71% 0.7 mph NW1.1 kmh NW 5.4 mph8.7 kmh 30.41 in1029.8 mb 0.00 in0.0 mm 0.00 in/hr0.0 mm/hr 0.00 in0.0 mm
12:56 PM 87.4°F30.8°C 77.0°F25.0°C 71% 1.6 mph NW2.6 kmh NW 5.4 mph8.7 kmh 30.40 in1029.5 mb 0.00 in0.0 mm 0.00 in/hr0.0 mm/hr 0.00 in0.0 mm
12:57 PM 87.8°F31.0°C 76.9°F24.9°C 70% 0.7 mph NW1.1 kmh NW 5.4 mph8.7 kmh 30.40 in1029.5 mb 0.00 in0.0 mm 0.00 in/hr0.0 mm/hr 0.00 in0.0 mm
12:58 PM 88.0°F31.1°C 77.0°F25.0°C 70% Calm Calm 5.4 mph8.7 kmh 30.40 in1029.5 mb 0.00 in0.0 mm 0.00 in/hr0.0 mm/hr 0.00 in0.0 mm
12:59 PM 88.2°F31.2°C 77.2°F25.1°C 70% Calm Calm 5.4 mph8.7 kmh 30.40 in1029.5 mb 0.00 in0.0 mm 0.00 in/hr0.0 mm/hr 0.00 in0.0 mm
01:00 PM 88.7°F31.5°C 76.9°F24.9°C 68% Calm Calm 5.4 mph8.7 kmh 30.40 in1029.5 mb 0.00 in0.0 mm 0.00 in/hr0.0 mm/hr 0.00 in0.0 mm
01:01 PM 89.6°F32.0°C 76.8°F24.9°C 66% Calm Calm 5.4 mph8.7 kmh 30.40 in1029.5 mb 0.00 in0.0 mm 0.00 in/hr0.0 mm/hr 0.00 in0.0 mm
01:02 PM 89.4°F31.9°C 77.1°F25.1°C 67% Calm Calm 3.8 mph6.1 kmh 30.40 in1029.5 mb 0.00 in0.0 mm 0.00 in/hr0.0 mm/hr 0.00 in0.0 mm
01:03 PM 89.6°F32.0°C 76.8°F24.9°C 66% Calm Calm 3.8 mph6.1 kmh 30.40 in1029.5 mb 0.00 in0.0 mm 0.00 in/hr0.0 mm/hr 0.00 in0.0 mm
01:04 PM 90.0°F32.2°C 76.7°F24.8°C 65% Calm Calm 3.8 mph6.1 kmh 30.41 in1029.8 mb 0.00 in0.0 mm 0.00 in/hr0.0 mm/hr 0.00 in0.0 mm
01:05 PM 89.8°F32.1°C 76.5°F24.7°C 65% Calm Calm 3.8 mph6.1 kmh 30.40 in1029.5 mb 0.00 in0.0 mm 0.00 in/hr0.0 mm/hr 0.00 in0.0 mm
01:06 PM 90.5°F32.5°C 77.2°F25.1°C 65% 1.6 mph WNW2.6 kmh WNW 3.8 mph6.1 kmh 30.40 in1029.5 mb 0.00 in0.0 mm 0.00 in/hr0.0 mm/hr 0.00 in0.0 mm
01:07 PM 90.1°F32.3°C 75.9°F24.4°C 63% 1.6 mph NNW2.6 kmh NNW 3.8 mph6.1 kmh 30.40 in1029.5 mb 0.00 in0.0 mm 0.00 in/hr0.0 mm/hr 0.00 in0.0 mm
01:08 PM 90.7°F32.6°C 76.4°F24.7°C 63% 0.7 mph NNW1.1 kmh NNW 3.1 mph5.0 kmh 30.40 in1029.5 mb 0.00 in0.0 mm 0.00 in/hr0.0 mm/hr 0.00 in0.0 mm
01:09 PM 90.9°F32.7°C 75.6°F24.2°C 61% 0.7 mph NNW1.1 kmh NNW 3.1 mph5.0 kmh 30.40 in1029.5 mb 0.00 in0.0 mm 0.00 in/hr0.0 mm/hr 0.00 in0.0 mm
01:10 PM 91.4°F33.0°C 76.1°F24.5°C 61% Calm Calm 3.1 mph5.0 kmh 30.40 in1029.5 mb 0.00 in0.0 mm 0.00 in/hr0.0 mm/hr 0.00 in0.0 mm
01:11 PM 92.1°F33.4°C 76.3°F24.6°C 60% Calm Calm 3.1 mph5.0 kmh 30.40 in1029.5 mb 0.00 in0.0 mm 0.00 in/hr0.0 mm/hr 0.00 in0.0 mm
01:12 PM 91.8°F33.2°C 76.0°F24.4°C 60% 0.7 mph NW1.1 kmh NW 3.1 mph5.0 kmh 30.40 in1029.5 mb 0.00 in0.0 mm 0.00 in/hr0.0 mm/hr 0.00 in0.0 mm
01:13 PM 89.8°F32.1°C 72.6°F22.6°C 57% 0.7 mph NW1.1 kmh NW 5.4 mph8.7 kmh 30.40 in1029.5 mb 0.00 in0.0 mm 0.00 in/hr0.0 mm/hr 0.00 in0.0 mm
01:14 PM 89.8°F32.1°C 73.1°F22.8°C 58% Calm Calm 5.4 mph8.7 kmh 30.40 in1029.5 mb 0.00 in0.0 mm 0.00 in/hr0.0 mm/hr 0.00 in0.0 mm
01:15 PM 90.3°F32.4°C 74.6°F23.7°C 60% Calm Calm 5.4 mph8.7 kmh 30.40 in1029.5 mb 0.00 in0.0 mm 0.00 in/hr0.0 mm/hr 0.00 in0.0 mm
01:16 PM 90.1°F32.3°C 73.4°F23.0°C 58% Calm Calm 5.4 mph8.7 kmh 30.40 in1029.5 mb 0.00 in0.0 mm 0.00 in/hr0.0 mm/hr 0.00 in0.0 mm
01:17 PM 90.5°F32.5°C 73.8°F23.2°C 58% 0.7 mph WNW1.1 kmh WNW 5.4 mph8.7 kmh 30.40 in1029.5 mb 0.00 in0.0 mm 0.00 in/hr0.0 mm/hr 0.00 in0.0 mm
01:18 PM 90.0°F32.2°C 73.3°F22.9°C 58% 0.7 mph WNW1.1 kmh WNW 5.4 mph8.7 kmh 30.40 in1029.5 mb 0.00 in0.0 mm 0.00 in/hr0.0 mm/hr 0.00 in0.0 mm
01:19 PM 89.4°F31.9°C 74.3°F23.5°C 61% Calm Calm 5.4 mph8.7 kmh 30.40 in1029.5 mb 0.00 in0.0 mm 0.00 in/hr0.0 mm/hr 0.00 in0.0 mm
01:20 PM 89.6°F32.0°C 74.4°F23.6°C 61% Calm Calm 5.4 mph8.7 kmh 30.40 in1029.5 mb 0.00 in0.0 mm 0.00 in/hr0.0 mm/hr 0.00 in0.0 mm
01:21 PM 89.1°F31.7°C 73.9°F23.3°C 61% Calm Calm 5.4 mph8.7 kmh 30.40 in1029.5 mb 0.00 in0.0 mm 0.00 in/hr0.0 mm/hr 0.00 in0.0 mm
01:22 PM 89.1°F31.7°C 74.4°F23.6°C 62% 3.1 mph NW5.0 kmh NW 5.4 mph8.7 kmh 30.40 in1029.5 mb 0.00 in0.0 mm 0.00 in/hr0.0 mm/hr 0.00 in0.0 mm
01:23 PM 88.3°F31.3°C 73.3°F22.9°C 61% 0.7 mph NNW1.1 kmh NNW 5.4 mph8.7 kmh 30.40 in1029.5 mb 0.00 in0.0 mm 0.00 in/hr0.0 mm/hr 0.00 in0.0 mm
01:24 PM 88.2°F31.2°C 73.6°F23.1°C 62% 1.6 mph NNW2.6 kmh NNW 5.4 mph8.7 kmh 30.40 in1029.5 mb 0.00 in0.0 mm 0.00 in/hr0.0 mm/hr 0.00 in0.0 mm
01:25 PM 87.4°F30.8°C 74.3°F23.5°C 65% 1.6 mph NNW2.6 kmh NNW 5.4 mph8.7 kmh 30.40 in1029.5 mb 0.00 in0.0 mm 0.00 in/hr0.0 mm/hr 0.00 in0.0 mm
01:26 PM 87.4°F30.8°C 74.8°F23.8°C 66% 2.2 mph NNW3.5 kmh NNW 5.4 mph8.7 kmh 30.40 in1029.5 mb 0.00 in0.0 mm 0.00 in/hr0.0 mm/hr 0.00 in0.0 mm
01:27 PM 87.3°F30.7°C 74.6°F23.7°C 66% 2.2 mph NNW3.5 kmh NNW 5.4 mph8.7 kmh 30.40 in1029.5 mb 0.00 in0.0 mm 0.00 in/hr0.0 mm/hr 0.00 in0.0 mm
01:28 PM 86.9°F30.5°C 74.7°F23.7°C 67% 2.2 mph NW3.5 kmh NW 5.4 mph8.7 kmh 30.40 in1029.5 mb 0.00 in0.0 mm 0.00 in/hr0.0 mm/hr 0.00 in0.0 mm
01:29 PM 86.7°F30.4°C 74.5°F23.6°C 67% 1.6 mph NW2.6 kmh NW 5.4 mph8.7 kmh 30.40 in1029.5 mb 0.00 in0.0 mm 0.00 in/hr0.0 mm/hr 0.00 in0.0 mm
01:30 PM 86.9°F30.5°C 75.1°F23.9°C 68% 0.7 mph NW1.1 kmh NW 5.4 mph8.7 kmh 30.40 in1029.5 mb 0.00 in0.0 mm 0.00 in/hr0.0 mm/hr 0.00 in0.0 mm
01:31 PM 86.9°F30.5°C 75.1°F23.9°C 68% 0.7 mph NNW1.1 kmh NNW 5.4 mph8.7 kmh 30.40 in1029.5 mb 0.00 in0.0 mm 0.00 in/hr0.0 mm/hr 0.00 in0.0 mm
01:32 PM 87.3°F30.7°C 75.5°F24.2°C 68% 0.7 mph NNW1.1 kmh NNW 5.4 mph8.7 kmh 30.40 in1029.5 mb 0.00 in0.0 mm 0.00 in/hr0.0 mm/hr 0.00 in0.0 mm
01:33 PM 88.7°F31.5°C 76.4°F24.7°C 67% Calm Calm 4.5 mph7.2 kmh 30.40 in1029.5 mb 0.00 in0.0 mm 0.00 in/hr0.0 mm/hr 0.00 in0.0 mm
01:34 PM 89.2°F31.8°C 76.9°F24.9°C 67% 1.6 mph NNW2.6 kmh NNW 4.5 mph7.2 kmh 30.40 in1029.5 mb 0.00 in0.0 mm 0.00 in/hr0.0 mm/hr 0.00 in0.0 mm
01:35 PM 89.2°F31.8°C 76.9°F24.9°C 67% 2.2 mph N3.5 kmh N 4.5 mph7.2 kmh 30.40 in1029.5 mb 0.00 in0.0 mm 0.00 in/hr0.0 mm/hr 0.00 in0.0 mm
01:36 PM 89.2°F31.8°C 76.9°F24.9°C 67% 1.6 mph N2.6 kmh N 4.5 mph7.2 kmh 30.40 in1029.5 mb 0.00 in0.0 mm 0.00 in/hr0.0 mm/hr 0.00 in0.0 mm
01:37 PM 89.4°F31.9°C 76.2°F24.6°C 65% 5.4 mph NNE8.7 kmh NNE 7.6 mph12.2 kmh 30.40 in1029.5 mb 0.00 in0.0 mm 0.00 in/hr0.0 mm/hr 0.00 in0.0 mm
01:38 PM 86.7°F30.4°C 73.6°F23.1°C 65% 4.5 mph NE7.2 kmh NE 7.6 mph12.2 kmh 30.39 in1029.1 mb 0.00 in0.0 mm 0.00 in/hr0.0 mm/hr 0.00 in0.0 mm
01:39 PM 86.9°F30.5°C 75.1°F23.9°C 68% 3.8 mph NNE6.1 kmh NNE 7.6 mph12.2 kmh 30.39 in1029.1 mb 0.00 in0.0 mm 0.00 in/hr0.0 mm/hr 0.00 in0.0 mm
01:40 PM 86.9°F30.5°C 76.0°F24.4°C 70% 2.2 mph NE3.5 kmh NE 7.6 mph12.2 kmh 30.39 in1029.1 mb 0.00 in0.0 mm 0.00 in/hr0.0 mm/hr 0.00 in0.0 mm
01:41 PM 87.3°F30.7°C 75.5°F24.2°C 68% 5.4 mph NE8.7 kmh NE 8.3 mph13.4 kmh 30.39 in1029.1 mb 0.00 in0.0 mm 0.00 in/hr0.0 mm/hr 0.00 in0.0 mm
01:42 PM 86.4°F30.2°C 74.6°F23.7°C 68% 3.8 mph NE6.1 kmh NE 8.3 mph13.4 kmh 30.39 in1029.1 mb 0.00 in0.0 mm 0.00 in/hr0.0 mm/hr 0.00 in0.0 mm
01:43 PM 86.7°F30.4°C 75.8°F24.3°C 70% 3.1 mph NE5.0 kmh NE 8.3 mph13.4 kmh 30.39 in1029.1 mb 0.00 in0.0 mm 0.00 in/hr0.0 mm/hr 0.00 in0.0 mm
01:44 PM 86.7°F30.4°C 75.8°F24.3°C 70% 3.1 mph NE5.0 kmh NE 8.3 mph13.4 kmh 30.39 in1029.1 mb 0.00 in0.0 mm 0.00 in/hr0.0 mm/hr 0.00 in0.0 mm
01:45 PM 88.0°F31.1°C 76.2°F24.6°C 68% 1.6 mph NE2.6 kmh NE 8.3 mph13.4 kmh 30.39 in1029.1 mb 0.00 in0.0 mm 0.00 in/hr0.0 mm/hr 0.00 in0.0 mm
01:46 PM 88.5°F31.4°C 76.2°F24.6°C 67% 3.1 mph ENE5.0 kmh ENE 8.3 mph13.4 kmh 30.39 in1029.1 mb 0.00 in0.0 mm 0.00 in/hr0.0 mm/hr 0.00 in0.0 mm
01:47 PM 88.7°F31.5°C 76.4°F24.7°C 67% 3.1 mph NE5.0 kmh NE 8.3 mph13.4 kmh 30.39 in1029.1 mb 0.00 in0.0 mm 0.00 in/hr0.0 mm/hr 0.00 in0.0 mm
01:48 PM 88.3°F31.3°C 76.1°F24.5°C 67% 3.8 mph NE6.1 kmh NE 8.3 mph13.4 kmh 30.39 in1029.1 mb 0.00 in0.0 mm 0.00 in/hr0.0 mm/hr 0.00 in0.0 mm
01:49 PM 87.4°F30.8°C 75.6°F24.2°C 68% 0.7 mph NE1.1 kmh NE 8.3 mph13.4 kmh 30.39 in1029.1 mb 0.00 in0.0 mm 0.00 in/hr0.0 mm/hr 0.00 in0.0 mm
01:50 PM 87.3°F30.7°C 75.5°F24.2°C 68% 1.6 mph NE2.6 kmh NE 8.3 mph13.4 kmh 30.39 in1029.1 mb 0.00 in0.0 mm 0.00 in/hr0.0 mm/hr 0.00 in0.0 mm
01:51 PM 86.9°F30.5°C 75.1°F23.9°C 68% 3.8 mph NE6.1 kmh NE 8.3 mph13.4 kmh 30.39 in1029.1 mb 0.00 in0.0 mm 0.00 in/hr0.0 mm/hr 0.00 in0.0 mm
01:52 PM 86.0°F30.0°C 74.3°F23.5°C 68% 5.4 mph NNE8.7 kmh NNE 7.6 mph12.2 kmh 30.39 in1029.1 mb 0.00 in0.0 mm 0.00 in/hr0.0 mm/hr 0.00 in0.0 mm
01:53 PM 85.8°F29.9°C 75.8°F24.3°C 72% 3.8 mph NNE6.1 kmh NNE 7.6 mph12.2 kmh 30.39 in1029.1 mb 0.00 in0.0 mm 0.00 in/hr0.0 mm/hr 0.00 in0.0 mm
01:54 PM 85.6°F29.8°C 75.6°F24.2°C 72% 3.1 mph N5.0 kmh N 7.6 mph12.2 kmh 30.39 in1029.1 mb 0.00 in0.0 mm 0.00 in/hr0.0 mm/hr 0.00 in0.0 mm
01:55 PM 85.5°F29.7°C 75.9°F24.4°C 73% 3.1 mph NNE5.0 kmh NNE 7.6 mph12.2 kmh 30.39 in1029.1 mb 0.00 in0.0 mm 0.00 in/hr0.0 mm/hr 0.00 in0.0 mm
01:56 PM 85.5°F29.7°C 75.9°F24.4°C 73% 1.6 mph NNE2.6 kmh NNE 7.6 mph12.2 kmh 30.39 in1029.1 mb 0.00 in0.0 mm 0.00 in/hr0.0 mm/hr 0.00 in0.0 mm
01:57 PM 85.3°F29.6°C 75.7°F24.3°C 73% 3.1 mph NNE5.0 kmh NNE 7.6 mph12.2 kmh 30.38 in1028.8 mb 0.00 in0.0 mm 0.00 in/hr0.0 mm/hr 0.00 in0.0 mm
01:58 PM 85.5°F29.7°C 76.7°F24.8°C 75% 3.8 mph N6.1 kmh N 7.6 mph12.2 kmh 30.38 in1028.8 mb 0.00 in0.0 mm 0.00 in/hr0.0 mm/hr 0.00 in0.0 mm
01:59 PM 85.3°F29.6°C 76.5°F24.7°C 75% 3.8 mph N6.1 kmh N 7.6 mph12.2 kmh 30.39 in1029.1 mb 0.00 in0.0 mm 0.00 in/hr0.0 mm/hr 0.00 in0.0 mm
02:00 PM 85.3°F29.6°C 76.5°F24.7°C 75% 2.2 mph N3.5 kmh N 7.6 mph12.2 kmh 30.39 in1029.1 mb 0.00 in0.0 mm 0.00 in/hr0.0 mm/hr 0.00 in0.0 mm
02:01 PM 85.3°F29.6°C 76.5°F24.7°C 75% 2.2 mph N3.5 kmh N 7.6 mph12.2 kmh 30.39 in1029.1 mb 0.00 in0.0 mm 0.00 in/hr0.0 mm/hr 0.00 in0.0 mm
02:02 PM 85.3°F29.6°C 76.5°F24.7°C 75% 2.2 mph N3.5 kmh N 7.6 mph12.2 kmh 30.38 in1028.8 mb 0.00 in0.0 mm 0.00 in/hr0.0 mm/hr 0.00 in0.0 mm
02:03 PM 85.3°F29.6°C 76.5°F24.7°C 75% 2.2 mph N3.5 kmh N 7.6 mph12.2 kmh 30.38 in1028.8 mb 0.00 in0.0 mm 0.00 in/hr0.0 mm/hr 0.00 in0.0 mm
02:04 PM 85.3°F29.6°C 76.5°F24.7°C 75% 2.2 mph N3.5 kmh N 6.9 mph11.1 kmh 30.38 in1028.8 mb 0.00 in0.0 mm 0.00 in/hr0.0 mm/hr 0.00 in0.0 mm
02:05 PM 85.5°F29.7°C 76.7°F24.8°C 75% 2.2 mph N3.5 kmh N 6.9 mph11.1 kmh 30.38 in1028.8 mb 0.00 in0.0 mm 0.00 in/hr0.0 mm/hr 0.00 in0.0 mm
02:06 PM 86.5°F30.3°C 76.1°F24.5°C 71% 3.8 mph N6.1 kmh N 6.9 mph11.1 kmh 30.38 in1028.8 mb 0.00 in0.0 mm 0.00 in/hr0.0 mm/hr 0.00 in0.0 mm
02:07 PM 86.5°F30.3°C 75.7°F24.3°C 70% 2.2 mph NNW3.5 kmh NNW 6.9 mph11.1 kmh 30.38 in1028.8 mb 0.00 in0.0 mm 0.00 in/hr0.0 mm/hr 0.00 in0.0 mm
02:08 PM 87.3°F30.7°C 75.5°F24.2°C 68% 4.5 mph NNW7.2 kmh NNW 9.2 mph14.8 kmh 30.38 in1028.8 mb 0.00 in0.0 mm 0.00 in/hr0.0 mm/hr 0.00 in0.0 mm
02:09 PM 86.9°F30.5°C 74.7°F23.7°C 67% 3.1 mph N5.0 kmh N 9.2 mph14.8 kmh 30.38 in1028.8 mb 0.00 in0.0 mm 0.00 in/hr0.0 mm/hr 0.00 in0.0 mm
02:10 PM 87.3°F30.7°C 74.1°F23.4°C 65% 3.8 mph N6.1 kmh N 9.2 mph14.8 kmh 30.38 in1028.8 mb 0.00 in0.0 mm 0.00 in/hr0.0 mm/hr 0.00 in0.0 mm
02:11 PM 86.9°F30.5°C 72.9°F22.7°C 63% 4.5 mph N7.2 kmh N 9.2 mph14.8 kmh 30.38 in1028.8 mb 0.00 in0.0 mm 0.00 in/hr0.0 mm/hr 0.00 in0.0 mm
02:12 PM 86.9°F30.5°C 72.4°F22.4°C 62% 4.5 mph NNW7.2 kmh NNW 9.8 mph15.8 kmh 30.38 in1028.8 mb 0.00 in0.0 mm 0.00 in/hr0.0 mm/hr 0.00 in0.0 mm
02:13 PM 87.3°F30.7°C 72.7°F22.6°C 62% 4.5 mph NNW7.2 kmh NNW 9.8 mph15.8 kmh 30.38 in1028.8 mb 0.00 in0.0 mm 0.00 in/hr0.0 mm/hr 0.00 in0.0 mm
02:14 PM 87.3°F30.7°C 72.7°F22.6°C 62% 3.1 mph NW5.0 kmh NW 9.8 mph15.8 kmh 30.38 in1028.8 mb 0.00 in0.0 mm 0.00 in/hr0.0 mm/hr 0.00 in0.0 mm
02:15 PM 87.6°F30.9°C 73.1°F22.8°C 62% 4.5 mph NW7.2 kmh NW 9.8 mph15.8 kmh 30.38 in1028.8 mb 0.00 in0.0 mm 0.00 in/hr0.0 mm/hr 0.00 in0.0 mm
02:16 PM 88.2°F31.2°C 73.1°F22.8°C 61% 3.8 mph NW6.1 kmh NW 9.8 mph15.8 kmh 30.38 in1028.8 mb 0.00 in0.0 mm 0.00 in/hr0.0 mm/hr 0.00 in0.0 mm
02:17 PM 88.3°F31.3°C 73.3°F22.9°C 61% 3.8 mph NW6.1 kmh NW 9.8 mph15.8 kmh 30.37 in1028.4 mb 0.00 in0.0 mm 0.00 in/hr0.0 mm/hr 0.00 in0.0 mm
02:18 PM 88.5°F31.4°C 73.4°F23.0°C 61% 3.1 mph NW5.0 kmh NW 9.8 mph15.8 kmh 30.37 in1028.4 mb 0.00 in0.0 mm 0.00 in/hr0.0 mm/hr 0.00 in0.0 mm
02:19 PM 88.5°F31.4°C 72.9°F22.7°C 60% 3.1 mph NW5.0 kmh NW 9.8 mph15.8 kmh 30.37 in1028.4 mb 0.00 in0.0 mm 0.00 in/hr0.0 mm/hr 0.00 in0.0 mm
02:20 PM 88.9°F31.6°C 73.3°F22.9°C 60% 3.8 mph NW6.1 kmh NW 9.8 mph15.8 kmh 30.37 in1028.4 mb 0.00 in0.0 mm 0.00 in/hr0.0 mm/hr 0.00 in0.0 mm
02:21 PM 89.1°F31.7°C 73.4°F23.0°C 60% 3.1 mph NW5.0 kmh NW 9.8 mph15.8 kmh 30.37 in1028.4 mb 0.00 in0.0 mm 0.00 in/hr0.0 mm/hr 0.00 in0.0 mm
02:22 PM 88.5°F31.4°C 71.9°F22.2°C 58% 3.1 mph NW5.0 kmh NW 7.6 mph12.2 kmh 30.37 in1028.4 mb 0.00 in0.0 mm 0.00 in/hr0.0 mm/hr 0.00 in0.0 mm
02:23 PM 88.5°F31.4°C 71.9°F22.2°C 58% 3.8 mph NNW6.1 kmh NNW 6.9 mph11.1 kmh 30.38 in1028.8 mb 0.00 in0.0 mm 0.00 in/hr0.0 mm/hr 0.00 in0.0 mm
02:24 PM 88.2°F31.2°C 70.6°F21.4°C 56% 3.8 mph NNW6.1 kmh NNW 6.9 mph11.1 kmh 30.38 in1028.8 mb 0.00 in0.0 mm 0.00 in/hr0.0 mm/hr 0.00 in0.0 mm
02:25 PM 88.5°F31.4°C 71.4°F21.9°C 57% 4.5 mph NNW7.2 kmh NNW 6.9 mph11.1 kmh 30.38 in1028.8 mb 0.00 in0.0 mm 0.00 in/hr0.0 mm/hr 0.00 in0.0 mm
02:26 PM 88.2°F31.2°C 70.0°F21.1°C 55% 2.2 mph NNW3.5 kmh NNW 6.9 mph11.1 kmh 30.38 in1028.8 mb 0.00 in0.0 mm 0.00 in/hr0.0 mm/hr 0.00 in0.0 mm
02:27 PM 88.3°F31.3°C 70.2°F21.2°C 55% 2.2 mph NNW3.5 kmh NNW 6.9 mph11.1 kmh 30.38 in1028.8 mb 0.00 in0.0 mm 0.00 in/hr0.0 mm/hr 0.00 in0.0 mm
02:28 PM 88.3°F31.3°C 69.1°F20.6°C 53% 3.8 mph NNW6.1 kmh NNW 8.3 mph13.4 kmh 30.38 in1028.8 mb 0.00 in0.0 mm 0.00 in/hr0.0 mm/hr 0.00 in0.0 mm
02:29 PM 88.9°F31.6°C 70.7°F21.5°C 55% 6.0 mph NNW9.7 kmh NNW 9.8 mph15.8 kmh 30.38 in1028.8 mb 0.00 in0.0 mm 0.00 in/hr0.0 mm/hr 0.00 in0.0 mm
02:30 PM 88.0°F31.1°C 68.2°F20.1°C 52% 4.5 mph NNW7.2 kmh NNW 9.8 mph15.8 kmh 30.38 in1028.8 mb 0.00 in0.0 mm 0.00 in/hr0.0 mm/hr 0.00 in0.0 mm
02:31 PM 87.6°F30.9°C 69.5°F20.8°C 55% 2.2 mph NNW3.5 kmh NNW 9.8 mph15.8 kmh 30.38 in1028.8 mb 0.00 in0.0 mm 0.00 in/hr0.0 mm/hr 0.00 in0.0 mm
02:32 PM 87.3°F30.7°C 69.7°F20.9°C 56% 3.1 mph NNW5.0 kmh NNW 9.8 mph15.8 kmh 30.38 in1028.8 mb 0.00 in0.0 mm 0.00 in/hr0.0 mm/hr 0.00 in0.0 mm
02:33 PM 87.6°F30.9°C 70.0°F21.1°C 56% 3.8 mph NNW6.1 kmh NNW 9.8 mph15.8 kmh 30.38 in1028.8 mb 0.00 in0.0 mm 0.00 in/hr0.0 mm/hr 0.00 in0.0 mm
02:34 PM 88.2°F31.2°C 70.0°F21.1°C 55% 3.1 mph NNW5.0 kmh NNW 9.8 mph15.8 kmh 30.38 in1028.8 mb 0.00 in0.0 mm 0.00 in/hr0.0 mm/hr 0.00 in0.0 mm
02:35 PM 88.2°F31.2°C 70.0°F21.1°C 55% 3.8 mph NW6.1 kmh NW 9.8 mph15.8 kmh 30.38 in1028.8 mb 0.00 in0.0 mm 0.00 in/hr0.0 mm/hr 0.00 in0.0 mm
02:36 PM 88.2°F31.2°C 70.0°F21.1°C 55% 3.8 mph NNW6.1 kmh NNW 9.8 mph15.8 kmh 30.38 in1028.8 mb 0.00 in0.0 mm 0.00 in/hr0.0 mm/hr 0.00 in0.0 mm
02:37 PM 87.4°F30.8°C 69.9°F21.1°C 56% 3.8 mph NNW6.1 kmh NNW 9.8 mph15.8 kmh 30.38 in1028.8 mb 0.00 in0.0 mm 0.00 in/hr0.0 mm/hr 0.00 in0.0 mm
02:38 PM 87.3°F30.7°C 69.7°F20.9°C 56% 3.1 mph NNW5.0 kmh NNW 9.8 mph15.8 kmh 30.38 in1028.8 mb 0.00 in0.0 mm 0.00 in/hr0.0 mm/hr 0.00 in0.0 mm
02:39 PM 87.6°F30.9°C 70.6°F21.4°C 57% 3.8 mph NW6.1 kmh NW 9.8 mph15.8 kmh 30.38 in1028.8 mb 0.00 in0.0 mm 0.00 in/hr0.0 mm/hr 0.00 in0.0 mm
02:40 PM 88.2°F31.2°C 70.6°F21.4°C 56% 3.1 mph NW5.0 kmh NW 7.6 mph12.2 kmh 30.37 in1028.4 mb 0.00 in0.0 mm 0.00 in/hr0.0 mm/hr 0.00 in0.0 mm
02:41 PM 88.5°F31.4°C 70.9°F21.6°C 56% 4.5 mph NW7.2 kmh NW 7.6 mph12.2 kmh 30.37 in1028.4 mb 0.00 in0.0 mm 0.00 in/hr0.0 mm/hr 0.00 in0.0 mm
02:42 PM 88.9°F31.6°C 71.2°F21.8°C 56% 3.8 mph NW6.1 kmh NW 7.6 mph12.2 kmh 30.37 in1028.4 mb 0.00 in0.0 mm 0.00 in/hr0.0 mm/hr 0.00 in0.0 mm
02:43 PM 89.2°F31.8°C 71.6°F22.0°C 56% 3.1 mph NW5.0 kmh NW 7.6 mph12.2 kmh 30.37 in1028.4 mb 0.00 in0.0 mm 0.00 in/hr0.0 mm/hr 0.00 in0.0 mm
02:44 PM 89.4°F31.9°C 71.7°F22.1°C 56% 3.1 mph NW5.0 kmh NW 7.6 mph12.2 kmh 30.37 in1028.4 mb 0.00 in0.0 mm 0.00 in/hr0.0 mm/hr 0.00 in0.0 mm
02:45 PM 89.4°F31.9°C 71.7°F22.1°C 56% 3.8 mph NNW6.1 kmh NNW 7.6 mph12.2 kmh 30.37 in1028.4 mb 0.00 in0.0 mm 0.00 in/hr0.0 mm/hr 0.00 in0.0 mm
02:46 PM 89.2°F31.8°C 71.6°F22.0°C 56% 2.2 mph NNW3.5 kmh NNW 7.6 mph12.2 kmh 30.37 in1028.4 mb 0.00 in0.0 mm 0.00 in/hr0.0 mm/hr 0.00 in0.0 mm
02:47 PM 89.6°F32.0°C 71.4°F21.9°C 55% 3.1 mph NW5.0 kmh NW 7.6 mph12.2 kmh 30.37 in1028.4 mb 0.00 in0.0 mm 0.00 in/hr0.0 mm/hr 0.00 in0.0 mm
02:48 PM 89.6°F32.0°C 71.4°F21.9°C 55% 2.2 mph NNW3.5 kmh NNW 7.6 mph12.2 kmh 30.37 in1028.4 mb 0.00 in0.0 mm 0.00 in/hr0.0 mm/hr 0.00 in0.0 mm
02:49 PM 89.6°F32.0°C 70.3°F21.3°C 53% 3.1 mph NNW5.0 kmh NNW 7.6 mph12.2 kmh 30.37 in1028.4 mb 0.00 in0.0 mm 0.00 in/hr0.0 mm/hr 0.00 in0.0 mm
02:50 PM 89.8°F32.1°C 71.5°F21.9°C 55% 3.8 mph N6.1 kmh N 6.9 mph11.1 kmh 30.37 in1028.4 mb 0.00 in0.0 mm 0.00 in/hr0.0 mm/hr 0.00 in0.0 mm
02:51 PM 89.2°F31.8°C 71.6°F22.0°C 56% 3.1 mph N5.0 kmh N 6.9 mph11.1 kmh 30.36 in1028.1 mb 0.00 in0.0 mm 0.00 in/hr0.0 mm/hr 0.00 in0.0 mm
02:52 PM 89.2°F31.8°C 71.6°F22.0°C 56% 3.1 mph N5.0 kmh N 6.9 mph11.1 kmh 30.36 in1028.1 mb 0.00 in0.0 mm 0.00 in/hr0.0 mm/hr 0.00 in0.0 mm
02:53 PM 89.6°F32.0°C 71.9°F22.2°C 56% 3.8 mph N6.1 kmh N 6.9 mph11.1 kmh 30.37 in1028.4 mb 0.00 in0.0 mm 0.00 in/hr0.0 mm/hr 0.00 in0.0 mm
02:54 PM 88.9°F31.6°C 71.2°F21.8°C 56% 2.2 mph N3.5 kmh N 6.9 mph11.1 kmh 30.37 in1028.4 mb 0.00 in0.0 mm 0.00 in/hr0.0 mm/hr 0.00 in0.0 mm
02:55 PM 88.9°F31.6°C 71.2°F21.8°C 56% 2.2 mph N3.5 kmh N 6.9 mph11.1 kmh 30.37 in1028.4 mb 0.00 in0.0 mm 0.00 in/hr0.0 mm/hr 0.00 in0.0 mm
02:56 PM 89.4°F31.9°C 72.2°F22.3°C 57% 3.8 mph N6.1 kmh N 6.9 mph11.1 kmh 30.37 in1028.4 mb 0.00 in0.0 mm 0.00 in/hr0.0 mm/hr 0.00 in0.0 mm
02:57 PM 88.5°F31.4°C 71.4°F21.9°C 57% 3.1 mph N5.0 kmh N 6.9 mph11.1 kmh 30.37 in1028.4 mb 0.00 in0.0 mm 0.00 in/hr0.0 mm/hr 0.00 in0.0 mm
02:58 PM 88.3°F31.3°C 71.2°F21.8°C 57% 3.1 mph N5.0 kmh N 7.6 mph12.2 kmh 30.37 in1028.4 mb 0.00 in0.0 mm 0.00 in/hr0.0 mm/hr 0.00 in0.0 mm
02:59 PM 88.7°F31.5°C 71.6°F22.0°C 57% 3.1 mph N5.0 kmh N 7.6 mph12.2 kmh 30.37 in1028.4 mb 0.00 in0.0 mm 0.00 in/hr0.0 mm/hr 0.00 in0.0 mm
03:00 PM 89.1°F31.7°C 71.9°F22.2°C 57% 2.2 mph NNW3.5 kmh NNW 7.6 mph12.2 kmh 30.36 in1028.1 mb 0.00 in0.0 mm 0.00 in/hr0.0 mm/hr 0.00 in0.0 mm
03:01 PM 89.4°F31.9°C 72.2°F22.3°C 57% 4.5 mph NNW7.2 kmh NNW 7.6 mph12.2 kmh 30.37 in1028.4 mb 0.00 in0.0 mm 0.00 in/hr0.0 mm/hr 0.00 in0.0 mm
03:02 PM 88.9°F31.6°C 71.2°F21.8°C 56% 2.2 mph NW3.5 kmh NW 7.6 mph12.2 kmh 30.36 in1028.1 mb 0.00 in0.0 mm 0.00 in/hr0.0 mm/hr 0.00 in0.0 mm
03:03 PM 89.1°F31.7°C 71.9°F22.2°C 57% 1.6 mph NW2.6 kmh NW 7.6 mph12.2 kmh 30.36 in1028.1 mb 0.00 in0.0 mm 0.00 in/hr0.0 mm/hr 0.00 in0.0 mm
03:04 PM 89.6°F32.0°C 71.9°F22.2°C 56% 3.1 mph NNW5.0 kmh NNW 7.6 mph12.2 kmh 30.36 in1028.1 mb 0.00 in0.0 mm 0.00 in/hr0.0 mm/hr 0.00 in0.0 mm
03:05 PM 90.9°F32.7°C 73.1°F22.8°C 56% 3.8 mph NNW6.1 kmh NNW 7.6 mph12.2 kmh 30.36 in1028.1 mb 0.00 in0.0 mm 0.00 in/hr0.0 mm/hr 0.00 in0.0 mm
03:06 PM 90.1°F32.3°C 71.9°F22.2°C 55% 1.6 mph NW2.6 kmh NW 7.6 mph12.2 kmh 30.36 in1028.1 mb 0.00 in0.0 mm 0.00 in/hr0.0 mm/hr 0.00 in0.0 mm
03:07 PM 90.3°F32.4°C 72.0°F22.2°C 55% 3.1 mph NW5.0 kmh NW 7.6 mph12.2 kmh 30.36 in1028.1 mb 0.00 in0.0 mm 0.00 in/hr0.0 mm/hr 0.00 in0.0 mm
03:08 PM 89.2°F31.8°C 71.0°F21.7°C 55% 3.1 mph NW5.0 kmh NW 7.6 mph12.2 kmh 30.36 in1028.1 mb 0.00 in0.0 mm 0.00 in/hr0.0 mm/hr 0.00 in0.0 mm
03:09 PM 90.1°F32.3°C 71.9°F22.2°C 55% 3.1 mph NW5.0 kmh NW 7.6 mph12.2 kmh 30.36 in1028.1 mb 0.00 in0.0 mm 0.00 in/hr0.0 mm/hr 0.00 in0.0 mm
03:10 PM 90.0°F32.2°C 71.7°F22.1°C 55% 3.8 mph NW6.1 kmh NW 7.6 mph12.2 kmh 30.36 in1028.1 mb 0.00 in0.0 mm 0.00 in/hr0.0 mm/hr 0.00 in0.0 mm
03:11 PM 89.2°F31.8°C 71.6°F22.0°C 56% 3.1 mph NW5.0 kmh NW 7.6 mph12.2 kmh 30.36 in1028.1 mb 0.00 in0.0 mm 0.00 in/hr0.0 mm/hr 0.00 in0.0 mm
03:12 PM 89.6°F32.0°C 71.4°F21.9°C 55% 2.2 mph NW3.5 kmh NW 6.0 mph9.7 kmh 30.36 in1028.1 mb 0.00 in0.0 mm 0.00 in/hr0.0 mm/hr 0.00 in0.0 mm
03:13 PM 90.0°F32.2°C 71.7°F22.1°C 55% 2.2 mph NW3.5 kmh NW 6.9 mph11.1 kmh 30.37 in1028.4 mb 0.00 in0.0 mm 0.00 in/hr0.0 mm/hr 0.00 in0.0 mm
03:14 PM 90.5°F32.5°C 72.7°F22.6°C 56% 3.1 mph NW5.0 kmh NW 6.9 mph11.1 kmh 30.37 in1028.4 mb 0.00 in0.0 mm 0.00 in/hr0.0 mm/hr 0.00 in0.0 mm
03:15 PM 90.1°F32.3°C 71.9°F22.2°C 55% 3.1 mph NW5.0 kmh NW 6.9 mph11.1 kmh 30.36 in1028.1 mb 0.00 in0.0 mm 0.00 in/hr0.0 mm/hr 0.00 in0.0 mm
03:16 PM 89.8°F32.1°C 71.5°F21.9°C 55% 3.1 mph NW5.0 kmh NW 6.9 mph11.1 kmh 30.37 in1028.4 mb 0.00 in0.0 mm 0.00 in/hr0.0 mm/hr 0.00 in0.0 mm
03:17 PM 89.2°F31.8°C 72.1°F22.3°C 57% 3.8 mph NW6.1 kmh NW 6.9 mph11.1 kmh 30.36 in1028.1 mb 0.00 in0.0 mm 0.00 in/hr0.0 mm/hr 0.00 in0.0 mm
03:18 PM 89.4°F31.9°C 72.2°F22.3°C 57% 3.1 mph NW5.0 kmh NW 6.9 mph11.1 kmh 30.37 in1028.4 mb 0.00 in0.0 mm 0.00 in/hr0.0 mm/hr 0.00 in0.0 mm
03:19 PM 89.2°F31.8°C 72.1°F22.3°C 57% 2.2 mph NW3.5 kmh NW 6.9 mph11.1 kmh 30.37 in1028.4 mb 0.00 in0.0 mm 0.00 in/hr0.0 mm/hr 0.00 in0.0 mm
03:20 PM 90.0°F32.2°C 72.2°F22.3°C 56% 2.2 mph NW3.5 kmh NW 6.9 mph11.1 kmh 30.36 in1028.1 mb 0.00 in0.0 mm 0.00 in/hr0.0 mm/hr 0.00 in0.0 mm
03:21 PM 89.6°F32.0°C 71.9°F22.2°C 56% 3.8 mph NNW6.1 kmh NNW 6.9 mph11.1 kmh 30.36 in1028.1 mb 0.00 in0.0 mm 0.00 in/hr0.0 mm/hr 0.00 in0.0 mm
03:22 PM 89.2°F31.8°C 72.1°F22.3°C 57% 3.8 mph NNW6.1 kmh NNW 6.9 mph11.1 kmh 30.36 in1028.1 mb 0.00 in0.0 mm 0.00 in/hr0.0 mm/hr 0.00 in0.0 mm
03:23 PM 89.6°F32.0°C 71.9°F22.2°C 56% 2.2 mph NNW3.5 kmh NNW 5.4 mph8.7 kmh 30.36 in1028.1 mb 0.00 in0.0 mm 0.00 in/hr0.0 mm/hr 0.00 in0.0 mm
03:24 PM 90.3°F32.4°C 72.6°F22.6°C 56% 7.6 mph NNW12.2 kmh NNW 12.1 mph19.5 kmh 30.37 in1028.4 mb 0.00 in0.0 mm 0.00 in/hr0.0 mm/hr 0.00 in0.0 mm
03:25 PM 89.1°F31.7°C 71.9°F22.2°C 57% 5.4 mph NNW8.7 kmh NNW 12.1 mph19.5 kmh 30.37 in1028.4 mb 0.00 in0.0 mm 0.00 in/hr0.0 mm/hr 0.00 in0.0 mm
03:26 PM 88.9°F31.6°C 71.7°F22.1°C 57% 3.8 mph NNW6.1 kmh NNW 12.1 mph19.5 kmh 30.36 in1028.1 mb 0.00 in0.0 mm 0.00 in/hr0.0 mm/hr 0.00 in0.0 mm
03:27 PM 88.5°F31.4°C 71.4°F21.9°C 57% 4.5 mph NW7.2 kmh NW 12.1 mph19.5 kmh 30.36 in1028.1 mb 0.00 in0.0 mm 0.00 in/hr0.0 mm/hr 0.00 in0.0 mm
03:28 PM 89.1°F31.7°C 71.9°F22.2°C 57% 1.6 mph NW2.6 kmh NW 12.1 mph19.5 kmh 30.36 in1028.1 mb 0.00 in0.0 mm 0.00 in/hr0.0 mm/hr 0.00 in0.0 mm
03:29 PM 91.6°F33.1°C 74.8°F23.8°C 58% 3.1 mph NW5.0 kmh NW 12.1 mph19.5 kmh 30.36 in1028.1 mb 0.00 in0.0 mm 0.00 in/hr0.0 mm/hr 0.00 in0.0 mm
03:30 PM 91.8°F33.2°C 73.9°F23.3°C 56% 2.2 mph NW3.5 kmh NW 12.1 mph19.5 kmh 30.36 in1028.1 mb 0.00 in0.0 mm 0.00 in/hr0.0 mm/hr 0.00 in0.0 mm
03:31 PM 92.5°F33.6°C 74.6°F23.7°C 56% 3.8 mph NW6.1 kmh NW 12.1 mph19.5 kmh 30.36 in1028.1 mb 0.00 in0.0 mm 0.00 in/hr0.0 mm/hr 0.00 in0.0 mm
03:32 PM 91.4°F33.0°C 71.9°F22.2°C 53% 1.6 mph NW2.6 kmh NW 12.1 mph19.5 kmh 30.36 in1028.1 mb 0.00 in0.0 mm 0.00 in/hr0.0 mm/hr 0.00 in0.0 mm
03:33 PM 91.9°F33.3°C 72.4°F22.4°C 53% 1.6 mph NW2.6 kmh NW 12.1 mph19.5 kmh 30.36 in1028.1 mb 0.00 in0.0 mm 0.00 in/hr0.0 mm/hr 0.00 in0.0 mm
03:34 PM 91.8°F33.2°C 71.7°F22.1°C 52% 5.4 mph WNW8.7 kmh WNW 10.7 mph17.2 kmh 30.36 in1028.1 mb 0.00 in0.0 mm 0.00 in/hr0.0 mm/hr 0.00 in0.0 mm
03:35 PM 89.6°F32.0°C 70.3°F21.3°C 53% 5.4 mph W8.7 kmh W 10.7 mph17.2 kmh 30.36 in1028.1 mb 0.00 in0.0 mm 0.00 in/hr0.0 mm/hr 0.00 in0.0 mm
03:36 PM 89.4°F31.9°C 72.2°F22.3°C 57% Calm Calm 10.7 mph17.2 kmh 30.36 in1028.1 mb 0.00 in0.0 mm 0.00 in/hr0.0 mm/hr 0.00 in0.0 mm
03:37 PM 89.1°F31.7°C 74.9°F23.8°C 63% 2.2 mph WSW3.5 kmh WSW 10.7 mph17.2 kmh 30.36 in1028.1 mb 0.00 in0.0 mm 0.00 in/hr0.0 mm/hr 0.00 in0.0 mm
03:38 PM 88.0°F31.1°C 74.8°F23.8°C 65% 1.6 mph WSW2.6 kmh WSW 10.7 mph17.2 kmh 30.36 in1028.1 mb 0.00 in0.0 mm 0.00 in/hr0.0 mm/hr 0.00 in0.0 mm
03:39 PM 87.8°F31.0°C 75.5°F24.2°C 67% 3.1 mph WSW5.0 kmh WSW 10.7 mph17.2 kmh 30.36 in1028.1 mb 0.00 in0.0 mm 0.00 in/hr0.0 mm/hr 0.00 in0.0 mm
03:40 PM 86.9°F30.5°C 75.1°F23.9°C 68% 1.6 mph WSW2.6 kmh WSW 10.7 mph17.2 kmh 30.36 in1028.1 mb 0.00 in0.0 mm 0.00 in/hr0.0 mm/hr 0.00 in0.0 mm
03:41 PM 86.7°F30.4°C 75.8°F24.3°C 70% 0.7 mph WSW1.1 kmh WSW 10.7 mph17.2 kmh 30.36 in1028.1 mb 0.00 in0.0 mm 0.00 in/hr0.0 mm/hr 0.00 in0.0 mm
03:42 PM 86.7°F30.4°C 76.3°F24.6°C 71% Calm Calm 10.7 mph17.2 kmh 30.36 in1028.1 mb 0.00 in0.0 mm 0.00 in/hr0.0 mm/hr 0.00 in0.0 mm
03:43 PM 86.9°F30.5°C 76.4°F24.7°C 71% Calm Calm 10.7 mph17.2 kmh 30.36 in1028.1 mb 0.00 in0.0 mm 0.00 in/hr0.0 mm/hr 0.00 in0.0 mm
03:44 PM 86.9°F30.5°C 76.4°F24.7°C 71% 0.7 mph WSW1.1 kmh WSW 10.7 mph17.2 kmh 30.36 in1028.1 mb 0.00 in0.0 mm 0.00 in/hr0.0 mm/hr 0.00 in0.0 mm
03:45 PM 86.4°F30.2°C 75.9°F24.4°C 71% 3.8 mph WSW6.1 kmh WSW 6.9 mph11.1 kmh 30.36 in1028.1 mb 0.00 in0.0 mm 0.00 in/hr0.0 mm/hr 0.00 in0.0 mm
03:46 PM 86.2°F30.1°C 75.7°F24.3°C 71% Calm Calm 6.9 mph11.1 kmh 30.36 in1028.1 mb 0.00 in0.0 mm 0.00 in/hr0.0 mm/hr 0.00 in0.0 mm
03:47 PM 86.2°F30.1°C 75.7°F24.3°C 71% 5.4 mph SW8.7 kmh SW 7.6 mph12.2 kmh 30.36 in1028.1 mb 0.00 in0.0 mm 0.00 in/hr0.0 mm/hr 0.00 in0.0 mm
03:48 PM 85.5°F29.7°C 75.5°F24.2°C 72% 5.4 mph WSW8.7 kmh WSW 7.6 mph12.2 kmh 30.36 in1028.1 mb 0.00 in0.0 mm 0.00 in/hr0.0 mm/hr 0.00 in0.0 mm
03:49 PM 85.1°F29.5°C 75.5°F24.2°C 73% Calm Calm 7.6 mph12.2 kmh 30.36 in1028.1 mb 0.00 in0.0 mm 0.00 in/hr0.0 mm/hr 0.00 in0.0 mm
03:50 PM 85.5°F29.7°C 76.7°F24.8°C 75% Calm Calm 7.6 mph12.2 kmh 30.36 in1028.1 mb 0.00 in0.0 mm 0.00 in/hr0.0 mm/hr 0.00 in0.0 mm
03:51 PM 85.5°F29.7°C 76.7°F24.8°C 75% Calm Calm 7.6 mph12.2 kmh 30.36 in1028.1 mb 0.00 in0.0 mm 0.00 in/hr0.0 mm/hr 0.00 in0.0 mm
03:52 PM 85.6°F29.8°C 76.9°F24.9°C 75% Calm Calm 7.6 mph12.2 kmh 30.36 in1028.1 mb 0.00 in0.0 mm 0.00 in/hr0.0 mm/hr 0.00 in0.0 mm
03:53 PM 85.1°F29.5°C 76.4°F24.7°C 75% 2.2 mph S3.5 kmh S 7.6 mph12.2 kmh 30.36 in1028.1 mb 0.00 in0.0 mm 0.00 in/hr0.0 mm/hr 0.00 in0.0 mm
03:54 PM 85.1°F29.5°C 76.4°F24.7°C 75% 0.7 mph SSE1.1 kmh SSE 7.6 mph12.2 kmh 30.35 in1027.8 mb 0.00 in0.0 mm 0.00 in/hr0.0 mm/hr 0.00 in0.0 mm
03:55 PM 84.9°F29.4°C 76.2°F24.6°C 75% 0.7 mph SE1.1 kmh SE 7.6 mph12.2 kmh 30.36 in1028.1 mb 0.00 in0.0 mm 0.00 in/hr0.0 mm/hr 0.00 in0.0 mm
03:56 PM 85.1°F29.5°C 76.4°F24.7°C 75% 0.7 mph SE1.1 kmh SE 7.6 mph12.2 kmh 30.36 in1028.1 mb 0.00 in0.0 mm 0.00 in/hr0.0 mm/hr 0.00 in0.0 mm
03:57 PM 84.9°F29.4°C 77.0°F25.0°C 77% 0.7 mph SE1.1 kmh SE 7.6 mph12.2 kmh 30.36 in1028.1 mb 0.00 in0.0 mm 0.00 in/hr0.0 mm/hr 0.00 in0.0 mm
03:58 PM 84.4°F29.1°C 76.4°F24.7°C 77% Calm Calm 4.5 mph7.2 kmh 30.36 in1028.1 mb 0.00 in0.0 mm 0.00 in/hr0.0 mm/hr 0.00 in0.0 mm
03:59 PM 84.6°F29.2°C 77.0°F25.0°C 78% 1.6 mph SE2.6 kmh SE 4.5 mph7.2 kmh 30.36 in1028.1 mb 0.00 in0.0 mm 0.00 in/hr0.0 mm/hr 0.00 in0.0 mm
04:00 PM 84.2°F29.0°C 76.7°F24.8°C 78% Calm Calm 4.5 mph7.2 kmh 30.36 in1028.1 mb 0.00 in0.0 mm 0.00 in/hr0.0 mm/hr 0.00 in0.0 mm
04:01 PM 84.2°F29.0°C 76.7°F24.8°C 78% Calm Calm 4.5 mph7.2 kmh 30.36 in1028.1 mb 0.00 in0.0 mm 0.00 in/hr0.0 mm/hr 0.00 in0.0 mm
04:02 PM 84.2°F29.0°C 76.7°F24.8°C 78% Calm Calm 4.5 mph7.2 kmh 30.36 in1028.1 mb 0.00 in0.0 mm 0.00 in/hr0.0 mm/hr 0.00 in0.0 mm
04:03 PM 84.2°F29.0°C 76.7°F24.8°C 78% Calm Calm 3.8 mph6.1 kmh 30.36 in1028.1 mb 0.00 in0.0 mm 0.00 in/hr0.0 mm/hr 0.00 in0.0 mm
04:04 PM 84.4°F29.1°C 77.6°F25.3°C 80% 0.7 mph SW1.1 kmh SW 3.1 mph5.0 kmh 30.36 in1028.1 mb 0.00 in0.0 mm 0.00 in/hr0.0 mm/hr 0.00 in0.0 mm
04:05 PM 84.2°F29.0°C 77.8°F25.4°C 81% 0.7 mph SW1.1 kmh SW 3.1 mph5.0 kmh 30.36 in1028.1 mb 0.00 in0.0 mm 0.00 in/hr0.0 mm/hr 0.00 in0.0 mm
04:06 PM 84.0°F28.9°C 78.4°F25.8°C 83% Calm Calm 3.1 mph5.0 kmh 30.36 in1028.1 mb 0.00 in0.0 mm 0.00 in/hr0.0 mm/hr 0.00 in0.0 mm
04:07 PM 84.0°F28.9°C 78.4°F25.8°C 83% Calm Calm 3.1 mph5.0 kmh 30.36 in1028.1 mb 0.00 in0.0 mm 0.00 in/hr0.0 mm/hr 0.00 in0.0 mm
04:08 PM 84.0°F28.9°C 78.4°F25.8°C 83% Calm Calm 3.1 mph5.0 kmh 30.36 in1028.1 mb 0.00 in0.0 mm 0.00 in/hr0.0 mm/hr 0.00 in0.0 mm
04:09 PM 83.8°F28.8°C 78.2°F25.7°C 83% Calm Calm 3.1 mph5.0 kmh 30.36 in1028.1 mb 0.00 in0.0 mm 0.00 in/hr0.0 mm/hr 0.00 in0.0 mm
04:10 PM 83.7°F28.7°C 78.7°F25.9°C 85% Calm Calm 3.1 mph5.0 kmh 30.36 in1028.1 mb 0.00 in0.0 mm 0.00 in/hr0.0 mm/hr 0.00 in0.0 mm
04:11 PM 83.7°F28.7°C 78.7°F25.9°C 85% Calm Calm 3.1 mph5.0 kmh 30.36 in1028.1 mb 0.00 in0.0 mm 0.00 in/hr0.0 mm/hr 0.00 in0.0 mm
04:12 PM 83.7°F28.7°C 79.1°F26.2°C 86% Calm Calm 3.1 mph5.0 kmh 30.36 in1028.1 mb 0.00 in0.0 mm 0.00 in/hr0.0 mm/hr 0.00 in0.0 mm
04:13 PM 83.1°F28.4°C 78.9°F26.1°C 87% Calm Calm 3.1 mph5.0 kmh 30.36 in1028.1 mb 0.00 in0.0 mm 0.00 in/hr0.0 mm/hr 0.00 in0.0 mm
04:14 PM 82.9°F28.3°C 79.1°F26.2°C 88% Calm Calm 3.1 mph5.0 kmh 30.36 in1028.1 mb 0.00 in0.0 mm 0.00 in/hr0.0 mm/hr 0.00 in0.0 mm
04:15 PM 82.6°F28.1°C 79.4°F26.3°C 90% 0.7 mph W1.1 kmh W 3.1 mph5.0 kmh 30.36 in1028.1 mb 0.00 in0.0 mm 0.00 in/hr0.0 mm/hr 0.00 in0.0 mm
04:16 PM 82.0°F27.8°C 79.6°F26.4°C 92% 0.7 mph W1.1 kmh W 2.2 mph3.5 kmh 30.36 in1028.1 mb 0.00 in0.0 mm 0.00 in/hr0.0 mm/hr 0.00 in0.0 mm
04:17 PM 81.5°F27.5°C 80.0°F26.7°C 95% 0.7 mph W1.1 kmh W 2.2 mph3.5 kmh 30.36 in1028.1 mb 0.02 in0.5 mm 1.20 in/hr30.5 mm/hr 0.02 in0.5 mm
04:18 PM 81.1°F27.3°C 80.0°F26.7°C 96% Calm Calm 2.2 mph3.5 kmh 30.36 in1028.1 mb 0.02 in0.5 mm 0.00 in/hr0.0 mm/hr 0.02 in0.5 mm
04:19 PM 81.0°F27.2°C 79.8°F26.6°C 96% Calm Calm 2.2 mph3.5 kmh 30.36 in1028.1 mb 0.02 in0.5 mm 0.00 in/hr0.0 mm/hr 0.02 in0.5 mm
04:20 PM 80.8°F27.1°C 79.9°F26.6°C 97% 0.7 mph SSE1.1 kmh SSE 2.2 mph3.5 kmh 30.36 in1028.1 mb 0.02 in0.5 mm 0.00 in/hr0.0 mm/hr 0.02 in0.5 mm
04:21 PM 80.6°F27.0°C 80.7°F27.1°C 100% Calm Calm 2.2 mph3.5 kmh 30.37 in1028.4 mb 0.02 in0.5 mm 0.00 in/hr0.0 mm/hr 0.02 in0.5 mm
04:22 PM 80.4°F26.9°C 80.5°F26.9°C 100% Calm Calm 2.2 mph3.5 kmh 30.36 in1028.1 mb 0.02 in0.5 mm 0.00 in/hr0.0 mm/hr 0.02 in0.5 mm
04:23 PM 80.4°F26.9°C 80.5°F26.9°C 100% Calm Calm 2.2 mph3.5 kmh 30.36 in1028.1 mb 0.02 in0.5 mm 0.00 in/hr0.0 mm/hr 0.02 in0.5 mm
04:24 PM 80.4°F26.9°C 80.5°F26.9°C 100% Calm Calm 2.2 mph3.5 kmh 30.36 in1028.1 mb 0.02 in0.5 mm 0.00 in/hr0.0 mm/hr 0.02 in0.5 mm
04:25 PM 80.6°F27.0°C 80.7°F27.1°C 100% Calm Calm 2.2 mph3.5 kmh 30.36 in1028.1 mb 0.02 in0.5 mm 0.00 in/hr0.0 mm/hr 0.02 in0.5 mm
04:26 PM 80.6°F27.0°C 80.7°F27.1°C 100% Calm Calm 2.2 mph3.5 kmh 30.36 in1028.1 mb 0.02 in0.5 mm 0.00 in/hr0.0 mm/hr 0.02 in0.5 mm
04:27 PM 81.1°F27.3°C 81.2°F27.3°C 100% Calm Calm 2.2 mph3.5 kmh 30.36 in1028.1 mb 0.02 in0.5 mm 0.00 in/hr0.0 mm/hr 0.02 in0.5 mm
04:28 PM 81.3°F27.4°C 81.4°F27.4°C 100% Calm Calm 1.6 mph2.6 kmh 30.36 in1028.1 mb 0.02 in0.5 mm 0.00 in/hr0.0 mm/hr 0.02 in0.5 mm
04:29 PM 81.5°F27.5°C 81.6°F27.6°C 100% Calm Calm 1.6 mph2.6 kmh 30.36 in1028.1 mb 0.05 in1.3 mm 1.80 in/hr45.7 mm/hr 0.05 in1.3 mm
04:30 PM 81.7°F27.6°C 81.8°F27.7°C 100% Calm Calm 1.6 mph2.6 kmh 30.36 in1028.1 mb 0.05 in1.3 mm 0.00 in/hr0.0 mm/hr 0.05 in1.3 mm
04:31 PM 81.7°F27.6°C 81.8°F27.7°C 100% Calm Calm 1.6 mph2.6 kmh 30.36 in1028.1 mb 0.05 in1.3 mm 0.00 in/hr0.0 mm/hr 0.05 in1.3 mm
04:32 PM 81.7°F27.6°C 81.8°F27.7°C 100% 1.6 mph NW2.6 kmh NW 2.2 mph3.5 kmh 30.36 in1028.1 mb 0.05 in1.3 mm 0.00 in/hr0.0 mm/hr 0.05 in1.3 mm
04:33 PM 81.5°F27.5°C 81.6°F27.6°C 100% Calm Calm 2.2 mph3.5 kmh 30.36 in1028.1 mb 0.05 in1.3 mm 0.00 in/hr0.0 mm/hr 0.05 in1.3 mm
04:34 PM 81.7°F27.6°C 81.8°F27.7°C 100% Calm Calm 2.2 mph3.5 kmh 30.36 in1028.1 mb 0.05 in1.3 mm 0.00 in/hr0.0 mm/hr 0.05 in1.3 mm
04:35 PM 82.0°F27.8°C 82.1°F27.8°C 100% 0.7 mph NW1.1 kmh NW 2.2 mph3.5 kmh 30.36 in1028.1 mb 0.05 in1.3 mm 0.00 in/hr0.0 mm/hr 0.05 in1.3 mm
04:36 PM 81.7°F27.6°C 81.8°F27.7°C 100% 0.7 mph NW1.1 kmh NW 2.2 mph3.5 kmh 30.36 in1028.1 mb 0.05 in1.3 mm 0.00 in/hr0.0 mm/hr 0.05 in1.3 mm
04:37 PM 81.7°F27.6°C 81.8°F27.7°C 100% 0.7 mph NW1.1 kmh NW 2.2 mph3.5 kmh 30.36 in1028.1 mb 0.05 in1.3 mm 0.00 in/hr0.0 mm/hr 0.05 in1.3 mm
04:38 PM 81.7°F27.6°C 81.8°F27.7°C 100% Calm Calm 2.2 mph3.5 kmh 30.36 in1028.1 mb 0.05 in1.3 mm 0.00 in/hr0.0 mm/hr 0.05 in1.3 mm
04:39 PM 82.0°F27.8°C 82.1°F27.8°C 100% Calm Calm 2.2 mph3.5 kmh 30.36 in1028.1 mb 0.05 in1.3 mm 0.00 in/hr0.0 mm/hr 0.05 in1.3 mm
04:40 PM 82.0°F27.8°C 82.1°F27.8°C 100% Calm Calm 2.2 mph3.5 kmh 30.36 in1028.1 mb 0.05 in1.3 mm 0.00 in/hr0.0 mm/hr 0.05 in1.3 mm
04:41 PM 82.4°F28.0°C 82.5°F28.1°C 100% Calm Calm 2.2 mph3.5 kmh 30.36 in1028.1 mb 0.05 in1.3 mm 0.00 in/hr0.0 mm/hr 0.05 in1.3 mm
04:42 PM 82.8°F28.2°C 82.8°F28.2°C 100% Calm Calm 2.2 mph3.5 kmh 30.36 in1028.1 mb 0.05 in1.3 mm 0.00 in/hr0.0 mm/hr 0.05 in1.3 mm
04:43 PM 83.1°F28.4°C 83.2°F28.4°C 100% Calm Calm 2.2 mph3.5 kmh 30.36 in1028.1 mb 0.05 in1.3 mm 0.00 in/hr0.0 mm/hr 0.05 in1.3 mm
04:44 PM 83.3°F28.5°C 83.4°F28.6°C 100% Calm Calm 2.2 mph3.5 kmh 30.36 in1028.1 mb 0.05 in1.3 mm 0.00 in/hr0.0 mm/hr 0.05 in1.3 mm
04:45 PM 84.6°F29.2°C 84.7°F29.3°C 100% Calm Calm 2.2 mph3.5 kmh 30.36 in1028.1 mb 0.05 in1.3 mm 0.00 in/hr0.0 mm/hr 0.05 in1.3 mm
04:46 PM 84.9°F29.4°C 85.0°F29.4°C 100% Calm Calm 2.2 mph3.5 kmh 30.36 in1028.1 mb 0.05 in1.3 mm 0.00 in/hr0.0 mm/hr 0.05 in1.3 mm
04:47 PM 84.9°F29.4°C 85.0°F29.4°C 100% 0.7 mph SSW1.1 kmh SSW 2.2 mph3.5 kmh 30.36 in1028.1 mb 0.05 in1.3 mm 0.00 in/hr0.0 mm/hr 0.05 in1.3 mm
04:48 PM 85.1°F29.5°C 85.2°F29.6°C 100% Calm Calm 2.2 mph3.5 kmh 30.36 in1028.1 mb 0.05 in1.3 mm 0.00 in/hr0.0 mm/hr 0.05 in1.3 mm
04:49 PM 85.6°F29.8°C 85.7°F29.8°C 100% 1.6 mph WNW2.6 kmh WNW 3.8 mph6.1 kmh 30.36 in1028.1 mb 0.05 in1.3 mm 0.00 in/hr0.0 mm/hr 0.05 in1.3 mm
04:50 PM 85.6°F29.8°C 85.7°F29.8°C 100% 1.6 mph WNW2.6 kmh WNW 3.8 mph6.1 kmh 30.36 in1028.1 mb 0.05 in1.3 mm 0.00 in/hr0.0 mm/hr 0.05 in1.3 mm
04:51 PM 85.6°F29.8°C 85.7°F29.8°C 100% 2.2 mph NNW3.5 kmh NNW 5.4 mph8.7 kmh 30.36 in1028.1 mb 0.05 in1.3 mm 0.00 in/hr0.0 mm/hr 0.05 in1.3 mm
04:52 PM 84.9°F29.4°C 84.4°F29.1°C 98% 0.7 mph N1.1 kmh N 5.4 mph8.7 kmh 30.36 in1028.1 mb 0.05 in1.3 mm 0.00 in/hr0.0 mm/hr 0.05 in1.3 mm
04:53 PM 84.9°F29.4°C 83.4°F28.6°C 95% Calm Calm 5.4 mph8.7 kmh 30.36 in1028.1 mb 0.05 in1.3 mm 0.00 in/hr0.0 mm/hr 0.05 in1.3 mm
04:54 PM 85.3°F29.6°C 83.8°F28.8°C 95% Calm Calm 5.4 mph8.7 kmh 30.36 in1028.1 mb 0.05 in1.3 mm 0.00 in/hr0.0 mm/hr 0.05 in1.3 mm
04:55 PM 85.5°F29.7°C 84.0°F28.9°C 95% Calm Calm 5.4 mph8.7 kmh 30.36 in1028.1 mb 0.05 in1.3 mm 0.00 in/hr0.0 mm/hr 0.05 in1.3 mm
04:56 PM 85.6°F29.8°C 84.1°F28.9°C 95% 0.7 mph N1.1 kmh N 5.4 mph8.7 kmh 30.36 in1028.1 mb 0.05 in1.3 mm 0.00 in/hr0.0 mm/hr 0.05 in1.3 mm
04:57 PM 85.6°F29.8°C 83.5°F28.6°C 93% Calm Calm 5.4 mph8.7 kmh 30.36 in1028.1 mb 0.05 in1.3 mm 0.00 in/hr0.0 mm/hr 0.05 in1.3 mm
04:58 PM 85.8°F29.9°C 83.3°F28.5°C 92% 2.2 mph NW3.5 kmh NW 5.4 mph8.7 kmh 30.36 in1028.1 mb 0.05 in1.3 mm 0.00 in/hr0.0 mm/hr 0.05 in1.3 mm
04:59 PM 85.3°F29.6°C 82.8°F28.2°C 92% 0.7 mph WNW1.1 kmh WNW 5.4 mph8.7 kmh 30.36 in1028.1 mb 0.05 in1.3 mm 0.00 in/hr0.0 mm/hr 0.05 in1.3 mm
05:00 PM 85.5°F29.7°C 83.0°F28.3°C 92% Calm Calm 5.4 mph8.7 kmh 30.36 in1028.1 mb 0.05 in1.3 mm 0.00 in/hr0.0 mm/hr 0.05 in1.3 mm
05:01 PM 86.0°F30.0°C 83.5°F28.6°C 92% Calm Calm 5.4 mph8.7 kmh 30.35 in1027.8 mb 0.05 in1.3 mm 0.00 in/hr0.0 mm/hr 0.05 in1.3 mm
05:02 PM 86.0°F30.0°C 83.5°F28.6°C 92% 0.7 mph SW1.1 kmh SW 4.5 mph7.2 kmh 30.36 in1028.1 mb 0.05 in1.3 mm 0.00 in/hr0.0 mm/hr 0.05 in1.3 mm
05:03 PM 85.8°F29.9°C 83.0°F28.3°C 91% 3.1 mph SSW5.0 kmh SSW 6.0 mph9.7 kmh 30.36 in1028.1 mb 0.05 in1.3 mm 0.00 in/hr0.0 mm/hr 0.05 in1.3 mm
05:04 PM 84.9°F29.4°C 81.7°F27.6°C 90% 2.2 mph SSW3.5 kmh SSW 6.0 mph9.7 kmh 30.36 in1028.1 mb 0.05 in1.3 mm 0.00 in/hr0.0 mm/hr 0.05 in1.3 mm
05:05 PM 84.4°F29.1°C 81.2°F27.3°C 90% 1.6 mph SSW2.6 kmh SSW 6.0 mph9.7 kmh 30.36 in1028.1 mb 0.05 in1.3 mm 0.00 in/hr0.0 mm/hr 0.05 in1.3 mm
05:06 PM 84.4°F29.1°C 81.2°F27.3°C 90% 0.7 mph SSW1.1 kmh SSW 6.0 mph9.7 kmh 30.36 in1028.1 mb 0.05 in1.3 mm 0.00 in/hr0.0 mm/hr 0.05 in1.3 mm
05:07 PM 84.4°F29.1°C 81.5°F27.5°C 91% Calm Calm 6.0 mph9.7 kmh 30.36 in1028.1 mb 0.05 in1.3 mm 0.00 in/hr0.0 mm/hr 0.05 in1.3 mm
05:08 PM 84.7°F29.3°C 81.9°F27.7°C 91% 0.7 mph S1.1 kmh S 6.0 mph9.7 kmh 30.36 in1028.1 mb 0.05 in1.3 mm 0.00 in/hr0.0 mm/hr 0.05 in1.3 mm
05:09 PM 85.1°F29.5°C 81.9°F27.7°C 90% 0.7 mph S1.1 kmh S 6.0 mph9.7 kmh 30.36 in1028.1 mb 0.05 in1.3 mm 0.00 in/hr0.0 mm/hr 0.05 in1.3 mm
05:10 PM 85.1°F29.5°C 81.9°F27.7°C 90% 0.7 mph S1.1 kmh S 6.0 mph9.7 kmh 30.36 in1028.1 mb 0.05 in1.3 mm 0.00 in/hr0.0 mm/hr 0.05 in1.3 mm
05:11 PM 85.1°F29.5°C 81.9°F27.7°C 90% Calm Calm 6.0 mph9.7 kmh 30.36 in1028.1 mb 0.05 in1.3 mm 0.00 in/hr0.0 mm/hr 0.05 in1.3 mm
05:12 PM 85.3°F29.6°C 81.4°F27.4°C 88% Calm Calm 6.0 mph9.7 kmh 30.36 in1028.1 mb 0.05 in1.3 mm 0.00 in/hr0.0 mm/hr 0.05 in1.3 mm
05:13 PM 84.7°F29.3°C 80.5°F26.9°C 87% 1.6 mph SSW2.6 kmh SSW 6.0 mph9.7 kmh 30.36 in1028.1 mb 0.05 in1.3 mm 0.00 in/hr0.0 mm/hr 0.05 in1.3 mm
05:14 PM 84.0°F28.9°C 79.8°F26.6°C 87% 3.1 mph SSW5.0 kmh SSW 6.0 mph9.7 kmh 30.36 in1028.1 mb 0.05 in1.3 mm 0.00 in/hr0.0 mm/hr 0.05 in1.3 mm
05:15 PM 82.8°F28.2°C 78.6°F25.9°C 87% 1.6 mph SSE2.6 kmh SSE 5.4 mph8.7 kmh 30.36 in1028.1 mb 0.05 in1.3 mm 0.00 in/hr0.0 mm/hr 0.05 in1.3 mm
05:16 PM 83.1°F28.4°C 80.0°F26.7°C 90% Calm Calm 5.4 mph8.7 kmh 30.36 in1028.1 mb 0.05 in1.3 mm 0.00 in/hr0.0 mm/hr 0.05 in1.3 mm
05:17 PM 83.7°F28.7°C 80.5°F26.9°C 90% Calm Calm 5.4 mph8.7 kmh 30.36 in1028.1 mb 0.02 in0.5 mm 0.00 in/hr0.0 mm/hr 0.05 in1.3 mm
05:18 PM 84.2°F29.0°C 81.0°F27.2°C 90% Calm Calm 5.4 mph8.7 kmh 30.36 in1028.1 mb 0.02 in0.5 mm 0.00 in/hr0.0 mm/hr 0.05 in1.3 mm
05:19 PM 84.7°F29.3°C 81.6°F27.6°C 90% Calm Calm 5.4 mph8.7 kmh 30.36 in1028.1 mb 0.02 in0.5 mm 0.00 in/hr0.0 mm/hr 0.05 in1.3 mm
05:20 PM 84.7°F29.3°C 81.6°F27.6°C 90% Calm Calm 5.4 mph8.7 kmh 30.36 in1028.1 mb 0.02 in0.5 mm 0.00 in/hr0.0 mm/hr 0.05 in1.3 mm
05:21 PM 85.3°F29.6°C 82.1°F27.8°C 90% Calm Calm 5.4 mph8.7 kmh 30.36 in1028.1 mb 0.02 in0.5 mm 0.00 in/hr0.0 mm/hr 0.05 in1.3 mm
05:22 PM 85.3°F29.6°C 81.4°F27.4°C 88% Calm Calm 5.4 mph8.7 kmh 30.36 in1028.1 mb 0.02 in0.5 mm 0.00 in/hr0.0 mm/hr 0.05 in1.3 mm
05:23 PM 85.3°F29.6°C 81.4°F27.4°C 88% Calm Calm 5.4 mph8.7 kmh 30.36 in1028.1 mb 0.02 in0.5 mm 0.00 in/hr0.0 mm/hr 0.05 in1.3 mm
05:24 PM 85.5°F29.7°C 81.2°F27.3°C 87% 0.7 mph S1.1 kmh S 5.4 mph8.7 kmh 30.36 in1028.1 mb 0.02 in0.5 mm 0.00 in/hr0.0 mm/hr 0.05 in1.3 mm
05:25 PM 84.9°F29.4°C 80.7°F27.1°C 87% 0.7 mph SSW1.1 kmh SSW 3.1 mph5.0 kmh 30.36 in1028.1 mb 0.02 in0.5 mm 0.00 in/hr0.0 mm/hr 0.05 in1.3 mm
05:26 PM 85.1°F29.5°C 80.9°F27.2°C 87% Calm Calm 3.1 mph5.0 kmh 30.36 in1028.1 mb 0.02 in0.5 mm 0.00 in/hr0.0 mm/hr 0.05 in1.3 mm
05:27 PM 85.5°F29.7°C 81.2°F27.3°C 87% Calm Calm 3.1 mph5.0 kmh 30.36 in1028.1 mb 0.02 in0.5 mm 0.00 in/hr0.0 mm/hr 0.05 in1.3 mm
05:28 PM 84.7°F29.3°C 80.2°F26.8°C 86% Calm Calm 3.1 mph5.0 kmh 30.36 in1028.1 mb 0.00 in0.0 mm 0.00 in/hr0.0 mm/hr 0.05 in1.3 mm
05:29 PM 84.9°F29.4°C 80.3°F26.8°C 86% 0.7 mph SW1.1 kmh SW 3.1 mph5.0 kmh 30.36 in1028.1 mb 0.00 in0.0 mm 0.00 in/hr0.0 mm/hr 0.05 in1.3 mm
05:30 PM 84.7°F29.3°C 80.2°F26.8°C 86% Calm Calm 3.1 mph5.0 kmh 30.36 in1028.1 mb 0.00 in0.0 mm 0.00 in/hr0.0 mm/hr 0.05 in1.3 mm
05:31 PM 84.9°F29.4°C 80.3°F26.8°C 86% Calm Calm 3.1 mph5.0 kmh 30.36 in1028.1 mb 0.00 in0.0 mm 0.00 in/hr0.0 mm/hr 0.05 in1.3 mm
05:32 PM 84.9°F29.4°C 80.3°F26.8°C 86% Calm Calm 3.1 mph5.0 kmh 30.36 in1028.1 mb 0.00 in0.0 mm 0.00 in/hr0.0 mm/hr 0.05 in1.3 mm
05:33 PM 85.1°F29.5°C 80.5°F26.9°C 86% Calm Calm 3.1 mph5.0 kmh 30.36 in1028.1 mb 0.00 in0.0 mm 0.00 in/hr0.0 mm/hr 0.05 in1.3 mm
05:34 PM 84.9°F29.4°C 80.0°F26.7°C 85% Calm Calm 3.1 mph5.0 kmh 30.36 in1028.1 mb 0.00 in0.0 mm 0.00 in/hr0.0 mm/hr 0.05 in1.3 mm
05:35 PM 84.9°F29.4°C 80.3°F26.8°C 86% 1.6 mph W2.6 kmh W 3.1 mph5.0 kmh 30.36 in1028.1 mb 0.00 in0.0 mm 0.00 in/hr0.0 mm/hr 0.05 in1.3 mm
05:36 PM 84.0°F28.9°C 79.5°F26.4°C 86% 0.7 mph NW1.1 kmh NW 3.1 mph5.0 kmh 30.36 in1028.1 mb 0.00 in0.0 mm 0.00 in/hr0.0 mm/hr 0.05 in1.3 mm
05:37 PM 84.6°F29.2°C 80.0°F26.7°C 86% Calm Calm 3.1 mph5.0 kmh 30.36 in1028.1 mb 0.00 in0.0 mm 0.00 in/hr0.0 mm/hr 0.05 in1.3 mm
05:38 PM 84.6°F29.2°C 80.0°F26.7°C 86% Calm Calm 2.2 mph3.5 kmh 30.36 in1028.1 mb 0.00 in0.0 mm 0.00 in/hr0.0 mm/hr 0.05 in1.3 mm
05:39 PM 84.7°F29.3°C 80.5°F26.9°C 87% Calm Calm 2.2 mph3.5 kmh 30.36 in1028.1 mb 0.00 in0.0 mm 0.00 in/hr0.0 mm/hr 0.05 in1.3 mm
05:40 PM 85.3°F29.6°C 81.1°F27.3°C 87% Calm Calm 2.2 mph3.5 kmh 30.36 in1028.1 mb 0.00 in0.0 mm 0.00 in/hr0.0 mm/hr 0.05 in1.3 mm
05:41 PM 85.1°F29.5°C 80.5°F26.9°C 86% Calm Calm 2.2 mph3.5 kmh 30.36 in1028.1 mb 0.00 in0.0 mm 0.00 in/hr0.0 mm/hr 0.05 in1.3 mm
05:42 PM 85.5°F29.7°C 80.9°F27.2°C 86% Calm Calm 2.2 mph3.5 kmh 30.36 in1028.1 mb 0.00 in0.0 mm 0.00 in/hr0.0 mm/hr 0.05 in1.3 mm
05:43 PM 84.9°F29.4°C 80.0°F26.7°C 85% Calm Calm 2.2 mph3.5 kmh 30.36 in1028.1 mb 0.00 in0.0 mm 0.00 in/hr0.0 mm/hr 0.05 in1.3 mm
05:44 PM 84.0°F28.9°C 79.5°F26.4°C 86% 0.7 mph SW1.1 kmh SW 4.5 mph7.2 kmh 30.36 in1028.1 mb 0.00 in0.0 mm 0.00 in/hr0.0 mm/hr 0.05 in1.3 mm
05:45 PM 84.2°F29.0°C 79.3°F26.3°C 85% Calm Calm 4.5 mph7.2 kmh 30.36 in1028.1 mb 0.00 in0.0 mm 0.00 in/hr0.0 mm/hr 0.05 in1.3 mm
05:46 PM 84.4°F29.1°C 79.5°F26.4°C 85% 2.2 mph SW3.5 kmh SW 4.5 mph7.2 kmh 30.36 in1028.1 mb 0.00 in0.0 mm 0.00 in/hr0.0 mm/hr 0.05 in1.3 mm
05:47 PM 84.4°F29.1°C 79.5°F26.4°C 85% 1.6 mph SW2.6 kmh SW 4.5 mph7.2 kmh 30.36 in1028.1 mb 0.00 in0.0 mm 0.00 in/hr0.0 mm/hr 0.05 in1.3 mm
05:48 PM 84.6°F29.2°C 80.0°F26.7°C 86% Calm Calm 4.5 mph7.2 kmh 30.36 in1028.1 mb 0.00 in0.0 mm 0.00 in/hr0.0 mm/hr 0.05 in1.3 mm
05:49 PM 84.6°F29.2°C 80.0°F26.7°C 86% 5.4 mph SW8.7 kmh SW 8.3 mph13.4 kmh 30.36 in1028.1 mb 0.00 in0.0 mm 0.00 in/hr0.0 mm/hr 0.05 in1.3 mm
05:50 PM 82.9°F28.3°C 78.4°F25.8°C 86% 3.1 mph SSW5.0 kmh SSW 8.3 mph13.4 kmh 30.36 in1028.1 mb 0.00 in0.0 mm 0.00 in/hr0.0 mm/hr 0.05 in1.3 mm
05:51 PM 82.6°F28.1°C 78.0°F25.6°C 86% 2.2 mph SSW3.5 kmh SSW 8.3 mph13.4 kmh 30.36 in1028.1 mb 0.00 in0.0 mm 0.00 in/hr0.0 mm/hr 0.05 in1.3 mm
05:52 PM 82.9°F28.3°C 78.7°F25.9°C 87% Calm Calm 8.3 mph13.4 kmh 30.36 in1028.1 mb 0.00 in0.0 mm 0.00 in/hr0.0 mm/hr 0.05 in1.3 mm
05:53 PM 83.1°F28.4°C 79.3°F26.3°C 88% Calm Calm 8.3 mph13.4 kmh 30.36 in1028.1 mb 0.00 in0.0 mm 0.00 in/hr0.0 mm/hr 0.05 in1.3 mm
05:54 PM 83.5°F28.6°C 79.6°F26.4°C 88% 0.7 mph SW1.1 kmh SW 8.3 mph13.4 kmh 30.36 in1028.1 mb 0.00 in0.0 mm 0.00 in/hr0.0 mm/hr 0.05 in1.3 mm
05:55 PM 83.8°F28.8°C 80.0°F26.7°C 88% Calm Calm 8.3 mph13.4 kmh 30.36 in1028.1 mb 0.00 in0.0 mm 0.00 in/hr0.0 mm/hr 0.05 in1.3 mm
05:56 PM 84.0°F28.9°C 80.2°F26.8°C 88% Calm Calm 8.3 mph13.4 kmh 30.36 in1028.1 mb 0.00 in0.0 mm 0.00 in/hr0.0 mm/hr 0.05 in1.3 mm
05:57 PM 84.2°F29.0°C 80.0°F26.7°C 87% Calm Calm 8.3 mph13.4 kmh 30.36 in1028.1 mb 0.00 in0.0 mm 0.00 in/hr0.0 mm/hr 0.05 in1.3 mm
05:58 PM 84.0°F28.9°C 80.2°F26.8°C 88% Calm Calm 8.3 mph13.4 kmh 30.36 in1028.1 mb 0.00 in0.0 mm 0.00 in/hr0.0 mm/hr 0.05 in1.3 mm
05:59 PM 84.2°F29.0°C 80.0°F26.7°C 87% Calm Calm 8.3 mph13.4 kmh 30.36 in1028.1 mb 0.00 in0.0 mm 0.00 in/hr0.0 mm/hr 0.05 in1.3 mm
06:00 PM 83.7°F28.7°C 79.5°F26.4°C 87% 0.7 mph WSW1.1 kmh WSW 6.0 mph9.7 kmh 30.36 in1028.1 mb 0.00 in0.0 mm 0.00 in/hr0.0 mm/hr 0.05 in1.3 mm
06:01 PM 83.5°F28.6°C 79.3°F26.3°C 87% 1.6 mph WSW2.6 kmh WSW 4.5 mph7.2 kmh 30.36 in1028.1 mb 0.00 in0.0 mm 0.00 in/hr0.0 mm/hr 0.05 in1.3 mm
06:02 PM 83.3°F28.5°C 79.1°F26.2°C 87% Calm Calm 4.5 mph7.2 kmh 30.36 in1028.1 mb 0.00 in0.0 mm 0.00 in/hr0.0 mm/hr 0.05 in1.3 mm
06:03 PM 83.3°F28.5°C 79.1°F26.2°C 87% Calm Calm 4.5 mph7.2 kmh 30.36 in1028.1 mb 0.00 in0.0 mm 0.00 in/hr0.0 mm/hr 0.05 in1.3 mm
06:04 PM 83.3°F28.5°C 79.4°F26.3°C 88% Calm Calm 4.5 mph7.2 kmh 30.36 in1028.1 mb 0.00 in0.0 mm 0.00 in/hr0.0 mm/hr 0.05 in1.3 mm
06:05 PM 83.1°F28.4°C 79.3°F26.3°C 88% Calm Calm 4.5 mph7.2 kmh 30.36 in1028.1 mb 0.00 in0.0 mm 0.00 in/hr0.0 mm/hr 0.05 in1.3 mm
06:06 PM 83.3°F28.5°C 79.4°F26.3°C 88% Calm Calm 4.5 mph7.2 kmh 30.36 in1028.1 mb 0.00 in0.0 mm 0.00 in/hr0.0 mm/hr 0.05 in1.3 mm
06:07 PM 83.1°F28.4°C 79.3°F26.3°C 88% 2.2 mph WSW3.5 kmh WSW 6.0 mph9.7 kmh 30.36 in1028.1 mb 0.00 in0.0 mm 0.00 in/hr0.0 mm/hr 0.05 in1.3 mm
06:08 PM 82.6°F28.1°C 78.4°F25.8°C 87% 0.7 mph WSW1.1 kmh WSW 6.0 mph9.7 kmh 30.36 in1028.1 mb 0.00 in0.0 mm 0.00 in/hr0.0 mm/hr 0.05 in1.3 mm
06:09 PM 82.4°F28.0°C 78.2°F25.7°C 87% Calm Calm 6.0 mph9.7 kmh 30.36 in1028.1 mb 0.00 in0.0 mm 0.00 in/hr0.0 mm/hr 0.05 in1.3 mm
06:10 PM 82.6°F28.1°C 78.7°F25.9°C 88% Calm Calm 6.0 mph9.7 kmh 30.36 in1028.1 mb 0.00 in0.0 mm 0.00 in/hr0.0 mm/hr 0.05 in1.3 mm
06:11 PM 82.6°F28.1°C 78.7°F25.9°C 88% Calm Calm 6.0 mph9.7 kmh 30.36 in1028.1 mb 0.00 in0.0 mm 0.00 in/hr0.0 mm/hr 0.05 in1.3 mm
06:12 PM 82.6°F28.1°C 78.7°F25.9°C 88% Calm Calm 6.0 mph9.7 kmh 30.36 in1028.1 mb 0.00 in0.0 mm 0.00 in/hr0.0 mm/hr 0.05 in1.3 mm
06:13 PM 82.4°F28.0°C 78.6°F25.9°C 88% Calm Calm 6.0 mph9.7 kmh 30.36 in1028.1 mb 0.00 in0.0 mm 0.00 in/hr0.0 mm/hr 0.05 in1.3 mm
06:14 PM 82.4°F28.0°C 78.6°F25.9°C 88% Calm Calm 6.0 mph9.7 kmh 30.36 in1028.1 mb 0.00 in0.0 mm 0.00 in/hr0.0 mm/hr 0.05 in1.3 mm
06:15 PM 82.4°F28.0°C 78.6°F25.9°C 88% Calm Calm 6.0 mph9.7 kmh 30.36 in1028.1 mb 0.00 in0.0 mm 0.00 in/hr0.0 mm/hr 0.05 in1.3 mm
06:16 PM 82.4°F28.0°C 78.6°F25.9°C 88% Calm Calm 6.0 mph9.7 kmh 30.36 in1028.1 mb 0.00 in0.0 mm 0.00 in/hr0.0 mm/hr 0.05 in1.3 mm
06:17 PM 82.4°F28.0°C 78.6°F25.9°C 88% Calm Calm 6.0 mph9.7 kmh 30.36 in1028.1 mb 0.00 in0.0 mm 0.00 in/hr0.0 mm/hr 0.05 in1.3 mm
06:18 PM 82.4°F28.0°C 78.6°F25.9°C 88% Calm Calm 1.6 mph2.6 kmh 30.36 in1028.1 mb 0.00 in0.0 mm 0.00 in/hr0.0 mm/hr 0.05 in1.3 mm
06:19 PM 81.7°F27.6°C 78.9°F26.1°C 91% Calm Calm 1.6 mph2.6 kmh 30.36 in1028.1 mb 0.00 in0.0 mm 0.00 in/hr0.0 mm/hr 0.05 in1.3 mm
06:20 PM 81.7°F27.6°C 78.9°F26.1°C 91% Calm Calm 1.6 mph2.6 kmh 30.36 in1028.1 mb 0.00 in0.0 mm 0.00 in/hr0.0 mm/hr 0.05 in1.3 mm
06:21 PM 81.7°F27.6°C 78.9°F26.1°C 91% Calm Calm 1.6 mph2.6 kmh 30.36 in1028.1 mb 0.00 in0.0 mm 0.00 in/hr0.0 mm/hr 0.05 in1.3 mm
06:22 PM 81.7°F27.6°C 78.9°F26.1°C 91% Calm Calm 1.6 mph2.6 kmh 30.36 in1028.1 mb 0.00 in0.0 mm 0.00 in/hr0.0 mm/hr 0.05 in1.3 mm
06:23 PM 81.7°F27.6°C 78.9°F26.1°C 91% Calm Calm 1.6 mph2.6 kmh 30.36 in1028.1 mb 0.00 in0.0 mm 0.00 in/hr0.0 mm/hr 0.05 in1.3 mm
06:24 PM 81.7°F27.6°C 78.9°F26.1°C 91% Calm Calm 0.7 mph1.1 kmh 30.36 in1028.1 mb 0.00 in0.0 mm 0.00 in/hr0.0 mm/hr 0.05 in1.3 mm
06:25 PM 81.7°F27.6°C 79.2°F26.2°C 92% Calm Calm 0.7 mph1.1 kmh 30.36 in1028.1 mb 0.00 in0.0 mm 0.00 in/hr0.0 mm/hr 0.05 in1.3 mm
06:26 PM 81.5°F27.5°C 79.0°F26.1°C 92% Calm Calm 0.7 mph1.1 kmh 30.36 in1028.1 mb 0.00 in0.0 mm 0.00 in/hr0.0 mm/hr 0.05 in1.3 mm
06:27 PM 81.5°F27.5°C 79.0°F26.1°C 92% Calm Calm 0.7 mph1.1 kmh 30.36 in1028.1 mb 0.00 in0.0 mm 0.00 in/hr0.0 mm/hr 0.05 in1.3 mm
06:28 PM 81.5°F27.5°C 79.0°F26.1°C 92% Calm Calm 0.7 mph1.1 kmh 30.36 in1028.1 mb 0.00 in0.0 mm 0.00 in/hr0.0 mm/hr 0.05 in1.3 mm
06:29 PM 81.3°F27.4°C 78.8°F26.0°C 92% Calm Calm -- 30.36 in1028.1 mb 0.00 in0.0 mm 0.00 in/hr0.0 mm/hr 0.05 in1.3 mm
06:30 PM 81.1°F27.3°C 78.7°F25.9°C 92% Calm Calm -- 30.36 in1028.1 mb 0.00 in0.0 mm 0.00 in/hr0.0 mm/hr 0.05 in1.3 mm
06:31 PM 81.0°F27.2°C 78.5°F25.8°C 92% Calm Calm -- 30.36 in1028.1 mb 0.00 in0.0 mm 0.00 in/hr0.0 mm/hr 0.05 in1.3 mm
06:32 PM 80.8°F27.1°C 78.3°F25.7°C 92% Calm Calm -- 30.36 in1028.1 mb 0.00 in0.0 mm 0.00 in/hr0.0 mm/hr 0.05 in1.3 mm
06:33 PM 81.0°F27.2°C 78.8°F26.0°C 93% Calm Calm -- 30.36 in1028.1 mb 0.00 in0.0 mm 0.00 in/hr0.0 mm/hr 0.05 in1.3 mm
06:34 PM 80.8°F27.1°C 78.6°F25.9°C 93% Calm Calm -- 30.37 in1028.4 mb 0.00 in0.0 mm 0.00 in/hr0.0 mm/hr 0.05 in1.3 mm
06:35 PM 80.6°F27.0°C 78.5°F25.8°C 93% Calm Calm -- 30.36 in1028.1 mb 0.00 in0.0 mm 0.00 in/hr0.0 mm/hr 0.05 in1.3 mm
06:36 PM 80.6°F27.0°C 78.5°F25.8°C 93% Calm Calm -- 30.36 in1028.1 mb 0.00 in0.0 mm 0.00 in/hr0.0 mm/hr 0.05 in1.3 mm
06:37 PM 80.8°F27.1°C 78.6°F25.9°C 93% Calm Calm -- 30.36 in1028.1 mb 0.00 in0.0 mm 0.00 in/hr0.0 mm/hr 0.05 in1.3 mm
06:38 PM 80.8°F27.1°C 78.6°F25.9°C 93% Calm Calm -- 30.36 in1028.1 mb 0.00 in0.0 mm 0.00 in/hr0.0 mm/hr 0.05 in1.3 mm
06:39 PM 81.0°F27.2°C 78.8°F26.0°C 93% Calm Calm -- 30.36 in1028.1 mb 0.00 in0.0 mm 0.00 in/hr0.0 mm/hr 0.05 in1.3 mm
06:40 PM 80.8°F27.1°C 78.6°F25.9°C 93% Calm Calm -- 30.36 in1028.1 mb 0.00 in0.0 mm 0.00 in/hr0.0 mm/hr 0.05 in1.3 mm
06:41 PM 80.8°F27.1°C 78.6°F25.9°C 93% Calm Calm 0.7 mph1.1 kmh 30.36 in1028.1 mb 0.00 in0.0 mm 0.00 in/hr0.0 mm/hr 0.05 in1.3 mm
06:42 PM 80.6°F27.0°C 78.5°F25.8°C 93% Calm Calm 0.7 mph1.1 kmh 30.36 in1028.1 mb 0.00 in0.0 mm 0.00 in/hr0.0 mm/hr 0.05 in1.3 mm
06:43 PM 80.6°F27.0°C 78.5°F25.8°C 93% Calm Calm 0.7 mph1.1 kmh 30.36 in1028.1 mb 0.00 in0.0 mm 0.00 in/hr0.0 mm/hr 0.05 in1.3 mm
06:44 PM 80.2°F26.8°C 78.7°F25.9°C 95% Calm Calm 0.7 mph1.1 kmh 30.36 in1028.1 mb 0.00 in0.0 mm 0.00 in/hr0.0 mm/hr 0.05 in1.3 mm
06:45 PM 80.2°F26.8°C 79.1°F26.2°C 96% Calm Calm 1.6 mph2.6 kmh 30.36 in1028.1 mb 0.00 in0.0 mm 0.00 in/hr0.0 mm/hr 0.05 in1.3 mm
06:46 PM 80.1°F26.7°C 78.9°F26.1°C 96% Calm Calm 1.6 mph2.6 kmh 30.36 in1028.1 mb 0.00 in0.0 mm 0.00 in/hr0.0 mm/hr 0.05 in1.3 mm
06:47 PM 80.1°F26.7°C 78.9°F26.1°C 96% Calm Calm 1.6 mph2.6 kmh 30.36 in1028.1 mb 0.00 in0.0 mm 0.00 in/hr0.0 mm/hr 0.05 in1.3 mm
06:48 PM 80.1°F26.7°C 78.9°F26.1°C 96% Calm Calm 1.6 mph2.6 kmh 30.36 in1028.1 mb 0.00 in0.0 mm 0.00 in/hr0.0 mm/hr 0.05 in1.3 mm
06:49 PM 80.1°F26.7°C 78.9°F26.1°C 96% Calm Calm 1.6 mph2.6 kmh 30.36 in1028.1 mb 0.00 in0.0 mm 0.00 in/hr0.0 mm/hr 0.05 in1.3 mm
06:50 PM 80.1°F26.7°C 79.2°F26.2°C 97% Calm Calm 1.6 mph2.6 kmh 30.36 in1028.1 mb 0.00 in0.0 mm 0.00 in/hr0.0 mm/hr 0.05 in1.3 mm
06:51 PM 80.1°F26.7°C 79.2°F26.2°C 97% Calm Calm 1.6 mph2.6 kmh 30.36 in1028.1 mb 0.00 in0.0 mm 0.00 in/hr0.0 mm/hr 0.05 in1.3 mm
06:52 PM 80.1°F26.7°C 79.2°F26.2°C 97% Calm Calm 1.6 mph2.6 kmh 30.36 in1028.1 mb 0.00 in0.0 mm 0.00 in/hr0.0 mm/hr 0.05 in1.3 mm
06:53 PM 80.1°F26.7°C 79.2°F26.2°C 97% Calm Calm 1.6 mph2.6 kmh 30.36 in1028.1 mb 0.00 in0.0 mm 0.00 in/hr0.0 mm/hr 0.05 in1.3 mm
06:54 PM 80.1°F26.7°C 79.2°F26.2°C 97% Calm Calm 1.6 mph2.6 kmh 30.36 in1028.1 mb 0.00 in0.0 mm 0.00 in/hr0.0 mm/hr 0.05 in1.3 mm
06:55 PM 80.1°F26.7°C 79.2°F26.2°C 97% Calm Calm 1.6 mph2.6 kmh 30.36 in1028.1 mb 0.00 in0.0 mm 0.00 in/hr0.0 mm/hr 0.05 in1.3 mm
06:56 PM 79.9°F26.6°C 79.0°F26.1°C 97% Calm Calm -- 30.36 in1028.1 mb 0.00 in0.0 mm 0.00 in/hr0.0 mm/hr 0.05 in1.3 mm
06:57 PM 79.9°F26.6°C 79.0°F26.1°C 97% Calm Calm -- 30.37 in1028.4 mb 0.00 in0.0 mm 0.00 in/hr0.0 mm/hr 0.05 in1.3 mm
06:58 PM 79.9°F26.6°C 79.0°F26.1°C 97% Calm Calm -- 30.37 in1028.4 mb 0.00 in0.0 mm 0.00 in/hr0.0 mm/hr 0.05 in1.3 mm
06:59 PM 79.9°F26.6°C 79.0°F26.1°C 97% Calm Calm -- 30.36 in1028.1 mb 0.00 in0.0 mm 0.00 in/hr0.0 mm/hr 0.05 in1.3 mm
07:00 PM 79.7°F26.5°C 78.8°F26.0°C 97% Calm Calm -- 30.37 in1028.4 mb 0.00 in0.0 mm 0.00 in/hr0.0 mm/hr 0.05 in1.3 mm
07:01 PM 79.7°F26.5°C 79.2°F26.2°C 98% Calm Calm -- 30.37 in1028.4 mb 0.00 in0.0 mm 0.00 in/hr0.0 mm/hr 0.05 in1.3 mm
07:02 PM 79.7°F26.5°C 79.2°F26.2°C 98% Calm Calm -- 30.37 in1028.4 mb 0.00 in0.0 mm 0.00 in/hr0.0 mm/hr 0.05 in1.3 mm
07:03 PM 79.7°F26.5°C 79.2°F26.2°C 98% Calm Calm -- 30.37 in1028.4 mb 0.00 in0.0 mm 0.00 in/hr0.0 mm/hr 0.05 in1.3 mm
07:04 PM 79.7°F26.5°C 79.2°F26.2°C 98% Calm Calm -- 30.36 in1028.1 mb 0.00 in0.0 mm 0.00 in/hr0.0 mm/hr 0.05 in1.3 mm
07:05 PM 79.5°F26.4°C 79.0°F26.1°C 98% Calm Calm -- 30.37 in1028.4 mb 0.00 in0.0 mm 0.00 in/hr0.0 mm/hr 0.05 in1.3 mm
07:06 PM 79.5°F26.4°C 79.0°F26.1°C 98% Calm Calm -- 30.37 in1028.4 mb 0.00 in0.0 mm 0.00 in/hr0.0 mm/hr 0.05 in1.3 mm
07:07 PM 79.5°F26.4°C 79.0°F26.1°C 98% Calm Calm -- 30.37 in1028.4 mb 0.00 in0.0 mm 0.00 in/hr0.0 mm/hr 0.05 in1.3 mm
07:08 PM 79.5°F26.4°C 79.0°F26.1°C 98% Calm Calm -- 30.37 in1028.4 mb 0.00 in0.0 mm 0.00 in/hr0.0 mm/hr 0.05 in1.3 mm
07:09 PM 79.5°F26.4°C 79.6°F26.4°C 100% Calm Calm -- 30.37 in1028.4 mb 0.00 in0.0 mm 0.00 in/hr0.0 mm/hr 0.05 in1.3 mm
07:10 PM 79.5°F26.4°C 79.6°F26.4°C 100% Calm Calm -- 30.37 in1028.4 mb 0.00 in0.0 mm 0.00 in/hr0.0 mm/hr 0.05 in1.3 mm
07:11 PM 79.5°F26.4°C 79.6°F26.4°C 100% Calm Calm -- 30.37 in1028.4 mb 0.00 in0.0 mm 0.00 in/hr0.0 mm/hr 0.05 in1.3 mm
07:12 PM 79.5°F26.4°C 79.6°F26.4°C 100% Calm Calm -- 30.37 in1028.4 mb 0.00 in0.0 mm 0.00 in/hr0.0 mm/hr 0.05 in1.3 mm
07:13 PM 79.3°F26.3°C 79.4°F26.3°C 100% Calm Calm -- 30.37 in1028.4 mb 0.00 in0.0 mm 0.00 in/hr0.0 mm/hr 0.05 in1.3 mm
07:14 PM 79.3°F26.3°C 79.4°F26.3°C 100% Calm Calm -- 30.38 in1028.8 mb 0.00 in0.0 mm 0.00 in/hr0.0 mm/hr 0.05 in1.3 mm
07:15 PM 79.3°F26.3°C 79.4°F26.3°C 100% Calm Calm -- 30.38 in1028.8 mb 0.00 in0.0 mm 0.00 in/hr0.0 mm/hr 0.05 in1.3 mm
07:16 PM 79.3°F26.3°C 79.4°F26.3°C 100% Calm Calm -- 30.38 in1028.8 mb 0.00 in0.0 mm 0.00 in/hr0.0 mm/hr 0.05 in1.3 mm
07:17 PM 79.3°F26.3°C 79.4°F26.3°C 100% Calm Calm -- 30.37 in1028.4 mb 0.00 in0.0 mm 0.00 in/hr0.0 mm/hr 0.05 in1.3 mm
07:18 PM 79.3°F26.3°C 79.4°F26.3°C 100% Calm Calm -- 30.38 in1028.8 mb 0.00 in0.0 mm 0.00 in/hr0.0 mm/hr 0.05 in1.3 mm
07:19 PM 79.3°F26.3°C 79.4°F26.3°C 100% Calm Calm -- 30.37 in1028.4 mb 0.00 in0.0 mm 0.00 in/hr0.0 mm/hr 0.05 in1.3 mm
07:20 PM 79.3°F26.3°C 79.4°F26.3°C 100% Calm Calm -- 30.38 in1028.8 mb 0.00 in0.0 mm 0.00 in/hr0.0 mm/hr 0.05 in1.3 mm
07:21 PM 79.2°F26.2°C 79.2°F26.2°C 100% Calm Calm -- 30.38 in1028.8 mb 0.00 in0.0 mm 0.00 in/hr0.0 mm/hr 0.05 in1.3 mm
07:22 PM 79.2°F26.2°C 79.2°F26.2°C 100% Calm Calm -- 30.38 in1028.8 mb 0.00 in0.0 mm 0.00 in/hr0.0 mm/hr 0.05 in1.3 mm
07:23 PM 78.8°F26.0°C 78.9°F26.1°C 100% Calm Calm -- 30.38 in1028.8 mb 0.00 in0.0 mm 0.00 in/hr0.0 mm/hr 0.05 in1.3 mm
07:24 PM 78.6°F25.9°C 78.7°F25.9°C 100% Calm Calm -- 30.37 in1028.4 mb 0.00 in0.0 mm 0.00 in/hr0.0 mm/hr 0.05 in1.3 mm
07:25 PM 78.3°F25.7°C 78.3°F25.7°C 100% Calm Calm -- 30.37 in1028.4 mb 0.00 in0.0 mm 0.00 in/hr0.0 mm/hr 0.05 in1.3 mm
07:26 PM 78.1°F25.6°C 78.1°F25.6°C 100% Calm Calm -- 30.38 in1028.8 mb 0.00 in0.0 mm 0.00 in/hr0.0 mm/hr 0.05 in1.3 mm
07:27 PM 78.3°F25.7°C 78.3°F25.7°C 100% Calm Calm -- 30.38 in1028.8 mb 0.00 in0.0 mm 0.00 in/hr0.0 mm/hr 0.05 in1.3 mm
07:28 PM 78.1°F25.6°C 78.1°F25.6°C 100% Calm Calm -- 30.37 in1028.4 mb 0.00 in0.0 mm 0.00 in/hr0.0 mm/hr 0.05 in1.3 mm
07:29 PM 77.9°F25.5°C 78.0°F25.6°C 100% Calm Calm -- 30.37 in1028.4 mb 0.02 in0.5 mm 1.20 in/hr30.5 mm/hr 0.07 in1.8 mm
07:30 PM 77.9°F25.5°C 78.0°F25.6°C 100% Calm Calm -- 30.38 in1028.8 mb 0.02 in0.5 mm 0.00 in/hr0.0 mm/hr 0.07 in1.8 mm
07:31 PM 77.7°F25.4°C 77.8°F25.4°C 100% Calm Calm -- 30.37 in1028.4 mb 0.02 in0.5 mm 0.00 in/hr0.0 mm/hr 0.07 in1.8 mm
07:32 PM 77.5°F25.3°C 77.6°F25.3°C 100% Calm Calm -- 30.37 in1028.4 mb 0.02 in0.5 mm 0.00 in/hr0.0 mm/hr 0.07 in1.8 mm
07:33 PM 77.4°F25.2°C 77.4°F25.2°C 100% Calm Calm -- 30.37 in1028.4 mb 0.02 in0.5 mm 0.00 in/hr0.0 mm/hr 0.07 in1.8 mm
07:34 PM 77.4°F25.2°C 77.4°F25.2°C 100% Calm Calm -- 30.37 in1028.4 mb 0.02 in0.5 mm 0.00 in/hr0.0 mm/hr